<?xml version="1.0" encoding="UTF-8" standalone="no" ?>
<gpx xmlns="http://www.topografix.com/GPX/1/1" xmlns:xsi="http://www.w3.org/2001/XMLSchema-instance" xsi:schemaLocation="http://www.topografix.com/GPX/1/1 http://www.topografix.com/GPX/1/1/gpx.xsd" version="1.1" creator="VisuGPX - https://www.visugpx.com">
  <metadata>
    <name>Emparis Light avec Jean</name>
    <desc><![CDATA[ben voilà de quoi s'amuser blablablablabla]]></desc>
  </metadata>
  <trk>
    <name><![CDATA[Emparis]]></name>
    <trkseg>
      <trkpt lat="45.07313" lon="6.1747">
        <ele>1558</ele>
        <time>2012-08-15T07:25:05Z</time>
      </trkpt>
      <trkpt lat="45.07314" lon="6.1747">
        <ele>1558</ele>
        <time>2012-08-15T07:25:14Z</time>
      </trkpt>
      <trkpt lat="45.07314" lon="6.1747">
        <ele>1558</ele>
        <time>2012-08-15T07:25:18Z</time>
      </trkpt>
      <trkpt lat="45.07314" lon="6.1747">
        <ele>1558</ele>
        <time>2012-08-15T07:25:26Z</time>
      </trkpt>
      <trkpt lat="45.07314" lon="6.1747">
        <ele>1558</ele>
        <time>2012-08-15T07:25:38Z</time>
      </trkpt>
      <trkpt lat="45.07314" lon="6.1747">
        <ele>1558</ele>
        <time>2012-08-15T07:25:56Z</time>
      </trkpt>
      <trkpt lat="45.07313" lon="6.1747">
        <ele>1558</ele>
        <time>2012-08-15T07:26:47Z</time>
      </trkpt>
      <trkpt lat="45.07314" lon="6.1747">
        <ele>1558</ele>
        <time>2012-08-15T07:26:56Z</time>
      </trkpt>
      <trkpt lat="45.0734" lon="6.17507">
        <ele>1564</ele>
        <time>2012-08-15T07:27:12Z</time>
      </trkpt>
      <trkpt lat="45.0741" lon="6.17605">
        <ele>1558</ele>
        <time>2012-08-15T07:27:34Z</time>
      </trkpt>
      <trkpt lat="45.07481" lon="6.1768">
        <ele>1560</ele>
        <time>2012-08-15T07:27:52Z</time>
      </trkpt>
      <trkpt lat="45.07548" lon="6.17775">
        <ele>1559</ele>
        <time>2012-08-15T07:28:11Z</time>
      </trkpt>
      <trkpt lat="45.07628" lon="6.17865">
        <ele>1562</ele>
        <time>2012-08-15T07:28:29Z</time>
      </trkpt>
      <trkpt lat="45.07701" lon="6.17921">
        <ele>1563</ele>
        <time>2012-08-15T07:28:43Z</time>
      </trkpt>
      <trkpt lat="45.07756" lon="6.17971">
        <ele>1566</ele>
        <time>2012-08-15T07:28:54Z</time>
      </trkpt>
      <trkpt lat="45.07786" lon="6.17984">
        <ele>1566</ele>
        <time>2012-08-15T07:28:59Z</time>
      </trkpt>
      <trkpt lat="45.07818" lon="6.17983">
        <ele>1566</ele>
        <time>2012-08-15T07:29:04Z</time>
      </trkpt>
      <trkpt lat="45.07847" lon="6.18016">
        <ele>1565</ele>
        <time>2012-08-15T07:29:12Z</time>
      </trkpt>
      <trkpt lat="45.07853" lon="6.1806">
        <ele>1568</ele>
        <time>2012-08-15T07:29:22Z</time>
      </trkpt>
      <trkpt lat="45.07861" lon="6.18096">
        <ele>1573</ele>
        <time>2012-08-15T07:29:34Z</time>
      </trkpt>
      <trkpt lat="45.07878" lon="6.18126">
        <ele>1575</ele>
        <time>2012-08-15T07:29:48Z</time>
      </trkpt>
      <trkpt lat="45.07886" lon="6.18139">
        <ele>1575</ele>
        <time>2012-08-15T07:29:55Z</time>
      </trkpt>
      <trkpt lat="45.07883" lon="6.18145">
        <ele>1576</ele>
        <time>2012-08-15T07:29:59Z</time>
      </trkpt>
      <trkpt lat="45.07873" lon="6.18138">
        <ele>1576</ele>
        <time>2012-08-15T07:30:04Z</time>
      </trkpt>
      <trkpt lat="45.07849" lon="6.18113">
        <ele>1575</ele>
        <time>2012-08-15T07:30:21Z</time>
      </trkpt>
      <trkpt lat="45.07834" lon="6.18084">
        <ele>1570</ele>
        <time>2012-08-15T07:30:38Z</time>
      </trkpt>
      <trkpt lat="45.07833" lon="6.18083">
        <ele>1570</ele>
        <time>2012-08-15T07:30:39Z</time>
      </trkpt>
      <trkpt lat="45.0782" lon="6.18079">
        <ele>1568</ele>
        <time>2012-08-15T07:30:48Z</time>
      </trkpt>
      <trkpt lat="45.07789" lon="6.18089">
        <ele>1579</ele>
        <time>2012-08-15T07:31:08Z</time>
      </trkpt>
      <trkpt lat="45.07762" lon="6.18097">
        <ele>1579</ele>
        <time>2012-08-15T07:31:26Z</time>
      </trkpt>
      <trkpt lat="45.07733" lon="6.18106">
        <ele>1587</ele>
        <time>2012-08-15T07:31:44Z</time>
      </trkpt>
      <trkpt lat="45.07697" lon="6.18111">
        <ele>1591</ele>
        <time>2012-08-15T07:32:05Z</time>
      </trkpt>
      <trkpt lat="45.07668" lon="6.18109">
        <ele>1591</ele>
        <time>2012-08-15T07:32:24Z</time>
      </trkpt>
      <trkpt lat="45.07632" lon="6.18095">
        <ele>1598</ele>
        <time>2012-08-15T07:32:47Z</time>
      </trkpt>
      <trkpt lat="45.07589" lon="6.18086">
        <ele>1596</ele>
        <time>2012-08-15T07:33:14Z</time>
      </trkpt>
      <trkpt lat="45.07551" lon="6.18081">
        <ele>1593</ele>
        <time>2012-08-15T07:33:39Z</time>
      </trkpt>
      <trkpt lat="45.07514" lon="6.1807">
        <ele>1599</ele>
        <time>2012-08-15T07:34:03Z</time>
      </trkpt>
      <trkpt lat="45.07471" lon="6.18054">
        <ele>1608</ele>
        <time>2012-08-15T07:34:30Z</time>
      </trkpt>
      <trkpt lat="45.07429" lon="6.18031">
        <ele>1608</ele>
        <time>2012-08-15T07:34:56Z</time>
      </trkpt>
      <trkpt lat="45.074" lon="6.18013">
        <ele>1619</ele>
        <time>2012-08-15T07:35:14Z</time>
      </trkpt>
      <trkpt lat="45.07366" lon="6.17997">
        <ele>1608</ele>
        <time>2012-08-15T07:35:34Z</time>
      </trkpt>
      <trkpt lat="45.07337" lon="6.1798">
        <ele>1612</ele>
        <time>2012-08-15T07:35:54Z</time>
      </trkpt>
      <trkpt lat="45.07309" lon="6.17962">
        <ele>1623</ele>
        <time>2012-08-15T07:36:13Z</time>
      </trkpt>
      <trkpt lat="45.07276" lon="6.17941">
        <ele>1623</ele>
        <time>2012-08-15T07:36:34Z</time>
      </trkpt>
      <trkpt lat="45.07245" lon="6.17927">
        <ele>1630</ele>
        <time>2012-08-15T07:36:55Z</time>
      </trkpt>
      <trkpt lat="45.07215" lon="6.1792">
        <ele>1637</ele>
        <time>2012-08-15T07:37:14Z</time>
      </trkpt>
      <trkpt lat="45.07191" lon="6.17919">
        <ele>1638</ele>
        <time>2012-08-15T07:37:32Z</time>
      </trkpt>
      <trkpt lat="45.07174" lon="6.17921">
        <ele>1636</ele>
        <time>2012-08-15T07:37:44Z</time>
      </trkpt>
      <trkpt lat="45.07149" lon="6.17927">
        <ele>1638</ele>
        <time>2012-08-15T07:38:00Z</time>
      </trkpt>
      <trkpt lat="45.07107" lon="6.17949">
        <ele>1639</ele>
        <time>2012-08-15T07:38:25Z</time>
      </trkpt>
      <trkpt lat="45.07105" lon="6.17951">
        <ele>1639</ele>
        <time>2012-08-15T07:38:27Z</time>
      </trkpt>
      <trkpt lat="45.07096" lon="6.17956">
        <ele>1640</ele>
        <time>2012-08-15T07:38:33Z</time>
      </trkpt>
      <trkpt lat="45.07089" lon="6.17963">
        <ele>1641</ele>
        <time>2012-08-15T07:38:38Z</time>
      </trkpt>
      <trkpt lat="45.07084" lon="6.17969">
        <ele>1641</ele>
        <time>2012-08-15T07:38:42Z</time>
      </trkpt>
      <trkpt lat="45.0706" lon="6.18003">
        <ele>1643</ele>
        <time>2012-08-15T07:39:03Z</time>
      </trkpt>
      <trkpt lat="45.07035" lon="6.1804">
        <ele>1641</ele>
        <time>2012-08-15T07:39:25Z</time>
      </trkpt>
      <trkpt lat="45.07021" lon="6.18086">
        <ele>1648</ele>
        <time>2012-08-15T07:39:46Z</time>
      </trkpt>
      <trkpt lat="45.07019" lon="6.18137">
        <ele>1654</ele>
        <time>2012-08-15T07:40:09Z</time>
      </trkpt>
      <trkpt lat="45.07026" lon="6.18186">
        <ele>1660</ele>
        <time>2012-08-15T07:40:30Z</time>
      </trkpt>
      <trkpt lat="45.07036" lon="6.18234">
        <ele>1663</ele>
        <time>2012-08-15T07:40:52Z</time>
      </trkpt>
      <trkpt lat="45.07044" lon="6.1828">
        <ele>1668</ele>
        <time>2012-08-15T07:41:13Z</time>
      </trkpt>
      <trkpt lat="45.07047" lon="6.18321">
        <ele>1669</ele>
        <time>2012-08-15T07:41:32Z</time>
      </trkpt>
      <trkpt lat="45.07053" lon="6.18373">
        <ele>1671</ele>
        <time>2012-08-15T07:41:54Z</time>
      </trkpt>
      <trkpt lat="45.07061" lon="6.18415">
        <ele>1675</ele>
        <time>2012-08-15T07:42:13Z</time>
      </trkpt>
      <trkpt lat="45.07074" lon="6.18466">
        <ele>1674</ele>
        <time>2012-08-15T07:42:35Z</time>
      </trkpt>
      <trkpt lat="45.0709" lon="6.18527">
        <ele>1694</ele>
        <time>2012-08-15T07:43:01Z</time>
      </trkpt>
      <trkpt lat="45.07101" lon="6.18564">
        <ele>1693</ele>
        <time>2012-08-15T07:43:19Z</time>
      </trkpt>
      <trkpt lat="45.07111" lon="6.18599">
        <ele>1691</ele>
        <time>2012-08-15T07:43:37Z</time>
      </trkpt>
      <trkpt lat="45.07113" lon="6.186">
        <ele>1692</ele>
        <time>2012-08-15T07:43:38Z</time>
      </trkpt>
      <trkpt lat="45.07115" lon="6.18584">
        <ele>1692</ele>
        <time>2012-08-15T07:43:49Z</time>
      </trkpt>
      <trkpt lat="45.07113" lon="6.18578">
        <ele>1696</ele>
        <time>2012-08-15T07:43:52Z</time>
      </trkpt>
      <trkpt lat="45.0711" lon="6.18555">
        <ele>1697</ele>
        <time>2012-08-15T07:44:04Z</time>
      </trkpt>
      <trkpt lat="45.0711" lon="6.18548">
        <ele>1698</ele>
        <time>2012-08-15T07:44:07Z</time>
      </trkpt>
      <trkpt lat="45.0711" lon="6.18517">
        <ele>1698</ele>
        <time>2012-08-15T07:44:24Z</time>
      </trkpt>
      <trkpt lat="45.07109" lon="6.18487">
        <ele>1701</ele>
        <time>2012-08-15T07:44:38Z</time>
      </trkpt>
      <trkpt lat="45.07107" lon="6.18453">
        <ele>1703</ele>
        <time>2012-08-15T07:44:56Z</time>
      </trkpt>
      <trkpt lat="45.07107" lon="6.1842">
        <ele>1701</ele>
        <time>2012-08-15T07:45:13Z</time>
      </trkpt>
      <trkpt lat="45.07105" lon="6.18405">
        <ele>1703</ele>
        <time>2012-08-15T07:45:27Z</time>
      </trkpt>
      <trkpt lat="45.07107" lon="6.18387">
        <ele>1706</ele>
        <time>2012-08-15T07:45:49Z</time>
      </trkpt>
      <trkpt lat="45.07112" lon="6.18337">
        <ele>1706</ele>
        <time>2012-08-15T07:46:08Z</time>
      </trkpt>
      <trkpt lat="45.07118" lon="6.1829">
        <ele>1712</ele>
        <time>2012-08-15T07:46:20Z</time>
      </trkpt>
      <trkpt lat="45.0712" lon="6.18267">
        <ele>1712</ele>
        <time>2012-08-15T07:46:25Z</time>
      </trkpt>
      <trkpt lat="45.07123" lon="6.18258">
        <ele>1713</ele>
        <time>2012-08-15T07:46:27Z</time>
      </trkpt>
      <trkpt lat="45.07129" lon="6.18213">
        <ele>1713</ele>
        <time>2012-08-15T07:46:43Z</time>
      </trkpt>
      <trkpt lat="45.07135" lon="6.18166">
        <ele>1709</ele>
        <time>2012-08-15T07:47:03Z</time>
      </trkpt>
      <trkpt lat="45.07136" lon="6.18161">
        <ele>1709</ele>
        <time>2012-08-15T07:47:05Z</time>
      </trkpt>
      <trkpt lat="45.07143" lon="6.18158">
        <ele>1711</ele>
        <time>2012-08-15T07:47:11Z</time>
      </trkpt>
      <trkpt lat="45.07144" lon="6.18162">
        <ele>1713</ele>
        <time>2012-08-15T07:47:13Z</time>
      </trkpt>
      <trkpt lat="45.07143" lon="6.18173">
        <ele>1718</ele>
        <time>2012-08-15T07:47:18Z</time>
      </trkpt>
      <trkpt lat="45.07141" lon="6.18182">
        <ele>1717</ele>
        <time>2012-08-15T07:47:22Z</time>
      </trkpt>
      <trkpt lat="45.07144" lon="6.18227">
        <ele>1719</ele>
        <time>2012-08-15T07:47:43Z</time>
      </trkpt>
      <trkpt lat="45.07149" lon="6.18265">
        <ele>1723</ele>
        <time>2012-08-15T07:48:01Z</time>
      </trkpt>
      <trkpt lat="45.07152" lon="6.18299">
        <ele>1721</ele>
        <time>2012-08-15T07:48:18Z</time>
      </trkpt>
      <trkpt lat="45.07156" lon="6.18338">
        <ele>1728</ele>
        <time>2012-08-15T07:48:36Z</time>
      </trkpt>
      <trkpt lat="45.07164" lon="6.18378">
        <ele>1721</ele>
        <time>2012-08-15T07:48:57Z</time>
      </trkpt>
      <trkpt lat="45.07172" lon="6.18416">
        <ele>1741</ele>
        <time>2012-08-15T07:49:15Z</time>
      </trkpt>
      <trkpt lat="45.07181" lon="6.18453">
        <ele>1750</ele>
        <time>2012-08-15T07:49:33Z</time>
      </trkpt>
      <trkpt lat="45.07192" lon="6.18489">
        <ele>1749</ele>
        <time>2012-08-15T07:49:52Z</time>
      </trkpt>
      <trkpt lat="45.07201" lon="6.18522">
        <ele>1748</ele>
        <time>2012-08-15T07:50:09Z</time>
      </trkpt>
      <trkpt lat="45.07212" lon="6.18555">
        <ele>1750</ele>
        <time>2012-08-15T07:50:26Z</time>
      </trkpt>
      <trkpt lat="45.07223" lon="6.18592">
        <ele>1748</ele>
        <time>2012-08-15T07:50:45Z</time>
      </trkpt>
      <trkpt lat="45.07235" lon="6.18626">
        <ele>1746</ele>
        <time>2012-08-15T07:51:03Z</time>
      </trkpt>
      <trkpt lat="45.07251" lon="6.18657">
        <ele>1769</ele>
        <time>2012-08-15T07:51:21Z</time>
      </trkpt>
      <trkpt lat="45.07258" lon="6.18683">
        <ele>1768</ele>
        <time>2012-08-15T07:51:37Z</time>
      </trkpt>
      <trkpt lat="45.07265" lon="6.18674">
        <ele>1769</ele>
        <time>2012-08-15T07:51:47Z</time>
      </trkpt>
      <trkpt lat="45.07261" lon="6.18661">
        <ele>1772</ele>
        <time>2012-08-15T07:51:54Z</time>
      </trkpt>
      <trkpt lat="45.07249" lon="6.18621">
        <ele>1749</ele>
        <time>2012-08-15T07:52:16Z</time>
      </trkpt>
      <trkpt lat="45.07244" lon="6.18573">
        <ele>1763</ele>
        <time>2012-08-15T07:52:41Z</time>
      </trkpt>
      <trkpt lat="45.07244" lon="6.1857">
        <ele>1762</ele>
        <time>2012-08-15T07:52:57Z</time>
      </trkpt>
      <trkpt lat="45.07243" lon="6.18552">
        <ele>1759</ele>
        <time>2012-08-15T07:53:18Z</time>
      </trkpt>
      <trkpt lat="45.07242" lon="6.1855">
        <ele>1758</ele>
        <time>2012-08-15T07:53:20Z</time>
      </trkpt>
      <trkpt lat="45.07245" lon="6.18512">
        <ele>1769</ele>
        <time>2012-08-15T07:53:38Z</time>
      </trkpt>
      <trkpt lat="45.07244" lon="6.18484">
        <ele>1769</ele>
        <time>2012-08-15T07:53:53Z</time>
      </trkpt>
      <trkpt lat="45.07244" lon="6.18484">
        <ele>1769</ele>
        <time>2012-08-15T07:55:25Z</time>
      </trkpt>
      <trkpt lat="45.07244" lon="6.18465">
        <ele>1766</ele>
        <time>2012-08-15T07:55:37Z</time>
      </trkpt>
      <trkpt lat="45.07244" lon="6.18411">
        <ele>1778</ele>
        <time>2012-08-15T07:56:03Z</time>
      </trkpt>
      <trkpt lat="45.07245" lon="6.18366">
        <ele>1770</ele>
        <time>2012-08-15T07:56:29Z</time>
      </trkpt>
      <trkpt lat="45.07247" lon="6.18357">
        <ele>1772</ele>
        <time>2012-08-15T07:56:34Z</time>
      </trkpt>
      <trkpt lat="45.07247" lon="6.18344">
        <ele>1777</ele>
        <time>2012-08-15T07:56:40Z</time>
      </trkpt>
      <trkpt lat="45.07247" lon="6.18338">
        <ele>1780</ele>
        <time>2012-08-15T07:56:43Z</time>
      </trkpt>
      <trkpt lat="45.07251" lon="6.183">
        <ele>1777</ele>
        <time>2012-08-15T07:57:03Z</time>
      </trkpt>
      <trkpt lat="45.07253" lon="6.18258">
        <ele>1775</ele>
        <time>2012-08-15T07:57:23Z</time>
      </trkpt>
      <trkpt lat="45.07263" lon="6.18255">
        <ele>1774</ele>
        <time>2012-08-15T07:57:35Z</time>
      </trkpt>
      <trkpt lat="45.07263" lon="6.18254">
        <ele>1774</ele>
        <time>2012-08-15T07:57:55Z</time>
      </trkpt>
      <trkpt lat="45.07263" lon="6.18256">
        <ele>1774</ele>
        <time>2012-08-15T07:58:15Z</time>
      </trkpt>
      <trkpt lat="45.07261" lon="6.18266">
        <ele>1774</ele>
        <time>2012-08-15T07:58:20Z</time>
      </trkpt>
      <trkpt lat="45.07259" lon="6.18277">
        <ele>1775</ele>
        <time>2012-08-15T07:58:25Z</time>
      </trkpt>
      <trkpt lat="45.07263" lon="6.18335">
        <ele>1788</ele>
        <time>2012-08-15T07:58:48Z</time>
      </trkpt>
      <trkpt lat="45.07275" lon="6.18391">
        <ele>1792</ele>
        <time>2012-08-15T07:59:11Z</time>
      </trkpt>
      <trkpt lat="45.07285" lon="6.18434">
        <ele>1801</ele>
        <time>2012-08-15T07:59:29Z</time>
      </trkpt>
      <trkpt lat="45.07293" lon="6.18475">
        <ele>1803</ele>
        <time>2012-08-15T07:59:47Z</time>
      </trkpt>
      <trkpt lat="45.07301" lon="6.18522">
        <ele>1805</ele>
        <time>2012-08-15T08:00:08Z</time>
      </trkpt>
      <trkpt lat="45.07307" lon="6.18554">
        <ele>1806</ele>
        <time>2012-08-15T08:00:26Z</time>
      </trkpt>
      <trkpt lat="45.07317" lon="6.18587">
        <ele>1810</ele>
        <time>2012-08-15T08:00:43Z</time>
      </trkpt>
      <trkpt lat="45.07332" lon="6.18629">
        <ele>1804</ele>
        <time>2012-08-15T08:01:06Z</time>
      </trkpt>
      <trkpt lat="45.07346" lon="6.18663">
        <ele>1828</ele>
        <time>2012-08-15T08:01:27Z</time>
      </trkpt>
      <trkpt lat="45.07362" lon="6.18698">
        <ele>1831</ele>
        <time>2012-08-15T08:01:49Z</time>
      </trkpt>
      <trkpt lat="45.07363" lon="6.187">
        <ele>1831</ele>
        <time>2012-08-15T08:01:50Z</time>
      </trkpt>
      <trkpt lat="45.07363" lon="6.18706">
        <ele>1831</ele>
        <time>2012-08-15T08:01:53Z</time>
      </trkpt>
      <trkpt lat="45.07377" lon="6.1874">
        <ele>1832</ele>
        <time>2012-08-15T08:02:12Z</time>
      </trkpt>
      <trkpt lat="45.07389" lon="6.1877">
        <ele>1825</ele>
        <time>2012-08-15T08:02:30Z</time>
      </trkpt>
      <trkpt lat="45.07407" lon="6.18805">
        <ele>1824</ele>
        <time>2012-08-15T08:02:51Z</time>
      </trkpt>
      <trkpt lat="45.07424" lon="6.1884">
        <ele>1839</ele>
        <time>2012-08-15T08:03:11Z</time>
      </trkpt>
      <trkpt lat="45.07441" lon="6.18877">
        <ele>1846</ele>
        <time>2012-08-15T08:03:32Z</time>
      </trkpt>
      <trkpt lat="45.07455" lon="6.18908">
        <ele>1848</ele>
        <time>2012-08-15T08:03:49Z</time>
      </trkpt>
      <trkpt lat="45.07468" lon="6.18942">
        <ele>1842</ele>
        <time>2012-08-15T08:04:08Z</time>
      </trkpt>
      <trkpt lat="45.07476" lon="6.18964">
        <ele>1842</ele>
        <time>2012-08-15T08:04:21Z</time>
      </trkpt>
      <trkpt lat="45.07493" lon="6.19">
        <ele>1848</ele>
        <time>2012-08-15T08:04:42Z</time>
      </trkpt>
      <trkpt lat="45.07513" lon="6.19044">
        <ele>1864</ele>
        <time>2012-08-15T08:05:07Z</time>
      </trkpt>
      <trkpt lat="45.0753" lon="6.19078">
        <ele>1863</ele>
        <time>2012-08-15T08:05:27Z</time>
      </trkpt>
      <trkpt lat="45.0755" lon="6.19118">
        <ele>1858</ele>
        <time>2012-08-15T08:05:51Z</time>
      </trkpt>
      <trkpt lat="45.07565" lon="6.19156">
        <ele>1860</ele>
        <time>2012-08-15T08:06:12Z</time>
      </trkpt>
      <trkpt lat="45.07577" lon="6.19198">
        <ele>1852</ele>
        <time>2012-08-15T08:06:33Z</time>
      </trkpt>
      <trkpt lat="45.07589" lon="6.19239">
        <ele>1870</ele>
        <time>2012-08-15T08:06:53Z</time>
      </trkpt>
      <trkpt lat="45.07599" lon="6.19281">
        <ele>1873</ele>
        <time>2012-08-15T08:07:14Z</time>
      </trkpt>
      <trkpt lat="45.07604" lon="6.19296">
        <ele>1874</ele>
        <time>2012-08-15T08:07:21Z</time>
      </trkpt>
      <trkpt lat="45.07618" lon="6.19335">
        <ele>1876</ele>
        <time>2012-08-15T08:07:41Z</time>
      </trkpt>
      <trkpt lat="45.07633" lon="6.19373">
        <ele>1881</ele>
        <time>2012-08-15T08:08:00Z</time>
      </trkpt>
      <trkpt lat="45.0764" lon="6.1941">
        <ele>1884</ele>
        <time>2012-08-15T08:08:19Z</time>
      </trkpt>
      <trkpt lat="45.07635" lon="6.19426">
        <ele>1890</ele>
        <time>2012-08-15T08:08:28Z</time>
      </trkpt>
      <trkpt lat="45.07624" lon="6.19437">
        <ele>1889</ele>
        <time>2012-08-15T08:08:37Z</time>
      </trkpt>
      <trkpt lat="45.07611" lon="6.19447">
        <ele>1888</ele>
        <time>2012-08-15T08:08:55Z</time>
      </trkpt>
      <trkpt lat="45.07609" lon="6.19449">
        <ele>1888</ele>
        <time>2012-08-15T08:10:06Z</time>
      </trkpt>
      <trkpt lat="45.07609" lon="6.19449">
        <ele>1888</ele>
        <time>2012-08-15T08:11:17Z</time>
      </trkpt>
      <trkpt lat="45.07606" lon="6.19451">
        <ele>1889</ele>
        <time>2012-08-15T08:12:21Z</time>
      </trkpt>
      <trkpt lat="45.07589" lon="6.19464">
        <ele>1890</ele>
        <time>2012-08-15T08:12:34Z</time>
      </trkpt>
      <trkpt lat="45.0756" lon="6.19474">
        <ele>1887</ele>
        <time>2012-08-15T08:12:52Z</time>
      </trkpt>
      <trkpt lat="45.07539" lon="6.19494">
        <ele>1888</ele>
        <time>2012-08-15T08:13:10Z</time>
      </trkpt>
      <trkpt lat="45.07537" lon="6.19494">
        <ele>1888</ele>
        <time>2012-08-15T08:13:12Z</time>
      </trkpt>
      <trkpt lat="45.07505" lon="6.19512">
        <ele>1903</ele>
        <time>2012-08-15T08:13:35Z</time>
      </trkpt>
      <trkpt lat="45.07484" lon="6.19541">
        <ele>1919</ele>
        <time>2012-08-15T08:13:55Z</time>
      </trkpt>
      <trkpt lat="45.07464" lon="6.19575">
        <ele>1925</ele>
        <time>2012-08-15T08:14:17Z</time>
      </trkpt>
      <trkpt lat="45.07457" lon="6.1958">
        <ele>1927</ele>
        <time>2012-08-15T08:14:23Z</time>
      </trkpt>
      <trkpt lat="45.07444" lon="6.19552">
        <ele>1927</ele>
        <time>2012-08-15T08:14:40Z</time>
      </trkpt>
      <trkpt lat="45.07441" lon="6.19532">
        <ele>1924</ele>
        <time>2012-08-15T08:14:51Z</time>
      </trkpt>
      <trkpt lat="45.07434" lon="6.19484">
        <ele>1911</ele>
        <time>2012-08-15T08:15:14Z</time>
      </trkpt>
      <trkpt lat="45.07422" lon="6.19457">
        <ele>1907</ele>
        <time>2012-08-15T08:15:28Z</time>
      </trkpt>
      <trkpt lat="45.07418" lon="6.19451">
        <ele>1906</ele>
        <time>2012-08-15T08:15:33Z</time>
      </trkpt>
      <trkpt lat="45.07392" lon="6.19424">
        <ele>1927</ele>
        <time>2012-08-15T08:15:55Z</time>
      </trkpt>
      <trkpt lat="45.07387" lon="6.19418">
        <ele>1929</ele>
        <time>2012-08-15T08:16:06Z</time>
      </trkpt>
      <trkpt lat="45.07355" lon="6.19393">
        <ele>1918</ele>
        <time>2012-08-15T08:16:26Z</time>
      </trkpt>
      <trkpt lat="45.07331" lon="6.19377">
        <ele>1936</ele>
        <time>2012-08-15T08:16:44Z</time>
      </trkpt>
      <trkpt lat="45.07303" lon="6.1936">
        <ele>1936</ele>
        <time>2012-08-15T08:17:04Z</time>
      </trkpt>
      <trkpt lat="45.07287" lon="6.19355">
        <ele>1938</ele>
        <time>2012-08-15T08:17:15Z</time>
      </trkpt>
      <trkpt lat="45.07252" lon="6.19333">
        <ele>1940</ele>
        <time>2012-08-15T08:17:39Z</time>
      </trkpt>
      <trkpt lat="45.07246" lon="6.19329">
        <ele>1940</ele>
        <time>2012-08-15T08:17:44Z</time>
      </trkpt>
      <trkpt lat="45.07215" lon="6.1932">
        <ele>1933</ele>
        <time>2012-08-15T08:18:04Z</time>
      </trkpt>
      <trkpt lat="45.07185" lon="6.19331">
        <ele>1936</ele>
        <time>2012-08-15T08:18:24Z</time>
      </trkpt>
      <trkpt lat="45.07163" lon="6.19358">
        <ele>1944</ele>
        <time>2012-08-15T08:18:43Z</time>
      </trkpt>
      <trkpt lat="45.07141" lon="6.19384">
        <ele>1947</ele>
        <time>2012-08-15T08:19:02Z</time>
      </trkpt>
      <trkpt lat="45.0712" lon="6.19413">
        <ele>1947</ele>
        <time>2012-08-15T08:19:21Z</time>
      </trkpt>
      <trkpt lat="45.071" lon="6.19442">
        <ele>1964</ele>
        <time>2012-08-15T08:19:40Z</time>
      </trkpt>
      <trkpt lat="45.07081" lon="6.1947">
        <ele>1953</ele>
        <time>2012-08-15T08:19:59Z</time>
      </trkpt>
      <trkpt lat="45.07062" lon="6.19504">
        <ele>1970</ele>
        <time>2012-08-15T08:20:19Z</time>
      </trkpt>
      <trkpt lat="45.07044" lon="6.19537">
        <ele>1970</ele>
        <time>2012-08-15T08:20:38Z</time>
      </trkpt>
      <trkpt lat="45.07027" lon="6.19577">
        <ele>1972</ele>
        <time>2012-08-15T08:21:00Z</time>
      </trkpt>
      <trkpt lat="45.07008" lon="6.19597">
        <ele>1982</ele>
        <time>2012-08-15T08:21:16Z</time>
      </trkpt>
      <trkpt lat="45.06992" lon="6.19618">
        <ele>1978</ele>
        <time>2012-08-15T08:21:31Z</time>
      </trkpt>
      <trkpt lat="45.06976" lon="6.19629">
        <ele>1980</ele>
        <time>2012-08-15T08:21:43Z</time>
      </trkpt>
      <trkpt lat="45.0698" lon="6.19639">
        <ele>1983</ele>
        <time>2012-08-15T08:21:51Z</time>
      </trkpt>
      <trkpt lat="45.06999" lon="6.19623">
        <ele>1979</ele>
        <time>2012-08-15T08:22:08Z</time>
      </trkpt>
      <trkpt lat="45.07031" lon="6.19607">
        <ele>1993</ele>
        <time>2012-08-15T08:22:33Z</time>
      </trkpt>
      <trkpt lat="45.07056" lon="6.19586">
        <ele>1997</ele>
        <time>2012-08-15T08:22:55Z</time>
      </trkpt>
      <trkpt lat="45.0708" lon="6.19556">
        <ele>1981</ele>
        <time>2012-08-15T08:23:18Z</time>
      </trkpt>
      <trkpt lat="45.07085" lon="6.19552">
        <ele>1997</ele>
        <time>2012-08-15T08:23:35Z</time>
      </trkpt>
      <trkpt lat="45.07086" lon="6.19549">
        <ele>1997</ele>
        <time>2012-08-15T08:25:12Z</time>
      </trkpt>
      <trkpt lat="45.07102" lon="6.19539">
        <ele>1996</ele>
        <time>2012-08-15T08:26:45Z</time>
      </trkpt>
      <trkpt lat="45.07128" lon="6.19522">
        <ele>1998</ele>
        <time>2012-08-15T08:27:01Z</time>
      </trkpt>
      <trkpt lat="45.07155" lon="6.19513">
        <ele>1999</ele>
        <time>2012-08-15T08:27:19Z</time>
      </trkpt>
      <trkpt lat="45.07181" lon="6.19508">
        <ele>2005</ele>
        <time>2012-08-15T08:27:40Z</time>
      </trkpt>
      <trkpt lat="45.07212" lon="6.19513">
        <ele>2009</ele>
        <time>2012-08-15T08:28:02Z</time>
      </trkpt>
      <trkpt lat="45.07239" lon="6.19525">
        <ele>2010</ele>
        <time>2012-08-15T08:28:22Z</time>
      </trkpt>
      <trkpt lat="45.07267" lon="6.19544">
        <ele>2004</ele>
        <time>2012-08-15T08:28:44Z</time>
      </trkpt>
      <trkpt lat="45.07275" lon="6.19555">
        <ele>2006</ele>
        <time>2012-08-15T08:28:53Z</time>
      </trkpt>
      <trkpt lat="45.0727" lon="6.19559">
        <ele>2008</ele>
        <time>2012-08-15T08:29:06Z</time>
      </trkpt>
      <trkpt lat="45.0727" lon="6.19559">
        <ele>2008</ele>
        <time>2012-08-15T08:30:02Z</time>
      </trkpt>
      <trkpt lat="45.07269" lon="6.19556">
        <ele>2007</ele>
        <time>2012-08-15T08:30:04Z</time>
      </trkpt>
      <trkpt lat="45.0724" lon="6.1954">
        <ele>2014</ele>
        <time>2012-08-15T08:30:25Z</time>
      </trkpt>
      <trkpt lat="45.07211" lon="6.19541">
        <ele>2014</ele>
        <time>2012-08-15T08:30:46Z</time>
      </trkpt>
      <trkpt lat="45.07181" lon="6.19552">
        <ele>2016</ele>
        <time>2012-08-15T08:31:08Z</time>
      </trkpt>
      <trkpt lat="45.07155" lon="6.19571">
        <ele>2014</ele>
        <time>2012-08-15T08:31:28Z</time>
      </trkpt>
      <trkpt lat="45.07133" lon="6.19597">
        <ele>2026</ele>
        <time>2012-08-15T08:31:47Z</time>
      </trkpt>
      <trkpt lat="45.07118" lon="6.19631">
        <ele>2028</ele>
        <time>2012-08-15T08:32:06Z</time>
      </trkpt>
      <trkpt lat="45.07111" lon="6.19663">
        <ele>2030</ele>
        <time>2012-08-15T08:32:22Z</time>
      </trkpt>
      <trkpt lat="45.07093" lon="6.19688">
        <ele>2045</ele>
        <time>2012-08-15T08:32:39Z</time>
      </trkpt>
      <trkpt lat="45.07068" lon="6.19719">
        <ele>2037</ele>
        <time>2012-08-15T08:32:59Z</time>
      </trkpt>
      <trkpt lat="45.07056" lon="6.19733">
        <ele>2039</ele>
        <time>2012-08-15T08:33:09Z</time>
      </trkpt>
      <trkpt lat="45.07036" lon="6.19753">
        <ele>2059</ele>
        <time>2012-08-15T08:33:25Z</time>
      </trkpt>
      <trkpt lat="45.07043" lon="6.19761">
        <ele>2061</ele>
        <time>2012-08-15T08:33:32Z</time>
      </trkpt>
      <trkpt lat="45.07069" lon="6.19742">
        <ele>2045</ele>
        <time>2012-08-15T08:33:53Z</time>
      </trkpt>
      <trkpt lat="45.07093" lon="6.19726">
        <ele>2056</ele>
        <time>2012-08-15T08:34:13Z</time>
      </trkpt>
      <trkpt lat="45.07117" lon="6.19713">
        <ele>2056</ele>
        <time>2012-08-15T08:34:32Z</time>
      </trkpt>
      <trkpt lat="45.07135" lon="6.19698">
        <ele>2057</ele>
        <time>2012-08-15T08:34:48Z</time>
      </trkpt>
      <trkpt lat="45.07163" lon="6.19676">
        <ele>2057</ele>
        <time>2012-08-15T08:35:10Z</time>
      </trkpt>
      <trkpt lat="45.07183" lon="6.19655">
        <ele>2050</ele>
        <time>2012-08-15T08:35:28Z</time>
      </trkpt>
      <trkpt lat="45.07212" lon="6.19634">
        <ele>2046</ele>
        <time>2012-08-15T08:35:51Z</time>
      </trkpt>
      <trkpt lat="45.0724" lon="6.19641">
        <ele>2049</ele>
        <time>2012-08-15T08:36:10Z</time>
      </trkpt>
      <trkpt lat="45.07252" lon="6.19657">
        <ele>2049</ele>
        <time>2012-08-15T08:36:22Z</time>
      </trkpt>
      <trkpt lat="45.07258" lon="6.19699">
        <ele>2057</ele>
        <time>2012-08-15T08:36:41Z</time>
      </trkpt>
      <trkpt lat="45.07268" lon="6.19732">
        <ele>2064</ele>
        <time>2012-08-15T08:36:58Z</time>
      </trkpt>
      <trkpt lat="45.07272" lon="6.19742">
        <ele>2064</ele>
        <time>2012-08-15T08:37:04Z</time>
      </trkpt>
      <trkpt lat="45.07272" lon="6.1975">
        <ele>2075</ele>
        <time>2012-08-15T08:37:09Z</time>
      </trkpt>
      <trkpt lat="45.07265" lon="6.19746">
        <ele>2069</ele>
        <time>2012-08-15T08:37:21Z</time>
      </trkpt>
      <trkpt lat="45.07272" lon="6.19754">
        <ele>2075</ele>
        <time>2012-08-15T08:37:30Z</time>
      </trkpt>
      <trkpt lat="45.0727" lon="6.19752">
        <ele>2076</ele>
        <time>2012-08-15T08:37:32Z</time>
      </trkpt>
      <trkpt lat="45.07262" lon="6.19741">
        <ele>2070</ele>
        <time>2012-08-15T08:37:50Z</time>
      </trkpt>
      <trkpt lat="45.07262" lon="6.19741">
        <ele>2070</ele>
        <time>2012-08-15T08:39:18Z</time>
      </trkpt>
      <trkpt lat="45.07253" lon="6.19735">
        <ele>2070</ele>
        <time>2012-08-15T08:40:25Z</time>
      </trkpt>
      <trkpt lat="45.07254" lon="6.19734">
        <ele>2069</ele>
        <time>2012-08-15T08:41:01Z</time>
      </trkpt>
      <trkpt lat="45.07254" lon="6.19734">
        <ele>2069</ele>
        <time>2012-08-15T08:42:11Z</time>
      </trkpt>
      <trkpt lat="45.07254" lon="6.19733">
        <ele>2069</ele>
        <time>2012-08-15T08:43:33Z</time>
      </trkpt>
      <trkpt lat="45.07249" lon="6.19734">
        <ele>2078</ele>
        <time>2012-08-15T08:44:35Z</time>
      </trkpt>
      <trkpt lat="45.07246" lon="6.19731">
        <ele>2077</ele>
        <time>2012-08-15T08:44:38Z</time>
      </trkpt>
      <trkpt lat="45.07215" lon="6.19737">
        <ele>2076</ele>
        <time>2012-08-15T08:44:59Z</time>
      </trkpt>
      <trkpt lat="45.07186" lon="6.19751">
        <ele>2091</ele>
        <time>2012-08-15T08:45:20Z</time>
      </trkpt>
      <trkpt lat="45.0716" lon="6.19771">
        <ele>2088</ele>
        <time>2012-08-15T08:45:40Z</time>
      </trkpt>
      <trkpt lat="45.07136" lon="6.19794">
        <ele>2090</ele>
        <time>2012-08-15T08:46:00Z</time>
      </trkpt>
      <trkpt lat="45.07109" lon="6.19825">
        <ele>2091</ele>
        <time>2012-08-15T08:46:22Z</time>
      </trkpt>
      <trkpt lat="45.0709" lon="6.19845">
        <ele>2104</ele>
        <time>2012-08-15T08:46:38Z</time>
      </trkpt>
      <trkpt lat="45.07061" lon="6.1987">
        <ele>2105</ele>
        <time>2012-08-15T08:47:00Z</time>
      </trkpt>
      <trkpt lat="45.07051" lon="6.19879">
        <ele>2107</ele>
        <time>2012-08-15T08:47:08Z</time>
      </trkpt>
      <trkpt lat="45.0706" lon="6.19885">
        <ele>2109</ele>
        <time>2012-08-15T08:47:16Z</time>
      </trkpt>
      <trkpt lat="45.07088" lon="6.19864">
        <ele>2115</ele>
        <time>2012-08-15T08:47:36Z</time>
      </trkpt>
      <trkpt lat="45.07113" lon="6.19849">
        <ele>2116</ele>
        <time>2012-08-15T08:47:54Z</time>
      </trkpt>
      <trkpt lat="45.07124" lon="6.19839">
        <ele>2117</ele>
        <time>2012-08-15T08:48:09Z</time>
      </trkpt>
      <trkpt lat="45.07125" lon="6.19839">
        <ele>2117</ele>
        <time>2012-08-15T08:48:52Z</time>
      </trkpt>
      <trkpt lat="45.07132" lon="6.19837">
        <ele>2119</ele>
        <time>2012-08-15T08:48:58Z</time>
      </trkpt>
      <trkpt lat="45.07158" lon="6.1983">
        <ele>2109</ele>
        <time>2012-08-15T08:49:17Z</time>
      </trkpt>
      <trkpt lat="45.07162" lon="6.19829">
        <ele>2112</ele>
        <time>2012-08-15T08:49:21Z</time>
      </trkpt>
      <trkpt lat="45.07174" lon="6.1983">
        <ele>2113</ele>
        <time>2012-08-15T08:49:30Z</time>
      </trkpt>
      <trkpt lat="45.07195" lon="6.19834">
        <ele>2122</ele>
        <time>2012-08-15T08:49:46Z</time>
      </trkpt>
      <trkpt lat="45.07204" lon="6.19837">
        <ele>2122</ele>
        <time>2012-08-15T08:49:53Z</time>
      </trkpt>
      <trkpt lat="45.07211" lon="6.19842">
        <ele>2121</ele>
        <time>2012-08-15T08:49:59Z</time>
      </trkpt>
      <trkpt lat="45.07221" lon="6.19848">
        <ele>2120</ele>
        <time>2012-08-15T08:50:07Z</time>
      </trkpt>
      <trkpt lat="45.0724" lon="6.19867">
        <ele>2121</ele>
        <time>2012-08-15T08:50:25Z</time>
      </trkpt>
      <trkpt lat="45.07253" lon="6.19896">
        <ele>2108</ele>
        <time>2012-08-15T08:50:42Z</time>
      </trkpt>
      <trkpt lat="45.07258" lon="6.19941">
        <ele>2119</ele>
        <time>2012-08-15T08:51:04Z</time>
      </trkpt>
      <trkpt lat="45.07266" lon="6.19989">
        <ele>2128</ele>
        <time>2012-08-15T08:51:26Z</time>
      </trkpt>
      <trkpt lat="45.07276" lon="6.20038">
        <ele>2143</ele>
        <time>2012-08-15T08:51:49Z</time>
      </trkpt>
      <trkpt lat="45.0729" lon="6.20074">
        <ele>2146</ele>
        <time>2012-08-15T08:52:07Z</time>
      </trkpt>
      <trkpt lat="45.07298" lon="6.20087">
        <ele>2163</ele>
        <time>2012-08-15T08:52:16Z</time>
      </trkpt>
      <trkpt lat="45.0729" lon="6.2009">
        <ele>2166</ele>
        <time>2012-08-15T08:52:24Z</time>
      </trkpt>
      <trkpt lat="45.07281" lon="6.20073">
        <ele>2149</ele>
        <time>2012-08-15T08:52:34Z</time>
      </trkpt>
      <trkpt lat="45.07279" lon="6.20069">
        <ele>2149</ele>
        <time>2012-08-15T08:52:37Z</time>
      </trkpt>
      <trkpt lat="45.07262" lon="6.20038">
        <ele>2145</ele>
        <time>2012-08-15T08:52:56Z</time>
      </trkpt>
      <trkpt lat="45.07247" lon="6.20003">
        <ele>2150</ele>
        <time>2012-08-15T08:53:15Z</time>
      </trkpt>
      <trkpt lat="45.07236" lon="6.19967">
        <ele>2147</ele>
        <time>2012-08-15T08:53:34Z</time>
      </trkpt>
      <trkpt lat="45.07219" lon="6.19934">
        <ele>2145</ele>
        <time>2012-08-15T08:53:54Z</time>
      </trkpt>
      <trkpt lat="45.07194" lon="6.19917">
        <ele>2149</ele>
        <time>2012-08-15T08:54:14Z</time>
      </trkpt>
      <trkpt lat="45.07161" lon="6.1993">
        <ele>2155</ele>
        <time>2012-08-15T08:54:37Z</time>
      </trkpt>
      <trkpt lat="45.07136" lon="6.19954">
        <ele>2158</ele>
        <time>2012-08-15T08:54:57Z</time>
      </trkpt>
      <trkpt lat="45.07115" lon="6.19975">
        <ele>2160</ele>
        <time>2012-08-15T08:55:15Z</time>
      </trkpt>
      <trkpt lat="45.07088" lon="6.20005">
        <ele>2174</ele>
        <time>2012-08-15T08:55:37Z</time>
      </trkpt>
      <trkpt lat="45.07065" lon="6.20026">
        <ele>2181</ele>
        <time>2012-08-15T08:55:55Z</time>
      </trkpt>
      <trkpt lat="45.07039" lon="6.20046">
        <ele>2185</ele>
        <time>2012-08-15T08:56:16Z</time>
      </trkpt>
      <trkpt lat="45.07009" lon="6.20055">
        <ele>2187</ele>
        <time>2012-08-15T08:56:36Z</time>
      </trkpt>
      <trkpt lat="45.0698" lon="6.20054">
        <ele>2186</ele>
        <time>2012-08-15T08:56:56Z</time>
      </trkpt>
      <trkpt lat="45.06953" lon="6.20051">
        <ele>2185</ele>
        <time>2012-08-15T08:57:15Z</time>
      </trkpt>
      <trkpt lat="45.06923" lon="6.20054">
        <ele>2188</ele>
        <time>2012-08-15T08:57:35Z</time>
      </trkpt>
      <trkpt lat="45.06891" lon="6.20069">
        <ele>2187</ele>
        <time>2012-08-15T08:57:58Z</time>
      </trkpt>
      <trkpt lat="45.06863" lon="6.2009">
        <ele>2208</ele>
        <time>2012-08-15T08:58:19Z</time>
      </trkpt>
      <trkpt lat="45.06835" lon="6.20119">
        <ele>2212</ele>
        <time>2012-08-15T08:58:40Z</time>
      </trkpt>
      <trkpt lat="45.06811" lon="6.20137">
        <ele>2211</ele>
        <time>2012-08-15T08:58:56Z</time>
      </trkpt>
      <trkpt lat="45.06803" lon="6.20139">
        <ele>2211</ele>
        <time>2012-08-15T08:59:01Z</time>
      </trkpt>
      <trkpt lat="45.0677" lon="6.20144">
        <ele>2212</ele>
        <time>2012-08-15T08:59:21Z</time>
      </trkpt>
      <trkpt lat="45.06726" lon="6.20147">
        <ele>2213</ele>
        <time>2012-08-15T08:59:50Z</time>
      </trkpt>
      <trkpt lat="45.06724" lon="6.20146">
        <ele>2213</ele>
        <time>2012-08-15T08:59:53Z</time>
      </trkpt>
      <trkpt lat="45.06722" lon="6.20143">
        <ele>2212</ele>
        <time>2012-08-15T09:00:09Z</time>
      </trkpt>
      <trkpt lat="45.06721" lon="6.20144">
        <ele>2212</ele>
        <time>2012-08-15T09:01:26Z</time>
      </trkpt>
      <trkpt lat="45.06691" lon="6.20146">
        <ele>2214</ele>
        <time>2012-08-15T09:01:46Z</time>
      </trkpt>
      <trkpt lat="45.0666" lon="6.20152">
        <ele>2218</ele>
        <time>2012-08-15T09:02:07Z</time>
      </trkpt>
      <trkpt lat="45.06631" lon="6.20173">
        <ele>2226</ele>
        <time>2012-08-15T09:02:28Z</time>
      </trkpt>
      <trkpt lat="45.06618" lon="6.20203">
        <ele>2228</ele>
        <time>2012-08-15T09:02:46Z</time>
      </trkpt>
      <trkpt lat="45.06604" lon="6.20238">
        <ele>2229</ele>
        <time>2012-08-15T09:03:06Z</time>
      </trkpt>
      <trkpt lat="45.06589" lon="6.20274">
        <ele>2239</ele>
        <time>2012-08-15T09:03:27Z</time>
      </trkpt>
      <trkpt lat="45.06586" lon="6.20285">
        <ele>2242</ele>
        <time>2012-08-15T09:03:33Z</time>
      </trkpt>
      <trkpt lat="45.06591" lon="6.2029">
        <ele>2243</ele>
        <time>2012-08-15T09:03:38Z</time>
      </trkpt>
      <trkpt lat="45.06619" lon="6.20256">
        <ele>2242</ele>
        <time>2012-08-15T09:04:01Z</time>
      </trkpt>
      <trkpt lat="45.06644" lon="6.20246">
        <ele>2236</ele>
        <time>2012-08-15T09:04:18Z</time>
      </trkpt>
      <trkpt lat="45.06674" lon="6.20234">
        <ele>2242</ele>
        <time>2012-08-15T09:04:38Z</time>
      </trkpt>
      <trkpt lat="45.06703" lon="6.2023">
        <ele>2239</ele>
        <time>2012-08-15T09:04:57Z</time>
      </trkpt>
      <trkpt lat="45.06733" lon="6.20232">
        <ele>2241</ele>
        <time>2012-08-15T09:05:16Z</time>
      </trkpt>
      <trkpt lat="45.06751" lon="6.20234">
        <ele>2243</ele>
        <time>2012-08-15T09:05:28Z</time>
      </trkpt>
      <trkpt lat="45.06766" lon="6.20236">
        <ele>2243</ele>
        <time>2012-08-15T09:05:39Z</time>
      </trkpt>
      <trkpt lat="45.06779" lon="6.2024">
        <ele>2242</ele>
        <time>2012-08-15T09:05:49Z</time>
      </trkpt>
      <trkpt lat="45.068" lon="6.2025">
        <ele>2243</ele>
        <time>2012-08-15T09:06:05Z</time>
      </trkpt>
      <trkpt lat="45.06831" lon="6.20267">
        <ele>2258</ele>
        <time>2012-08-15T09:06:28Z</time>
      </trkpt>
      <trkpt lat="45.06869" lon="6.20258">
        <ele>2267</ele>
        <time>2012-08-15T09:06:52Z</time>
      </trkpt>
      <trkpt lat="45.069" lon="6.20246">
        <ele>2258</ele>
        <time>2012-08-15T09:07:13Z</time>
      </trkpt>
      <trkpt lat="45.06934" lon="6.20245">
        <ele>2263</ele>
        <time>2012-08-15T09:07:31Z</time>
      </trkpt>
      <trkpt lat="45.06969" lon="6.20251">
        <ele>2276</ele>
        <time>2012-08-15T09:07:49Z</time>
      </trkpt>
      <trkpt lat="45.07004" lon="6.20231">
        <ele>2263</ele>
        <time>2012-08-15T09:08:06Z</time>
      </trkpt>
      <trkpt lat="45.07016" lon="6.20225">
        <ele>2260</ele>
        <time>2012-08-15T09:08:20Z</time>
      </trkpt>
      <trkpt lat="45.07016" lon="6.20223">
        <ele>2259</ele>
        <time>2012-08-15T09:13:02Z</time>
      </trkpt>
      <trkpt lat="45.07015" lon="6.20225">
        <ele>2260</ele>
        <time>2012-08-15T09:13:55Z</time>
      </trkpt>
      <trkpt lat="45.07016" lon="6.20225">
        <ele>2260</ele>
        <time>2012-08-15T09:14:43Z</time>
      </trkpt>
      <trkpt lat="45.0702" lon="6.20226">
        <ele>2259</ele>
        <time>2012-08-15T09:16:10Z</time>
      </trkpt>
      <trkpt lat="45.07041" lon="6.20233">
        <ele>2258</ele>
        <time>2012-08-15T09:16:19Z</time>
      </trkpt>
      <trkpt lat="45.0707" lon="6.20248">
        <ele>2258</ele>
        <time>2012-08-15T09:16:25Z</time>
      </trkpt>
      <trkpt lat="45.07113" lon="6.20271">
        <ele>2255</ele>
        <time>2012-08-15T09:16:34Z</time>
      </trkpt>
      <trkpt lat="45.07138" lon="6.20315">
        <ele>2253</ele>
        <time>2012-08-15T09:16:42Z</time>
      </trkpt>
      <trkpt lat="45.07143" lon="6.20366">
        <ele>2257</ele>
        <time>2012-08-15T09:16:49Z</time>
      </trkpt>
      <trkpt lat="45.07152" lon="6.20426">
        <ele>2255</ele>
        <time>2012-08-15T09:16:58Z</time>
      </trkpt>
      <trkpt lat="45.0715" lon="6.20433">
        <ele>2256</ele>
        <time>2012-08-15T09:16:59Z</time>
      </trkpt>
      <trkpt lat="45.07142" lon="6.20468">
        <ele>2257</ele>
        <time>2012-08-15T09:17:04Z</time>
      </trkpt>
      <trkpt lat="45.07142" lon="6.20489">
        <ele>2256</ele>
        <time>2012-08-15T09:17:07Z</time>
      </trkpt>
      <trkpt lat="45.07145" lon="6.20519">
        <ele>2250</ele>
        <time>2012-08-15T09:17:12Z</time>
      </trkpt>
      <trkpt lat="45.07135" lon="6.20551">
        <ele>2248</ele>
        <time>2012-08-15T09:17:21Z</time>
      </trkpt>
      <trkpt lat="45.07136" lon="6.20551">
        <ele>2248</ele>
        <time>2012-08-15T09:18:15Z</time>
      </trkpt>
      <trkpt lat="45.0713" lon="6.20557">
        <ele>2248</ele>
        <time>2012-08-15T09:18:20Z</time>
      </trkpt>
      <trkpt lat="45.07129" lon="6.20561">
        <ele>2248</ele>
        <time>2012-08-15T09:18:22Z</time>
      </trkpt>
      <trkpt lat="45.07127" lon="6.20567">
        <ele>2248</ele>
        <time>2012-08-15T09:18:45Z</time>
      </trkpt>
      <trkpt lat="45.07127" lon="6.20567">
        <ele>2248</ele>
        <time>2012-08-15T09:18:46Z</time>
      </trkpt>
      <trkpt lat="45.07125" lon="6.20567">
        <ele>2248</ele>
        <time>2012-08-15T09:18:48Z</time>
      </trkpt>
      <trkpt lat="45.07121" lon="6.20567">
        <ele>2248</ele>
        <time>2012-08-15T09:18:51Z</time>
      </trkpt>
      <trkpt lat="45.07079" lon="6.20585">
        <ele>2247</ele>
        <time>2012-08-15T09:19:05Z</time>
      </trkpt>
      <trkpt lat="45.07034" lon="6.20605">
        <ele>2248</ele>
        <time>2012-08-15T09:19:21Z</time>
      </trkpt>
      <trkpt lat="45.06984" lon="6.2065">
        <ele>2253</ele>
        <time>2012-08-15T09:19:39Z</time>
      </trkpt>
      <trkpt lat="45.06936" lon="6.20698">
        <ele>2247</ele>
        <time>2012-08-15T09:19:57Z</time>
      </trkpt>
      <trkpt lat="45.0692" lon="6.20709">
        <ele>2246</ele>
        <time>2012-08-15T09:20:02Z</time>
      </trkpt>
      <trkpt lat="45.06855" lon="6.20735">
        <ele>2254</ele>
        <time>2012-08-15T09:20:20Z</time>
      </trkpt>
      <trkpt lat="45.06822" lon="6.20749">
        <ele>2258</ele>
        <time>2012-08-15T09:20:33Z</time>
      </trkpt>
      <trkpt lat="45.06794" lon="6.20779">
        <ele>2255</ele>
        <time>2012-08-15T09:20:43Z</time>
      </trkpt>
      <trkpt lat="45.0676" lon="6.20804">
        <ele>2255</ele>
        <time>2012-08-15T09:20:54Z</time>
      </trkpt>
      <trkpt lat="45.06753" lon="6.2083">
        <ele>2255</ele>
        <time>2012-08-15T09:20:59Z</time>
      </trkpt>
      <trkpt lat="45.06765" lon="6.20919">
        <ele>2248</ele>
        <time>2012-08-15T09:21:15Z</time>
      </trkpt>
      <trkpt lat="45.0676" lon="6.20984">
        <ele>2245</ele>
        <time>2012-08-15T09:21:29Z</time>
      </trkpt>
      <trkpt lat="45.06751" lon="6.21022">
        <ele>2242</ele>
        <time>2012-08-15T09:21:35Z</time>
      </trkpt>
      <trkpt lat="45.06724" lon="6.21071">
        <ele>2250</ele>
        <time>2012-08-15T09:21:47Z</time>
      </trkpt>
      <trkpt lat="45.06711" lon="6.21096">
        <ele>2248</ele>
        <time>2012-08-15T09:21:52Z</time>
      </trkpt>
      <trkpt lat="45.06677" lon="6.21166">
        <ele>2251</ele>
        <time>2012-08-15T09:22:08Z</time>
      </trkpt>
      <trkpt lat="45.06641" lon="6.21232">
        <ele>2253</ele>
        <time>2012-08-15T09:22:24Z</time>
      </trkpt>
      <trkpt lat="45.06592" lon="6.21291">
        <ele>2247</ele>
        <time>2012-08-15T09:22:40Z</time>
      </trkpt>
      <trkpt lat="45.06532" lon="6.21323">
        <ele>2257</ele>
        <time>2012-08-15T09:22:57Z</time>
      </trkpt>
      <trkpt lat="45.06501" lon="6.21359">
        <ele>2250</ele>
        <time>2012-08-15T09:23:07Z</time>
      </trkpt>
      <trkpt lat="45.06487" lon="6.21373">
        <ele>2257</ele>
        <time>2012-08-15T09:23:11Z</time>
      </trkpt>
      <trkpt lat="45.06421" lon="6.21422">
        <ele>2253</ele>
        <time>2012-08-15T09:23:30Z</time>
      </trkpt>
      <trkpt lat="45.06411" lon="6.21432">
        <ele>2258</ele>
        <time>2012-08-15T09:23:33Z</time>
      </trkpt>
      <trkpt lat="45.06399" lon="6.2147">
        <ele>2259</ele>
        <time>2012-08-15T09:23:40Z</time>
      </trkpt>
      <trkpt lat="45.06394" lon="6.21573">
        <ele>2249</ele>
        <time>2012-08-15T09:24:01Z</time>
      </trkpt>
      <trkpt lat="45.06378" lon="6.21601">
        <ele>2240</ele>
        <time>2012-08-15T09:24:14Z</time>
      </trkpt>
      <trkpt lat="45.06322" lon="6.21607">
        <ele>2249</ele>
        <time>2012-08-15T09:24:32Z</time>
      </trkpt>
      <trkpt lat="45.06263" lon="6.21596">
        <ele>2251</ele>
        <time>2012-08-15T09:24:49Z</time>
      </trkpt>
      <trkpt lat="45.06211" lon="6.21596">
        <ele>2245</ele>
        <time>2012-08-15T09:25:05Z</time>
      </trkpt>
      <trkpt lat="45.06208" lon="6.21599">
        <ele>2244</ele>
        <time>2012-08-15T09:25:16Z</time>
      </trkpt>
      <trkpt lat="45.06208" lon="6.21599">
        <ele>2244</ele>
        <time>2012-08-15T09:26:02Z</time>
      </trkpt>
      <trkpt lat="45.06208" lon="6.21599">
        <ele>2244</ele>
        <time>2012-08-15T09:26:25Z</time>
      </trkpt>
      <trkpt lat="45.06222" lon="6.21605">
        <ele>2245</ele>
        <time>2012-08-15T09:26:30Z</time>
      </trkpt>
      <trkpt lat="45.06231" lon="6.21611">
        <ele>2244</ele>
        <time>2012-08-15T09:26:32Z</time>
      </trkpt>
      <trkpt lat="45.06268" lon="6.2162">
        <ele>2246</ele>
        <time>2012-08-15T09:26:42Z</time>
      </trkpt>
      <trkpt lat="45.06283" lon="6.21624">
        <ele>2245</ele>
        <time>2012-08-15T09:26:45Z</time>
      </trkpt>
      <trkpt lat="45.06288" lon="6.21624">
        <ele>2245</ele>
        <time>2012-08-15T09:26:46Z</time>
      </trkpt>
      <trkpt lat="45.06293" lon="6.21623">
        <ele>2245</ele>
        <time>2012-08-15T09:26:59Z</time>
      </trkpt>
      <trkpt lat="45.06293" lon="6.21623">
        <ele>2245</ele>
        <time>2012-08-15T09:28:45Z</time>
      </trkpt>
      <trkpt lat="45.06302" lon="6.21628">
        <ele>2244</ele>
        <time>2012-08-15T09:28:49Z</time>
      </trkpt>
      <trkpt lat="45.06315" lon="6.21639">
        <ele>2242</ele>
        <time>2012-08-15T09:28:52Z</time>
      </trkpt>
      <trkpt lat="45.06323" lon="6.21643">
        <ele>2241</ele>
        <time>2012-08-15T09:28:54Z</time>
      </trkpt>
      <trkpt lat="45.06335" lon="6.21649">
        <ele>2236</ele>
        <time>2012-08-15T09:28:58Z</time>
      </trkpt>
      <trkpt lat="45.06343" lon="6.21652">
        <ele>2235</ele>
        <time>2012-08-15T09:29:00Z</time>
      </trkpt>
      <trkpt lat="45.06363" lon="6.21655">
        <ele>2235</ele>
        <time>2012-08-15T09:29:05Z</time>
      </trkpt>
      <trkpt lat="45.06375" lon="6.21659">
        <ele>2234</ele>
        <time>2012-08-15T09:29:08Z</time>
      </trkpt>
      <trkpt lat="45.06388" lon="6.21661">
        <ele>2232</ele>
        <time>2012-08-15T09:29:12Z</time>
      </trkpt>
      <trkpt lat="45.06407" lon="6.21661">
        <ele>2226</ele>
        <time>2012-08-15T09:29:17Z</time>
      </trkpt>
      <trkpt lat="45.0642" lon="6.21665">
        <ele>2221</ele>
        <time>2012-08-15T09:29:22Z</time>
      </trkpt>
      <trkpt lat="45.06431" lon="6.21667">
        <ele>2215</ele>
        <time>2012-08-15T09:29:25Z</time>
      </trkpt>
      <trkpt lat="45.06451" lon="6.21673">
        <ele>2212</ele>
        <time>2012-08-15T09:29:33Z</time>
      </trkpt>
      <trkpt lat="45.06465" lon="6.21679">
        <ele>2211</ele>
        <time>2012-08-15T09:29:39Z</time>
      </trkpt>
      <trkpt lat="45.06469" lon="6.21682">
        <ele>2211</ele>
        <time>2012-08-15T09:29:41Z</time>
      </trkpt>
      <trkpt lat="45.06471" lon="6.21691">
        <ele>2210</ele>
        <time>2012-08-15T09:29:44Z</time>
      </trkpt>
      <trkpt lat="45.0647" lon="6.21697">
        <ele>2210</ele>
        <time>2012-08-15T09:29:54Z</time>
      </trkpt>
      <trkpt lat="45.06466" lon="6.21734">
        <ele>2208</ele>
        <time>2012-08-15T09:30:03Z</time>
      </trkpt>
      <trkpt lat="45.06466" lon="6.21755">
        <ele>2202</ele>
        <time>2012-08-15T09:30:06Z</time>
      </trkpt>
      <trkpt lat="45.06455" lon="6.21784">
        <ele>2201</ele>
        <time>2012-08-15T09:30:10Z</time>
      </trkpt>
      <trkpt lat="45.06458" lon="6.21819">
        <ele>2200</ele>
        <time>2012-08-15T09:30:15Z</time>
      </trkpt>
      <trkpt lat="45.06461" lon="6.21843">
        <ele>2196</ele>
        <time>2012-08-15T09:30:18Z</time>
      </trkpt>
      <trkpt lat="45.06462" lon="6.21856">
        <ele>2196</ele>
        <time>2012-08-15T09:30:25Z</time>
      </trkpt>
      <trkpt lat="45.06462" lon="6.21856">
        <ele>2196</ele>
        <time>2012-08-15T09:30:43Z</time>
      </trkpt>
      <trkpt lat="45.06466" lon="6.2188">
        <ele>2195</ele>
        <time>2012-08-15T09:30:49Z</time>
      </trkpt>
      <trkpt lat="45.0647" lon="6.21895">
        <ele>2194</ele>
        <time>2012-08-15T09:30:52Z</time>
      </trkpt>
      <trkpt lat="45.06479" lon="6.21908">
        <ele>2194</ele>
        <time>2012-08-15T09:30:57Z</time>
      </trkpt>
      <trkpt lat="45.06492" lon="6.21931">
        <ele>2193</ele>
        <time>2012-08-15T09:31:03Z</time>
      </trkpt>
      <trkpt lat="45.06516" lon="6.21954">
        <ele>2193</ele>
        <time>2012-08-15T09:31:08Z</time>
      </trkpt>
      <trkpt lat="45.06541" lon="6.21973">
        <ele>2194</ele>
        <time>2012-08-15T09:31:13Z</time>
      </trkpt>
      <trkpt lat="45.06558" lon="6.21981">
        <ele>2194</ele>
        <time>2012-08-15T09:31:18Z</time>
      </trkpt>
      <trkpt lat="45.06566" lon="6.21979">
        <ele>2194</ele>
        <time>2012-08-15T09:31:28Z</time>
      </trkpt>
      <trkpt lat="45.06572" lon="6.21978">
        <ele>2194</ele>
        <time>2012-08-15T09:32:16Z</time>
      </trkpt>
      <trkpt lat="45.06576" lon="6.21972">
        <ele>2194</ele>
        <time>2012-08-15T09:32:28Z</time>
      </trkpt>
      <trkpt lat="45.06576" lon="6.21969">
        <ele>2194</ele>
        <time>2012-08-15T09:32:37Z</time>
      </trkpt>
      <trkpt lat="45.06578" lon="6.21974">
        <ele>2194</ele>
        <time>2012-08-15T09:32:43Z</time>
      </trkpt>
      <trkpt lat="45.06582" lon="6.21964">
        <ele>2194</ele>
        <time>2012-08-15T09:32:49Z</time>
      </trkpt>
      <trkpt lat="45.06579" lon="6.21949">
        <ele>2194</ele>
        <time>2012-08-15T09:32:53Z</time>
      </trkpt>
      <trkpt lat="45.06576" lon="6.21965">
        <ele>2194</ele>
        <time>2012-08-15T09:33:01Z</time>
      </trkpt>
      <trkpt lat="45.06579" lon="6.21976">
        <ele>2194</ele>
        <time>2012-08-15T09:33:03Z</time>
      </trkpt>
      <trkpt lat="45.06578" lon="6.21996">
        <ele>2194</ele>
        <time>2012-08-15T09:33:07Z</time>
      </trkpt>
      <trkpt lat="45.06574" lon="6.22005">
        <ele>2195</ele>
        <time>2012-08-15T09:33:10Z</time>
      </trkpt>
      <trkpt lat="45.06574" lon="6.2201">
        <ele>2195</ele>
        <time>2012-08-15T09:33:22Z</time>
      </trkpt>
      <trkpt lat="45.06574" lon="6.22011">
        <ele>2195</ele>
        <time>2012-08-15T09:34:22Z</time>
      </trkpt>
      <trkpt lat="45.06557" lon="6.22051">
        <ele>2196</ele>
        <time>2012-08-15T09:34:36Z</time>
      </trkpt>
      <trkpt lat="45.06547" lon="6.22065">
        <ele>2196</ele>
        <time>2012-08-15T09:34:44Z</time>
      </trkpt>
      <trkpt lat="45.06537" lon="6.22075">
        <ele>2197</ele>
        <time>2012-08-15T09:34:52Z</time>
      </trkpt>
      <trkpt lat="45.06535" lon="6.22083">
        <ele>2197</ele>
        <time>2012-08-15T09:34:56Z</time>
      </trkpt>
      <trkpt lat="45.06536" lon="6.22087">
        <ele>2201</ele>
        <time>2012-08-15T09:34:58Z</time>
      </trkpt>
      <trkpt lat="45.06529" lon="6.22093">
        <ele>2201</ele>
        <time>2012-08-15T09:35:04Z</time>
      </trkpt>
      <trkpt lat="45.06526" lon="6.22092">
        <ele>2201</ele>
        <time>2012-08-15T09:35:06Z</time>
      </trkpt>
      <trkpt lat="45.06522" lon="6.22096">
        <ele>2201</ele>
        <time>2012-08-15T09:35:10Z</time>
      </trkpt>
      <trkpt lat="45.06515" lon="6.22122">
        <ele>2203</ele>
        <time>2012-08-15T09:35:25Z</time>
      </trkpt>
      <trkpt lat="45.06514" lon="6.22134">
        <ele>2204</ele>
        <time>2012-08-15T09:35:33Z</time>
      </trkpt>
      <trkpt lat="45.06513" lon="6.22149">
        <ele>2206</ele>
        <time>2012-08-15T09:35:42Z</time>
      </trkpt>
      <trkpt lat="45.0651" lon="6.22174">
        <ele>2211</ele>
        <time>2012-08-15T09:36:00Z</time>
      </trkpt>
      <trkpt lat="45.06509" lon="6.22202">
        <ele>2211</ele>
        <time>2012-08-15T09:36:17Z</time>
      </trkpt>
      <trkpt lat="45.06508" lon="6.22205">
        <ele>2212</ele>
        <time>2012-08-15T09:36:19Z</time>
      </trkpt>
      <trkpt lat="45.06507" lon="6.22228">
        <ele>2214</ele>
        <time>2012-08-15T09:36:32Z</time>
      </trkpt>
      <trkpt lat="45.06508" lon="6.22241">
        <ele>2216</ele>
        <time>2012-08-15T09:36:40Z</time>
      </trkpt>
      <trkpt lat="45.06506" lon="6.22263">
        <ele>2219</ele>
        <time>2012-08-15T09:36:56Z</time>
      </trkpt>
      <trkpt lat="45.06504" lon="6.22276">
        <ele>2219</ele>
        <time>2012-08-15T09:37:05Z</time>
      </trkpt>
      <trkpt lat="45.065" lon="6.223">
        <ele>2220</ele>
        <time>2012-08-15T09:37:21Z</time>
      </trkpt>
      <trkpt lat="45.06491" lon="6.22322">
        <ele>2228</ele>
        <time>2012-08-15T09:37:35Z</time>
      </trkpt>
      <trkpt lat="45.0648" lon="6.22343">
        <ele>2233</ele>
        <time>2012-08-15T09:37:53Z</time>
      </trkpt>
      <trkpt lat="45.06472" lon="6.22356">
        <ele>2235</ele>
        <time>2012-08-15T09:38:02Z</time>
      </trkpt>
      <trkpt lat="45.06467" lon="6.22375">
        <ele>2237</ele>
        <time>2012-08-15T09:38:11Z</time>
      </trkpt>
      <trkpt lat="45.06465" lon="6.22404">
        <ele>2238</ele>
        <time>2012-08-15T09:38:26Z</time>
      </trkpt>
      <trkpt lat="45.0646" lon="6.22435">
        <ele>2244</ele>
        <time>2012-08-15T09:38:44Z</time>
      </trkpt>
      <trkpt lat="45.06457" lon="6.22459">
        <ele>2245</ele>
        <time>2012-08-15T09:38:57Z</time>
      </trkpt>
      <trkpt lat="45.06448" lon="6.22488">
        <ele>2247</ele>
        <time>2012-08-15T09:39:12Z</time>
      </trkpt>
      <trkpt lat="45.06435" lon="6.22527">
        <ele>2251</ele>
        <time>2012-08-15T09:39:34Z</time>
      </trkpt>
      <trkpt lat="45.06422" lon="6.22581">
        <ele>2255</ele>
        <time>2012-08-15T09:40:01Z</time>
      </trkpt>
      <trkpt lat="45.06413" lon="6.22627">
        <ele>2261</ele>
        <time>2012-08-15T09:40:20Z</time>
      </trkpt>
      <trkpt lat="45.064" lon="6.22679">
        <ele>2260</ele>
        <time>2012-08-15T09:40:43Z</time>
      </trkpt>
      <trkpt lat="45.06389" lon="6.22712">
        <ele>2263</ele>
        <time>2012-08-15T09:40:58Z</time>
      </trkpt>
      <trkpt lat="45.06363" lon="6.22739">
        <ele>2266</ele>
        <time>2012-08-15T09:41:18Z</time>
      </trkpt>
      <trkpt lat="45.06343" lon="6.22774">
        <ele>2268</ele>
        <time>2012-08-15T09:41:35Z</time>
      </trkpt>
      <trkpt lat="45.06329" lon="6.22814">
        <ele>2276</ele>
        <time>2012-08-15T09:41:53Z</time>
      </trkpt>
      <trkpt lat="45.06324" lon="6.22818">
        <ele>2276</ele>
        <time>2012-08-15T09:42:01Z</time>
      </trkpt>
      <trkpt lat="45.0632" lon="6.22834">
        <ele>2276</ele>
        <time>2012-08-15T09:42:11Z</time>
      </trkpt>
      <trkpt lat="45.06322" lon="6.22846">
        <ele>2277</ele>
        <time>2012-08-15T09:42:20Z</time>
      </trkpt>
      <trkpt lat="45.06321" lon="6.22847">
        <ele>2277</ele>
        <time>2012-08-15T09:42:26Z</time>
      </trkpt>
      <trkpt lat="45.06324" lon="6.22875">
        <ele>2281</ele>
        <time>2012-08-15T09:42:37Z</time>
      </trkpt>
      <trkpt lat="45.06321" lon="6.22918">
        <ele>2282</ele>
        <time>2012-08-15T09:42:52Z</time>
      </trkpt>
      <trkpt lat="45.06326" lon="6.22963">
        <ele>2286</ele>
        <time>2012-08-15T09:43:11Z</time>
      </trkpt>
      <trkpt lat="45.06327" lon="6.22973">
        <ele>2286</ele>
        <time>2012-08-15T09:43:15Z</time>
      </trkpt>
      <trkpt lat="45.06331" lon="6.23006">
        <ele>2286</ele>
        <time>2012-08-15T09:43:31Z</time>
      </trkpt>
      <trkpt lat="45.0633" lon="6.23039">
        <ele>2292</ele>
        <time>2012-08-15T09:43:47Z</time>
      </trkpt>
      <trkpt lat="45.06327" lon="6.23052">
        <ele>2293</ele>
        <time>2012-08-15T09:43:53Z</time>
      </trkpt>
      <trkpt lat="45.06322" lon="6.23089">
        <ele>2294</ele>
        <time>2012-08-15T09:44:10Z</time>
      </trkpt>
      <trkpt lat="45.06312" lon="6.23109">
        <ele>2298</ele>
        <time>2012-08-15T09:44:20Z</time>
      </trkpt>
      <trkpt lat="45.06306" lon="6.23122">
        <ele>2300</ele>
        <time>2012-08-15T09:44:32Z</time>
      </trkpt>
      <trkpt lat="45.06306" lon="6.23124">
        <ele>2300</ele>
        <time>2012-08-15T09:44:34Z</time>
      </trkpt>
      <trkpt lat="45.06308" lon="6.23129">
        <ele>2299</ele>
        <time>2012-08-15T09:44:37Z</time>
      </trkpt>
      <trkpt lat="45.06309" lon="6.23134">
        <ele>2299</ele>
        <time>2012-08-15T09:44:44Z</time>
      </trkpt>
      <trkpt lat="45.06302" lon="6.23169">
        <ele>2301</ele>
        <time>2012-08-15T09:44:58Z</time>
      </trkpt>
      <trkpt lat="45.0629" lon="6.23204">
        <ele>2304</ele>
        <time>2012-08-15T09:45:11Z</time>
      </trkpt>
      <trkpt lat="45.0628" lon="6.23238">
        <ele>2307</ele>
        <time>2012-08-15T09:45:26Z</time>
      </trkpt>
      <trkpt lat="45.06278" lon="6.23248">
        <ele>2307</ele>
        <time>2012-08-15T09:45:30Z</time>
      </trkpt>
      <trkpt lat="45.06278" lon="6.23258">
        <ele>2309</ele>
        <time>2012-08-15T09:45:34Z</time>
      </trkpt>
      <trkpt lat="45.06288" lon="6.23295">
        <ele>2308</ele>
        <time>2012-08-15T09:45:43Z</time>
      </trkpt>
      <trkpt lat="45.06292" lon="6.23318">
        <ele>2308</ele>
        <time>2012-08-15T09:45:46Z</time>
      </trkpt>
      <trkpt lat="45.06297" lon="6.23331">
        <ele>2306</ele>
        <time>2012-08-15T09:45:48Z</time>
      </trkpt>
      <trkpt lat="45.063" lon="6.23355">
        <ele>2307</ele>
        <time>2012-08-15T09:45:52Z</time>
      </trkpt>
      <trkpt lat="45.06291" lon="6.23388">
        <ele>2309</ele>
        <time>2012-08-15T09:46:04Z</time>
      </trkpt>
      <trkpt lat="45.06285" lon="6.23413">
        <ele>2310</ele>
        <time>2012-08-15T09:46:14Z</time>
      </trkpt>
      <trkpt lat="45.06283" lon="6.2342">
        <ele>2311</ele>
        <time>2012-08-15T09:46:17Z</time>
      </trkpt>
      <trkpt lat="45.06282" lon="6.23433">
        <ele>2312</ele>
        <time>2012-08-15T09:46:24Z</time>
      </trkpt>
      <trkpt lat="45.06289" lon="6.23447">
        <ele>2311</ele>
        <time>2012-08-15T09:46:34Z</time>
      </trkpt>
      <trkpt lat="45.06239" lon="6.23743">
        <ele>2332</ele>
        <time>2012-08-15T09:48:42Z</time>
      </trkpt>
      <trkpt lat="45.06232" lon="6.23751">
        <ele>2334</ele>
        <time>2012-08-15T09:48:50Z</time>
      </trkpt>
      <trkpt lat="45.06231" lon="6.23752">
        <ele>2334</ele>
        <time>2012-08-15T09:48:51Z</time>
      </trkpt>
      <trkpt lat="45.06227" lon="6.2375">
        <ele>2335</ele>
        <time>2012-08-15T09:48:53Z</time>
      </trkpt>
      <trkpt lat="45.06224" lon="6.2375">
        <ele>2334</ele>
        <time>2012-08-15T09:48:55Z</time>
      </trkpt>
      <trkpt lat="45.06223" lon="6.23751">
        <ele>2336</ele>
        <time>2012-08-15T09:48:56Z</time>
      </trkpt>
      <trkpt lat="45.06219" lon="6.23751">
        <ele>2336</ele>
        <time>2012-08-15T09:48:59Z</time>
      </trkpt>
      <trkpt lat="45.06216" lon="6.23752">
        <ele>2337</ele>
        <time>2012-08-15T09:49:01Z</time>
      </trkpt>
      <trkpt lat="45.06213" lon="6.23754">
        <ele>2337</ele>
        <time>2012-08-15T09:49:03Z</time>
      </trkpt>
      <trkpt lat="45.0621" lon="6.23755">
        <ele>2338</ele>
        <time>2012-08-15T09:49:05Z</time>
      </trkpt>
      <trkpt lat="45.06207" lon="6.23757">
        <ele>2338</ele>
        <time>2012-08-15T09:49:07Z</time>
      </trkpt>
      <trkpt lat="45.06204" lon="6.23758">
        <ele>2338</ele>
        <time>2012-08-15T09:49:09Z</time>
      </trkpt>
      <trkpt lat="45.06202" lon="6.2376">
        <ele>2339</ele>
        <time>2012-08-15T09:49:11Z</time>
      </trkpt>
      <trkpt lat="45.06199" lon="6.23761">
        <ele>2339</ele>
        <time>2012-08-15T09:49:13Z</time>
      </trkpt>
      <trkpt lat="45.06195" lon="6.23764">
        <ele>2340</ele>
        <time>2012-08-15T09:49:16Z</time>
      </trkpt>
      <trkpt lat="45.06192" lon="6.23767">
        <ele>2340</ele>
        <time>2012-08-15T09:49:19Z</time>
      </trkpt>
      <trkpt lat="45.06188" lon="6.23771">
        <ele>2340</ele>
        <time>2012-08-15T09:49:22Z</time>
      </trkpt>
      <trkpt lat="45.06185" lon="6.23774">
        <ele>2341</ele>
        <time>2012-08-15T09:49:25Z</time>
      </trkpt>
      <trkpt lat="45.06181" lon="6.23776">
        <ele>2341</ele>
        <time>2012-08-15T09:49:28Z</time>
      </trkpt>
      <trkpt lat="45.06177" lon="6.23779">
        <ele>2341</ele>
        <time>2012-08-15T09:49:31Z</time>
      </trkpt>
      <trkpt lat="45.06174" lon="6.23782">
        <ele>2341</ele>
        <time>2012-08-15T09:49:34Z</time>
      </trkpt>
      <trkpt lat="45.06169" lon="6.23788">
        <ele>2342</ele>
        <time>2012-08-15T09:49:38Z</time>
      </trkpt>
      <trkpt lat="45.06164" lon="6.23792">
        <ele>2352</ele>
        <time>2012-08-15T09:49:42Z</time>
      </trkpt>
      <trkpt lat="45.06162" lon="6.23795">
        <ele>2352</ele>
        <time>2012-08-15T09:49:45Z</time>
      </trkpt>
      <trkpt lat="45.06162" lon="6.23797">
        <ele>2352</ele>
        <time>2012-08-15T09:49:46Z</time>
      </trkpt>
      <trkpt lat="45.06158" lon="6.238">
        <ele>2352</ele>
        <time>2012-08-15T09:49:50Z</time>
      </trkpt>
      <trkpt lat="45.06153" lon="6.23804">
        <ele>2353</ele>
        <time>2012-08-15T09:49:54Z</time>
      </trkpt>
      <trkpt lat="45.06144" lon="6.23809">
        <ele>2353</ele>
        <time>2012-08-15T09:50:02Z</time>
      </trkpt>
      <trkpt lat="45.0614" lon="6.23813">
        <ele>2354</ele>
        <time>2012-08-15T09:50:06Z</time>
      </trkpt>
      <trkpt lat="45.06133" lon="6.2382">
        <ele>2354</ele>
        <time>2012-08-15T09:50:14Z</time>
      </trkpt>
      <trkpt lat="45.06124" lon="6.23823">
        <ele>2355</ele>
        <time>2012-08-15T09:50:22Z</time>
      </trkpt>
      <trkpt lat="45.06123" lon="6.23823">
        <ele>2355</ele>
        <time>2012-08-15T09:50:23Z</time>
      </trkpt>
      <trkpt lat="45.06098" lon="6.23836">
        <ele>2358</ele>
        <time>2012-08-15T09:50:41Z</time>
      </trkpt>
      <trkpt lat="45.06095" lon="6.23837">
        <ele>2358</ele>
        <time>2012-08-15T09:50:43Z</time>
      </trkpt>
      <trkpt lat="45.06079" lon="6.23838">
        <ele>2360</ele>
        <time>2012-08-15T09:50:54Z</time>
      </trkpt>
      <trkpt lat="45.06065" lon="6.23839">
        <ele>2361</ele>
        <time>2012-08-15T09:51:02Z</time>
      </trkpt>
      <trkpt lat="45.06031" lon="6.23853">
        <ele>2363</ele>
        <time>2012-08-15T09:51:24Z</time>
      </trkpt>
      <trkpt lat="45.06022" lon="6.2386">
        <ele>2363</ele>
        <time>2012-08-15T09:51:32Z</time>
      </trkpt>
      <trkpt lat="45.06016" lon="6.23855">
        <ele>2363</ele>
        <time>2012-08-15T09:51:43Z</time>
      </trkpt>
      <trkpt lat="45.06017" lon="6.23855">
        <ele>2363</ele>
        <time>2012-08-15T10:04:52Z</time>
      </trkpt>
      <trkpt lat="45.06015" lon="6.23852">
        <ele>2363</ele>
        <time>2012-08-15T10:05:27Z</time>
      </trkpt>
      <trkpt lat="45.06003" lon="6.23816">
        <ele>2365</ele>
        <time>2012-08-15T10:05:43Z</time>
      </trkpt>
      <trkpt lat="45.05995" lon="6.23773">
        <ele>2366</ele>
        <time>2012-08-15T10:06:02Z</time>
      </trkpt>
      <trkpt lat="45.05994" lon="6.23769">
        <ele>2367</ele>
        <time>2012-08-15T10:06:04Z</time>
      </trkpt>
      <trkpt lat="45.05994" lon="6.23738">
        <ele>2372</ele>
        <time>2012-08-15T10:06:18Z</time>
      </trkpt>
      <trkpt lat="45.05995" lon="6.23731">
        <ele>2373</ele>
        <time>2012-08-15T10:06:21Z</time>
      </trkpt>
      <trkpt lat="45.05997" lon="6.23718">
        <ele>2374</ele>
        <time>2012-08-15T10:06:27Z</time>
      </trkpt>
      <trkpt lat="45.05993" lon="6.23712">
        <ele>2375</ele>
        <time>2012-08-15T10:06:31Z</time>
      </trkpt>
      <trkpt lat="45.05988" lon="6.23713">
        <ele>2375</ele>
        <time>2012-08-15T10:06:35Z</time>
      </trkpt>
      <trkpt lat="45.05981" lon="6.23711">
        <ele>2375</ele>
        <time>2012-08-15T10:06:39Z</time>
      </trkpt>
      <trkpt lat="45.05976" lon="6.23716">
        <ele>2374</ele>
        <time>2012-08-15T10:06:45Z</time>
      </trkpt>
      <trkpt lat="45.05973" lon="6.23715">
        <ele>2374</ele>
        <time>2012-08-15T10:07:01Z</time>
      </trkpt>
      <trkpt lat="45.05966" lon="6.23709">
        <ele>2375</ele>
        <time>2012-08-15T10:07:18Z</time>
      </trkpt>
      <trkpt lat="45.0596" lon="6.23703">
        <ele>2375</ele>
        <time>2012-08-15T10:07:29Z</time>
      </trkpt>
      <trkpt lat="45.05954" lon="6.23696">
        <ele>2376</ele>
        <time>2012-08-15T10:07:45Z</time>
      </trkpt>
      <trkpt lat="45.05951" lon="6.23694">
        <ele>2376</ele>
        <time>2012-08-15T10:07:54Z</time>
      </trkpt>
      <trkpt lat="45.05947" lon="6.23684">
        <ele>2377</ele>
        <time>2012-08-15T10:07:58Z</time>
      </trkpt>
      <trkpt lat="45.05943" lon="6.23676">
        <ele>2377</ele>
        <time>2012-08-15T10:08:01Z</time>
      </trkpt>
      <trkpt lat="45.0594" lon="6.23675">
        <ele>2377</ele>
        <time>2012-08-15T10:08:21Z</time>
      </trkpt>
      <trkpt lat="45.05939" lon="6.23674">
        <ele>2377</ele>
        <time>2012-08-15T10:10:38Z</time>
      </trkpt>
      <trkpt lat="45.05933" lon="6.23665">
        <ele>2384</ele>
        <time>2012-08-15T10:10:44Z</time>
      </trkpt>
      <trkpt lat="45.05929" lon="6.23655">
        <ele>2384</ele>
        <time>2012-08-15T10:10:48Z</time>
      </trkpt>
      <trkpt lat="45.05899" lon="6.23644">
        <ele>2385</ele>
        <time>2012-08-15T10:11:04Z</time>
      </trkpt>
      <trkpt lat="45.05892" lon="6.23643">
        <ele>2385</ele>
        <time>2012-08-15T10:11:08Z</time>
      </trkpt>
      <trkpt lat="45.05883" lon="6.23627">
        <ele>2387</ele>
        <time>2012-08-15T10:11:17Z</time>
      </trkpt>
      <trkpt lat="45.05886" lon="6.23621">
        <ele>2387</ele>
        <time>2012-08-15T10:11:20Z</time>
      </trkpt>
      <trkpt lat="45.05888" lon="6.23619">
        <ele>2388</ele>
        <time>2012-08-15T10:11:21Z</time>
      </trkpt>
      <trkpt lat="45.05882" lon="6.23606">
        <ele>2389</ele>
        <time>2012-08-15T10:11:30Z</time>
      </trkpt>
      <trkpt lat="45.05879" lon="6.23605">
        <ele>2389</ele>
        <time>2012-08-15T10:11:32Z</time>
      </trkpt>
      <trkpt lat="45.05874" lon="6.23599">
        <ele>2389</ele>
        <time>2012-08-15T10:11:36Z</time>
      </trkpt>
      <trkpt lat="45.05872" lon="6.23595">
        <ele>2390</ele>
        <time>2012-08-15T10:11:38Z</time>
      </trkpt>
      <trkpt lat="45.05869" lon="6.23594">
        <ele>2390</ele>
        <time>2012-08-15T10:11:40Z</time>
      </trkpt>
      <trkpt lat="45.05862" lon="6.23594">
        <ele>2390</ele>
        <time>2012-08-15T10:11:44Z</time>
      </trkpt>
      <trkpt lat="45.05842" lon="6.23595">
        <ele>2392</ele>
        <time>2012-08-15T10:12:01Z</time>
      </trkpt>
      <trkpt lat="45.05824" lon="6.23579">
        <ele>2398</ele>
        <time>2012-08-15T10:12:19Z</time>
      </trkpt>
      <trkpt lat="45.05811" lon="6.23562">
        <ele>2400</ele>
        <time>2012-08-15T10:12:31Z</time>
      </trkpt>
      <trkpt lat="45.05796" lon="6.23549">
        <ele>2402</ele>
        <time>2012-08-15T10:12:43Z</time>
      </trkpt>
      <trkpt lat="45.05793" lon="6.23542">
        <ele>2402</ele>
        <time>2012-08-15T10:12:48Z</time>
      </trkpt>
      <trkpt lat="45.05772" lon="6.23527">
        <ele>2404</ele>
        <time>2012-08-15T10:13:05Z</time>
      </trkpt>
      <trkpt lat="45.05752" lon="6.23522">
        <ele>2405</ele>
        <time>2012-08-15T10:13:19Z</time>
      </trkpt>
      <trkpt lat="45.05742" lon="6.23504">
        <ele>2407</ele>
        <time>2012-08-15T10:13:30Z</time>
      </trkpt>
      <trkpt lat="45.05736" lon="6.23491">
        <ele>2409</ele>
        <time>2012-08-15T10:13:45Z</time>
      </trkpt>
      <trkpt lat="45.05732" lon="6.2349">
        <ele>2409</ele>
        <time>2012-08-15T10:14:07Z</time>
      </trkpt>
      <trkpt lat="45.05732" lon="6.2349">
        <ele>2409</ele>
        <time>2012-08-15T10:15:12Z</time>
      </trkpt>
      <trkpt lat="45.05732" lon="6.23488">
        <ele>2409</ele>
        <time>2012-08-15T10:22:31Z</time>
      </trkpt>
      <trkpt lat="45.05732" lon="6.23488">
        <ele>2409</ele>
        <time>2012-08-15T10:22:43Z</time>
      </trkpt>
      <trkpt lat="45.05721" lon="6.23456">
        <ele>2410</ele>
        <time>2012-08-15T10:23:00Z</time>
      </trkpt>
      <trkpt lat="45.05715" lon="6.23446">
        <ele>2410</ele>
        <time>2012-08-15T10:23:03Z</time>
      </trkpt>
      <trkpt lat="45.05698" lon="6.23427">
        <ele>2410</ele>
        <time>2012-08-15T10:23:11Z</time>
      </trkpt>
      <trkpt lat="45.05692" lon="6.23382">
        <ele>2412</ele>
        <time>2012-08-15T10:23:24Z</time>
      </trkpt>
      <trkpt lat="45.05676" lon="6.23349">
        <ele>2413</ele>
        <time>2012-08-15T10:23:36Z</time>
      </trkpt>
      <trkpt lat="45.05658" lon="6.2331">
        <ele>2412</ele>
        <time>2012-08-15T10:23:48Z</time>
      </trkpt>
      <trkpt lat="45.05654" lon="6.23285">
        <ele>2412</ele>
        <time>2012-08-15T10:23:57Z</time>
      </trkpt>
      <trkpt lat="45.05649" lon="6.23267">
        <ele>2413</ele>
        <time>2012-08-15T10:24:02Z</time>
      </trkpt>
      <trkpt lat="45.05631" lon="6.23234">
        <ele>2416</ele>
        <time>2012-08-15T10:24:13Z</time>
      </trkpt>
      <trkpt lat="45.05617" lon="6.23213">
        <ele>2416</ele>
        <time>2012-08-15T10:24:22Z</time>
      </trkpt>
      <trkpt lat="45.05589" lon="6.23189">
        <ele>2419</ele>
        <time>2012-08-15T10:24:40Z</time>
      </trkpt>
      <trkpt lat="45.05579" lon="6.23183">
        <ele>2420</ele>
        <time>2012-08-15T10:24:46Z</time>
      </trkpt>
      <trkpt lat="45.05574" lon="6.23179">
        <ele>2421</ele>
        <time>2012-08-15T10:24:50Z</time>
      </trkpt>
      <trkpt lat="45.05547" lon="6.23176">
        <ele>2420</ele>
        <time>2012-08-15T10:25:06Z</time>
      </trkpt>
      <trkpt lat="45.05521" lon="6.23165">
        <ele>2427</ele>
        <time>2012-08-15T10:25:22Z</time>
      </trkpt>
      <trkpt lat="45.0552" lon="6.23163">
        <ele>2427</ele>
        <time>2012-08-15T10:25:23Z</time>
      </trkpt>
      <trkpt lat="45.05495" lon="6.23148">
        <ele>2429</ele>
        <time>2012-08-15T10:25:33Z</time>
      </trkpt>
      <trkpt lat="45.05482" lon="6.23142">
        <ele>2430</ele>
        <time>2012-08-15T10:25:41Z</time>
      </trkpt>
      <trkpt lat="45.05456" lon="6.23135">
        <ele>2432</ele>
        <time>2012-08-15T10:25:56Z</time>
      </trkpt>
      <trkpt lat="45.05441" lon="6.23124">
        <ele>2433</ele>
        <time>2012-08-15T10:26:07Z</time>
      </trkpt>
      <trkpt lat="45.05436" lon="6.23121">
        <ele>2433</ele>
        <time>2012-08-15T10:26:11Z</time>
      </trkpt>
      <trkpt lat="45.05419" lon="6.23097">
        <ele>2436</ele>
        <time>2012-08-15T10:26:29Z</time>
      </trkpt>
      <trkpt lat="45.05396" lon="6.23077">
        <ele>2442</ele>
        <time>2012-08-15T10:26:43Z</time>
      </trkpt>
      <trkpt lat="45.05375" lon="6.23057">
        <ele>2444</ele>
        <time>2012-08-15T10:26:57Z</time>
      </trkpt>
      <trkpt lat="45.05373" lon="6.23052">
        <ele>2444</ele>
        <time>2012-08-15T10:26:59Z</time>
      </trkpt>
      <trkpt lat="45.05362" lon="6.23042">
        <ele>2445</ele>
        <time>2012-08-15T10:27:08Z</time>
      </trkpt>
      <trkpt lat="45.0536" lon="6.23039">
        <ele>2445</ele>
        <time>2012-08-15T10:27:11Z</time>
      </trkpt>
      <trkpt lat="45.05331" lon="6.23022">
        <ele>2448</ele>
        <time>2012-08-15T10:27:30Z</time>
      </trkpt>
      <trkpt lat="45.05317" lon="6.23013">
        <ele>2448</ele>
        <time>2012-08-15T10:27:40Z</time>
      </trkpt>
      <trkpt lat="45.05305" lon="6.22993">
        <ele>2452</ele>
        <time>2012-08-15T10:27:53Z</time>
      </trkpt>
      <trkpt lat="45.05293" lon="6.22963">
        <ele>2454</ele>
        <time>2012-08-15T10:28:10Z</time>
      </trkpt>
      <trkpt lat="45.05292" lon="6.22961">
        <ele>2454</ele>
        <time>2012-08-15T10:28:11Z</time>
      </trkpt>
      <trkpt lat="45.05283" lon="6.22944">
        <ele>2455</ele>
        <time>2012-08-15T10:28:20Z</time>
      </trkpt>
      <trkpt lat="45.05281" lon="6.22937">
        <ele>2455</ele>
        <time>2012-08-15T10:28:23Z</time>
      </trkpt>
      <trkpt lat="45.05276" lon="6.22931">
        <ele>2455</ele>
        <time>2012-08-15T10:28:27Z</time>
      </trkpt>
      <trkpt lat="45.05261" lon="6.22902">
        <ele>2459</ele>
        <time>2012-08-15T10:28:41Z</time>
      </trkpt>
      <trkpt lat="45.05252" lon="6.22887">
        <ele>2460</ele>
        <time>2012-08-15T10:28:48Z</time>
      </trkpt>
      <trkpt lat="45.05241" lon="6.22835">
        <ele>2459</ele>
        <time>2012-08-15T10:29:08Z</time>
      </trkpt>
      <trkpt lat="45.05242" lon="6.22824">
        <ele>2459</ele>
        <time>2012-08-15T10:29:20Z</time>
      </trkpt>
      <trkpt lat="45.05242" lon="6.22824">
        <ele>2459</ele>
        <time>2012-08-15T10:30:15Z</time>
      </trkpt>
      <trkpt lat="45.05242" lon="6.22817">
        <ele>2459</ele>
        <time>2012-08-15T10:30:27Z</time>
      </trkpt>
      <trkpt lat="45.05242" lon="6.22817">
        <ele>2459</ele>
        <time>2012-08-15T10:30:36Z</time>
      </trkpt>
      <trkpt lat="45.05242" lon="6.22809">
        <ele>2458</ele>
        <time>2012-08-15T10:30:40Z</time>
      </trkpt>
      <trkpt lat="45.05243" lon="6.2279">
        <ele>2458</ele>
        <time>2012-08-15T10:30:47Z</time>
      </trkpt>
      <trkpt lat="45.05241" lon="6.22769">
        <ele>2458</ele>
        <time>2012-08-15T10:30:54Z</time>
      </trkpt>
      <trkpt lat="45.05234" lon="6.22751">
        <ele>2457</ele>
        <time>2012-08-15T10:31:00Z</time>
      </trkpt>
      <trkpt lat="45.05225" lon="6.22715">
        <ele>2453</ele>
        <time>2012-08-15T10:31:09Z</time>
      </trkpt>
      <trkpt lat="45.05223" lon="6.22707">
        <ele>2453</ele>
        <time>2012-08-15T10:31:11Z</time>
      </trkpt>
      <trkpt lat="45.05215" lon="6.22657">
        <ele>2448</ele>
        <time>2012-08-15T10:31:23Z</time>
      </trkpt>
      <trkpt lat="45.05211" lon="6.22639">
        <ele>2447</ele>
        <time>2012-08-15T10:31:27Z</time>
      </trkpt>
      <trkpt lat="45.05202" lon="6.22616">
        <ele>2446</ele>
        <time>2012-08-15T10:31:34Z</time>
      </trkpt>
      <trkpt lat="45.05189" lon="6.22615">
        <ele>2446</ele>
        <time>2012-08-15T10:31:43Z</time>
      </trkpt>
      <trkpt lat="45.05187" lon="6.22616">
        <ele>2446</ele>
        <time>2012-08-15T10:32:24Z</time>
      </trkpt>
      <trkpt lat="45.05169" lon="6.22602">
        <ele>2445</ele>
        <time>2012-08-15T10:32:35Z</time>
      </trkpt>
      <trkpt lat="45.05158" lon="6.22605">
        <ele>2444</ele>
        <time>2012-08-15T10:32:44Z</time>
      </trkpt>
      <trkpt lat="45.05159" lon="6.22606">
        <ele>2444</ele>
        <time>2012-08-15T10:35:14Z</time>
      </trkpt>
      <trkpt lat="45.05172" lon="6.2261">
        <ele>2446</ele>
        <time>2012-08-15T10:35:22Z</time>
      </trkpt>
      <trkpt lat="45.05171" lon="6.22623">
        <ele>2446</ele>
        <time>2012-08-15T10:35:26Z</time>
      </trkpt>
      <trkpt lat="45.05159" lon="6.22633">
        <ele>2445</ele>
        <time>2012-08-15T10:35:31Z</time>
      </trkpt>
      <trkpt lat="45.05123" lon="6.22641">
        <ele>2445</ele>
        <time>2012-08-15T10:35:42Z</time>
      </trkpt>
      <trkpt lat="45.05105" lon="6.22636">
        <ele>2444</ele>
        <time>2012-08-15T10:35:47Z</time>
      </trkpt>
      <trkpt lat="45.05069" lon="6.22656">
        <ele>2443</ele>
        <time>2012-08-15T10:36:01Z</time>
      </trkpt>
      <trkpt lat="45.05053" lon="6.22663">
        <ele>2442</ele>
        <time>2012-08-15T10:36:05Z</time>
      </trkpt>
      <trkpt lat="45.05002" lon="6.22692">
        <ele>2442</ele>
        <time>2012-08-15T10:36:16Z</time>
      </trkpt>
      <trkpt lat="45.04996" lon="6.22697">
        <ele>2440</ele>
        <time>2012-08-15T10:36:18Z</time>
      </trkpt>
      <trkpt lat="45.0498" lon="6.22705">
        <ele>2440</ele>
        <time>2012-08-15T10:36:22Z</time>
      </trkpt>
      <trkpt lat="45.04956" lon="6.22701">
        <ele>2439</ele>
        <time>2012-08-15T10:36:27Z</time>
      </trkpt>
      <trkpt lat="45.04946" lon="6.22703">
        <ele>2439</ele>
        <time>2012-08-15T10:36:30Z</time>
      </trkpt>
      <trkpt lat="45.04934" lon="6.22701">
        <ele>2439</ele>
        <time>2012-08-15T10:36:33Z</time>
      </trkpt>
      <trkpt lat="45.04927" lon="6.22701">
        <ele>2439</ele>
        <time>2012-08-15T10:36:35Z</time>
      </trkpt>
      <trkpt lat="45.04917" lon="6.22693">
        <ele>2438</ele>
        <time>2012-08-15T10:36:43Z</time>
      </trkpt>
      <trkpt lat="45.04914" lon="6.22694">
        <ele>2438</ele>
        <time>2012-08-15T10:36:46Z</time>
      </trkpt>
      <trkpt lat="45.04911" lon="6.22696">
        <ele>2438</ele>
        <time>2012-08-15T10:36:50Z</time>
      </trkpt>
      <trkpt lat="45.04907" lon="6.22697">
        <ele>2438</ele>
        <time>2012-08-15T10:37:09Z</time>
      </trkpt>
      <trkpt lat="45.04908" lon="6.22699">
        <ele>2437</ele>
        <time>2012-08-15T10:37:30Z</time>
      </trkpt>
      <trkpt lat="45.04919" lon="6.22697">
        <ele>2439</ele>
        <time>2012-08-15T10:37:42Z</time>
      </trkpt>
      <trkpt lat="45.04926" lon="6.22696">
        <ele>2439</ele>
        <time>2012-08-15T10:38:04Z</time>
      </trkpt>
      <trkpt lat="45.04925" lon="6.22693">
        <ele>2439</ele>
        <time>2012-08-15T11:37:52Z</time>
      </trkpt>
      <trkpt lat="45.04922" lon="6.22669">
        <ele>2441</ele>
        <time>2012-08-15T11:38:09Z</time>
      </trkpt>
      <trkpt lat="45.04922" lon="6.22657">
        <ele>2442</ele>
        <time>2012-08-15T11:38:21Z</time>
      </trkpt>
      <trkpt lat="45.04916" lon="6.22652">
        <ele>2441</ele>
        <time>2012-08-15T11:38:35Z</time>
      </trkpt>
      <trkpt lat="45.04916" lon="6.22655">
        <ele>2441</ele>
        <time>2012-08-15T11:38:50Z</time>
      </trkpt>
      <trkpt lat="45.04916" lon="6.22655">
        <ele>2441</ele>
        <time>2012-08-15T11:39:13Z</time>
      </trkpt>
      <trkpt lat="45.04915" lon="6.22655">
        <ele>2441</ele>
        <time>2012-08-15T11:39:17Z</time>
      </trkpt>
      <trkpt lat="45.04917" lon="6.22661">
        <ele>2441</ele>
        <time>2012-08-15T11:39:21Z</time>
      </trkpt>
      <trkpt lat="45.04917" lon="6.2266">
        <ele>2441</ele>
        <time>2012-08-15T11:39:22Z</time>
      </trkpt>
      <trkpt lat="45.04916" lon="6.2266">
        <ele>2441</ele>
        <time>2012-08-15T11:39:24Z</time>
      </trkpt>
      <trkpt lat="45.04917" lon="6.2266">
        <ele>2441</ele>
        <time>2012-08-15T11:39:25Z</time>
      </trkpt>
      <trkpt lat="45.04917" lon="6.2266">
        <ele>2441</ele>
        <time>2012-08-15T11:39:27Z</time>
      </trkpt>
      <trkpt lat="45.04917" lon="6.2266">
        <ele>2441</ele>
        <time>2012-08-15T11:39:29Z</time>
      </trkpt>
      <trkpt lat="45.04916" lon="6.22658">
        <ele>2441</ele>
        <time>2012-08-15T11:39:31Z</time>
      </trkpt>
      <trkpt lat="45.04916" lon="6.22658">
        <ele>2441</ele>
        <time>2012-08-15T11:39:33Z</time>
      </trkpt>
      <trkpt lat="45.04915" lon="6.22658">
        <ele>2441</ele>
        <time>2012-08-15T11:39:35Z</time>
      </trkpt>
      <trkpt lat="45.04915" lon="6.22657">
        <ele>2441</ele>
        <time>2012-08-15T11:39:37Z</time>
      </trkpt>
      <trkpt lat="45.04915" lon="6.22657">
        <ele>2441</ele>
        <time>2012-08-15T11:39:39Z</time>
      </trkpt>
      <trkpt lat="45.04915" lon="6.22656">
        <ele>2441</ele>
        <time>2012-08-15T11:39:42Z</time>
      </trkpt>
      <trkpt lat="45.04915" lon="6.22657">
        <ele>2441</ele>
        <time>2012-08-15T11:39:45Z</time>
      </trkpt>
      <trkpt lat="45.04915" lon="6.22657">
        <ele>2441</ele>
        <time>2012-08-15T11:39:48Z</time>
      </trkpt>
      <trkpt lat="45.04915" lon="6.22657">
        <ele>2441</ele>
        <time>2012-08-15T11:39:51Z</time>
      </trkpt>
      <trkpt lat="45.04915" lon="6.22657">
        <ele>2441</ele>
        <time>2012-08-15T11:39:54Z</time>
      </trkpt>
      <trkpt lat="45.04915" lon="6.22657">
        <ele>2441</ele>
        <time>2012-08-15T11:39:58Z</time>
      </trkpt>
      <trkpt lat="45.04915" lon="6.22657">
        <ele>2441</ele>
        <time>2012-08-15T11:40:02Z</time>
      </trkpt>
      <trkpt lat="45.04916" lon="6.22658">
        <ele>2441</ele>
        <time>2012-08-15T11:40:07Z</time>
      </trkpt>
      <trkpt lat="45.04916" lon="6.2266">
        <ele>2441</ele>
        <time>2012-08-15T11:40:15Z</time>
      </trkpt>
      <trkpt lat="45.04916" lon="6.22655">
        <ele>2441</ele>
        <time>2012-08-15T11:40:19Z</time>
      </trkpt>
      <trkpt lat="45.04916" lon="6.22655">
        <ele>2441</ele>
        <time>2012-08-15T11:40:21Z</time>
      </trkpt>
      <trkpt lat="45.04915" lon="6.22656">
        <ele>2441</ele>
        <time>2012-08-15T11:40:31Z</time>
      </trkpt>
      <trkpt lat="45.04915" lon="6.22656">
        <ele>2441</ele>
        <time>2012-08-15T11:40:46Z</time>
      </trkpt>
      <trkpt lat="45.04915" lon="6.22656">
        <ele>2441</ele>
        <time>2012-08-15T11:41:08Z</time>
      </trkpt>
      <trkpt lat="45.04917" lon="6.2266">
        <ele>2441</ele>
        <time>2012-08-15T11:42:04Z</time>
      </trkpt>
      <trkpt lat="45.04918" lon="6.22662">
        <ele>2441</ele>
        <time>2012-08-15T11:42:20Z</time>
      </trkpt>
      <trkpt lat="45.04919" lon="6.22666">
        <ele>2441</ele>
        <time>2012-08-15T11:42:36Z</time>
      </trkpt>
      <trkpt lat="45.04918" lon="6.22682">
        <ele>2440</ele>
        <time>2012-08-15T11:42:43Z</time>
      </trkpt>
      <trkpt lat="45.04919" lon="6.22686">
        <ele>2440</ele>
        <time>2012-08-15T11:42:44Z</time>
      </trkpt>
      <trkpt lat="45.04924" lon="6.22694">
        <ele>2439</ele>
        <time>2012-08-15T11:42:46Z</time>
      </trkpt>
      <trkpt lat="45.04928" lon="6.22697">
        <ele>2439</ele>
        <time>2012-08-15T11:42:48Z</time>
      </trkpt>
      <trkpt lat="45.04939" lon="6.22692">
        <ele>2439</ele>
        <time>2012-08-15T11:42:54Z</time>
      </trkpt>
      <trkpt lat="45.0494" lon="6.22679">
        <ele>2440</ele>
        <time>2012-08-15T11:42:57Z</time>
      </trkpt>
      <trkpt lat="45.04929" lon="6.2268">
        <ele>2440</ele>
        <time>2012-08-15T11:43:02Z</time>
      </trkpt>
      <trkpt lat="45.04928" lon="6.2268">
        <ele>2440</ele>
        <time>2012-08-15T11:43:30Z</time>
      </trkpt>
      <trkpt lat="45.04928" lon="6.2268">
        <ele>2440</ele>
        <time>2012-08-15T11:43:45Z</time>
      </trkpt>
      <trkpt lat="45.04924" lon="6.22689">
        <ele>2439</ele>
        <time>2012-08-15T11:43:50Z</time>
      </trkpt>
      <trkpt lat="45.04934" lon="6.22672">
        <ele>2440</ele>
        <time>2012-08-15T11:43:58Z</time>
      </trkpt>
      <trkpt lat="45.04938" lon="6.22673">
        <ele>2440</ele>
        <time>2012-08-15T11:44:00Z</time>
      </trkpt>
      <trkpt lat="45.0493" lon="6.22683">
        <ele>2440</ele>
        <time>2012-08-15T11:44:05Z</time>
      </trkpt>
      <trkpt lat="45.04925" lon="6.22694">
        <ele>2439</ele>
        <time>2012-08-15T11:44:08Z</time>
      </trkpt>
      <trkpt lat="45.04936" lon="6.22696">
        <ele>2439</ele>
        <time>2012-08-15T11:44:15Z</time>
      </trkpt>
      <trkpt lat="45.04938" lon="6.22692">
        <ele>2439</ele>
        <time>2012-08-15T11:44:16Z</time>
      </trkpt>
      <trkpt lat="45.04946" lon="6.22683">
        <ele>2440</ele>
        <time>2012-08-15T11:44:21Z</time>
      </trkpt>
      <trkpt lat="45.04943" lon="6.22693">
        <ele>2439</ele>
        <time>2012-08-15T11:44:29Z</time>
      </trkpt>
      <trkpt lat="45.04939" lon="6.22698">
        <ele>2439</ele>
        <time>2012-08-15T11:44:31Z</time>
      </trkpt>
      <trkpt lat="45.04933" lon="6.22709">
        <ele>2438</ele>
        <time>2012-08-15T11:44:35Z</time>
      </trkpt>
      <trkpt lat="45.0492" lon="6.22719">
        <ele>2437</ele>
        <time>2012-08-15T11:44:42Z</time>
      </trkpt>
      <trkpt lat="45.04918" lon="6.2272">
        <ele>2437</ele>
        <time>2012-08-15T11:44:43Z</time>
      </trkpt>
      <trkpt lat="45.04918" lon="6.22721">
        <ele>2437</ele>
        <time>2012-08-15T11:44:54Z</time>
      </trkpt>
      <trkpt lat="45.04922" lon="6.227">
        <ele>2439</ele>
        <time>2012-08-15T11:45:14Z</time>
      </trkpt>
      <trkpt lat="45.04919" lon="6.22698">
        <ele>2439</ele>
        <time>2012-08-15T11:45:27Z</time>
      </trkpt>
      <trkpt lat="45.04921" lon="6.22696">
        <ele>2439</ele>
        <time>2012-08-15T12:01:37Z</time>
      </trkpt>
      <trkpt lat="45.04921" lon="6.22696">
        <ele>2439</ele>
        <time>2012-08-15T12:01:41Z</time>
      </trkpt>
      <trkpt lat="45.04919" lon="6.22696">
        <ele>2439</ele>
        <time>2012-08-15T12:02:00Z</time>
      </trkpt>
      <trkpt lat="45.04919" lon="6.22696">
        <ele>2439</ele>
        <time>2012-08-15T12:02:01Z</time>
      </trkpt>
      <trkpt lat="45.04909" lon="6.22692">
        <ele>2438</ele>
        <time>2012-08-15T12:02:06Z</time>
      </trkpt>
      <trkpt lat="45.04896" lon="6.22689">
        <ele>2438</ele>
        <time>2012-08-15T12:02:16Z</time>
      </trkpt>
      <trkpt lat="45.04896" lon="6.22691">
        <ele>2438</ele>
        <time>2012-08-15T12:02:18Z</time>
      </trkpt>
      <trkpt lat="45.04885" lon="6.22699">
        <ele>2437</ele>
        <time>2012-08-15T12:02:30Z</time>
      </trkpt>
      <trkpt lat="45.04878" lon="6.22705">
        <ele>2437</ele>
        <time>2012-08-15T12:02:41Z</time>
      </trkpt>
      <trkpt lat="45.04873" lon="6.22709">
        <ele>2437</ele>
        <time>2012-08-15T12:02:52Z</time>
      </trkpt>
      <trkpt lat="45.04859" lon="6.22711">
        <ele>2437</ele>
        <time>2012-08-15T12:03:01Z</time>
      </trkpt>
      <trkpt lat="45.04858" lon="6.22711">
        <ele>2437</ele>
        <time>2012-08-15T12:03:46Z</time>
      </trkpt>
      <trkpt lat="45.04856" lon="6.2271">
        <ele>2437</ele>
        <time>2012-08-15T12:03:48Z</time>
      </trkpt>
      <trkpt lat="45.04851" lon="6.22736">
        <ele>2436</ele>
        <time>2012-08-15T12:03:57Z</time>
      </trkpt>
      <trkpt lat="45.04853" lon="6.22765">
        <ele>2433</ele>
        <time>2012-08-15T12:04:06Z</time>
      </trkpt>
      <trkpt lat="45.04854" lon="6.22767">
        <ele>2433</ele>
        <time>2012-08-15T12:04:09Z</time>
      </trkpt>
      <trkpt lat="45.04855" lon="6.22785">
        <ele>2432</ele>
        <time>2012-08-15T12:04:23Z</time>
      </trkpt>
      <trkpt lat="45.04863" lon="6.22803">
        <ele>2432</ele>
        <time>2012-08-15T12:04:40Z</time>
      </trkpt>
      <trkpt lat="45.04873" lon="6.2285">
        <ele>2428</ele>
        <time>2012-08-15T12:04:51Z</time>
      </trkpt>
      <trkpt lat="45.04888" lon="6.22886">
        <ele>2427</ele>
        <time>2012-08-15T12:05:00Z</time>
      </trkpt>
      <trkpt lat="45.04893" lon="6.22901">
        <ele>2426</ele>
        <time>2012-08-15T12:05:03Z</time>
      </trkpt>
      <trkpt lat="45.04885" lon="6.22918">
        <ele>2425</ele>
        <time>2012-08-15T12:05:09Z</time>
      </trkpt>
      <trkpt lat="45.0487" lon="6.22936">
        <ele>2425</ele>
        <time>2012-08-15T12:05:17Z</time>
      </trkpt>
      <trkpt lat="45.04859" lon="6.22938">
        <ele>2425</ele>
        <time>2012-08-15T12:05:25Z</time>
      </trkpt>
      <trkpt lat="45.04858" lon="6.22938">
        <ele>2425</ele>
        <time>2012-08-15T12:06:29Z</time>
      </trkpt>
      <trkpt lat="45.04836" lon="6.2296">
        <ele>2424</ele>
        <time>2012-08-15T12:06:38Z</time>
      </trkpt>
      <trkpt lat="45.04817" lon="6.22963">
        <ele>2415</ele>
        <time>2012-08-15T12:06:44Z</time>
      </trkpt>
      <trkpt lat="45.04795" lon="6.22992">
        <ele>2411</ele>
        <time>2012-08-15T12:06:55Z</time>
      </trkpt>
      <trkpt lat="45.0478" lon="6.23006">
        <ele>2403</ele>
        <time>2012-08-15T12:07:06Z</time>
      </trkpt>
      <trkpt lat="45.04776" lon="6.23009">
        <ele>2402</ele>
        <time>2012-08-15T12:07:42Z</time>
      </trkpt>
      <trkpt lat="45.04762" lon="6.2301">
        <ele>2399</ele>
        <time>2012-08-15T12:09:28Z</time>
      </trkpt>
      <trkpt lat="45.04751" lon="6.23019">
        <ele>2399</ele>
        <time>2012-08-15T12:09:31Z</time>
      </trkpt>
      <trkpt lat="45.04747" lon="6.23021">
        <ele>2386</ele>
        <time>2012-08-15T12:09:32Z</time>
      </trkpt>
      <trkpt lat="45.04737" lon="6.23049">
        <ele>2384</ele>
        <time>2012-08-15T12:09:37Z</time>
      </trkpt>
      <trkpt lat="45.04736" lon="6.23057">
        <ele>2384</ele>
        <time>2012-08-15T12:09:39Z</time>
      </trkpt>
      <trkpt lat="45.04731" lon="6.23066">
        <ele>2384</ele>
        <time>2012-08-15T12:09:43Z</time>
      </trkpt>
      <trkpt lat="45.04731" lon="6.23071">
        <ele>2384</ele>
        <time>2012-08-15T12:09:45Z</time>
      </trkpt>
      <trkpt lat="45.04731" lon="6.23077">
        <ele>2384</ele>
        <time>2012-08-15T12:09:47Z</time>
      </trkpt>
      <trkpt lat="45.04734" lon="6.23089">
        <ele>2388</ele>
        <time>2012-08-15T12:09:52Z</time>
      </trkpt>
      <trkpt lat="45.04742" lon="6.2311">
        <ele>2389</ele>
        <time>2012-08-15T12:09:59Z</time>
      </trkpt>
      <trkpt lat="45.04744" lon="6.23119">
        <ele>2389</ele>
        <time>2012-08-15T12:10:02Z</time>
      </trkpt>
      <trkpt lat="45.04748" lon="6.2313">
        <ele>2390</ele>
        <time>2012-08-15T12:10:06Z</time>
      </trkpt>
      <trkpt lat="45.0475" lon="6.23138">
        <ele>2404</ele>
        <time>2012-08-15T12:10:08Z</time>
      </trkpt>
      <trkpt lat="45.04751" lon="6.23142">
        <ele>2404</ele>
        <time>2012-08-15T12:10:09Z</time>
      </trkpt>
      <trkpt lat="45.04748" lon="6.23158">
        <ele>2397</ele>
        <time>2012-08-15T12:10:14Z</time>
      </trkpt>
      <trkpt lat="45.04747" lon="6.23174">
        <ele>2400</ele>
        <time>2012-08-15T12:10:21Z</time>
      </trkpt>
      <trkpt lat="45.04746" lon="6.23172">
        <ele>2400</ele>
        <time>2012-08-15T12:11:35Z</time>
      </trkpt>
      <trkpt lat="45.0474" lon="6.23177">
        <ele>2399</ele>
        <time>2012-08-15T12:11:40Z</time>
      </trkpt>
      <trkpt lat="45.04732" lon="6.23193">
        <ele>2397</ele>
        <time>2012-08-15T12:11:46Z</time>
      </trkpt>
      <trkpt lat="45.04734" lon="6.23213">
        <ele>2397</ele>
        <time>2012-08-15T12:11:51Z</time>
      </trkpt>
      <trkpt lat="45.04737" lon="6.23241">
        <ele>2396</ele>
        <time>2012-08-15T12:11:56Z</time>
      </trkpt>
      <trkpt lat="45.04755" lon="6.23267">
        <ele>2395</ele>
        <time>2012-08-15T12:12:05Z</time>
      </trkpt>
      <trkpt lat="45.04759" lon="6.23266">
        <ele>2395</ele>
        <time>2012-08-15T12:12:12Z</time>
      </trkpt>
      <trkpt lat="45.04761" lon="6.23266">
        <ele>2395</ele>
        <time>2012-08-15T12:12:28Z</time>
      </trkpt>
      <trkpt lat="45.04761" lon="6.23268">
        <ele>2395</ele>
        <time>2012-08-15T12:14:16Z</time>
      </trkpt>
      <trkpt lat="45.04761" lon="6.23273">
        <ele>2395</ele>
        <time>2012-08-15T12:14:18Z</time>
      </trkpt>
      <trkpt lat="45.04763" lon="6.23279">
        <ele>2395</ele>
        <time>2012-08-15T12:14:23Z</time>
      </trkpt>
      <trkpt lat="45.04769" lon="6.23292">
        <ele>2395</ele>
        <time>2012-08-15T12:14:30Z</time>
      </trkpt>
      <trkpt lat="45.04766" lon="6.2331">
        <ele>2394</ele>
        <time>2012-08-15T12:14:34Z</time>
      </trkpt>
      <trkpt lat="45.04765" lon="6.23315">
        <ele>2394</ele>
        <time>2012-08-15T12:14:35Z</time>
      </trkpt>
      <trkpt lat="45.04766" lon="6.23336">
        <ele>2390</ele>
        <time>2012-08-15T12:14:43Z</time>
      </trkpt>
      <trkpt lat="45.04775" lon="6.23338">
        <ele>2389</ele>
        <time>2012-08-15T12:14:47Z</time>
      </trkpt>
      <trkpt lat="45.04792" lon="6.23347">
        <ele>2388</ele>
        <time>2012-08-15T12:14:51Z</time>
      </trkpt>
      <trkpt lat="45.04801" lon="6.23353">
        <ele>2388</ele>
        <time>2012-08-15T12:14:55Z</time>
      </trkpt>
      <trkpt lat="45.04805" lon="6.23361">
        <ele>2388</ele>
        <time>2012-08-15T12:14:58Z</time>
      </trkpt>
      <trkpt lat="45.04807" lon="6.23363">
        <ele>2388</ele>
        <time>2012-08-15T12:14:59Z</time>
      </trkpt>
      <trkpt lat="45.04815" lon="6.2337">
        <ele>2387</ele>
        <time>2012-08-15T12:15:06Z</time>
      </trkpt>
      <trkpt lat="45.04817" lon="6.23374">
        <ele>2387</ele>
        <time>2012-08-15T12:15:19Z</time>
      </trkpt>
      <trkpt lat="45.04821" lon="6.23371">
        <ele>2387</ele>
        <time>2012-08-15T12:15:23Z</time>
      </trkpt>
      <trkpt lat="45.04824" lon="6.2337">
        <ele>2387</ele>
        <time>2012-08-15T12:15:39Z</time>
      </trkpt>
      <trkpt lat="45.04829" lon="6.23376">
        <ele>2387</ele>
        <time>2012-08-15T12:16:12Z</time>
      </trkpt>
      <trkpt lat="45.0484" lon="6.23383">
        <ele>2389</ele>
        <time>2012-08-15T12:16:16Z</time>
      </trkpt>
      <trkpt lat="45.04843" lon="6.23385">
        <ele>2388</ele>
        <time>2012-08-15T12:16:17Z</time>
      </trkpt>
      <trkpt lat="45.04849" lon="6.23395">
        <ele>2388</ele>
        <time>2012-08-15T12:16:22Z</time>
      </trkpt>
      <trkpt lat="45.04859" lon="6.234">
        <ele>2388</ele>
        <time>2012-08-15T12:16:25Z</time>
      </trkpt>
      <trkpt lat="45.0487" lon="6.2343">
        <ele>2384</ele>
        <time>2012-08-15T12:16:32Z</time>
      </trkpt>
      <trkpt lat="45.04873" lon="6.23445">
        <ele>2383</ele>
        <time>2012-08-15T12:16:36Z</time>
      </trkpt>
      <trkpt lat="45.04892" lon="6.23462">
        <ele>2384</ele>
        <time>2012-08-15T12:16:50Z</time>
      </trkpt>
      <trkpt lat="45.04919" lon="6.23481">
        <ele>2387</ele>
        <time>2012-08-15T12:17:10Z</time>
      </trkpt>
      <trkpt lat="45.04941" lon="6.23504">
        <ele>2384</ele>
        <time>2012-08-15T12:17:26Z</time>
      </trkpt>
      <trkpt lat="45.04973" lon="6.23526">
        <ele>2385</ele>
        <time>2012-08-15T12:17:39Z</time>
      </trkpt>
      <trkpt lat="45.05" lon="6.23545">
        <ele>2384</ele>
        <time>2012-08-15T12:17:50Z</time>
      </trkpt>
      <trkpt lat="45.05002" lon="6.23546">
        <ele>2385</ele>
        <time>2012-08-15T12:18:05Z</time>
      </trkpt>
      <trkpt lat="45.05023" lon="6.2356">
        <ele>2384</ele>
        <time>2012-08-15T12:18:12Z</time>
      </trkpt>
      <trkpt lat="45.05034" lon="6.23569">
        <ele>2384</ele>
        <time>2012-08-15T12:18:14Z</time>
      </trkpt>
      <trkpt lat="45.0505" lon="6.23578">
        <ele>2384</ele>
        <time>2012-08-15T12:18:17Z</time>
      </trkpt>
      <trkpt lat="45.05067" lon="6.23591">
        <ele>2380</ele>
        <time>2012-08-15T12:18:20Z</time>
      </trkpt>
      <trkpt lat="45.05082" lon="6.236">
        <ele>2380</ele>
        <time>2012-08-15T12:18:22Z</time>
      </trkpt>
      <trkpt lat="45.05097" lon="6.23607">
        <ele>2379</ele>
        <time>2012-08-15T12:18:24Z</time>
      </trkpt>
      <trkpt lat="45.05115" lon="6.23613">
        <ele>2378</ele>
        <time>2012-08-15T12:18:27Z</time>
      </trkpt>
      <trkpt lat="45.05123" lon="6.23619">
        <ele>2377</ele>
        <time>2012-08-15T12:18:29Z</time>
      </trkpt>
      <trkpt lat="45.05137" lon="6.23623">
        <ele>2377</ele>
        <time>2012-08-15T12:18:33Z</time>
      </trkpt>
      <trkpt lat="45.0516" lon="6.2363">
        <ele>2376</ele>
        <time>2012-08-15T12:18:37Z</time>
      </trkpt>
      <trkpt lat="45.05198" lon="6.23646">
        <ele>2373</ele>
        <time>2012-08-15T12:18:44Z</time>
      </trkpt>
      <trkpt lat="45.05222" lon="6.23646">
        <ele>2372</ele>
        <time>2012-08-15T12:18:48Z</time>
      </trkpt>
      <trkpt lat="45.05243" lon="6.2364">
        <ele>2372</ele>
        <time>2012-08-15T12:18:52Z</time>
      </trkpt>
      <trkpt lat="45.05281" lon="6.23634">
        <ele>2371</ele>
        <time>2012-08-15T12:18:59Z</time>
      </trkpt>
      <trkpt lat="45.05328" lon="6.23631">
        <ele>2371</ele>
        <time>2012-08-15T12:19:11Z</time>
      </trkpt>
      <trkpt lat="45.05353" lon="6.23626">
        <ele>2372</ele>
        <time>2012-08-15T12:19:16Z</time>
      </trkpt>
      <trkpt lat="45.0537" lon="6.23627">
        <ele>2372</ele>
        <time>2012-08-15T12:19:25Z</time>
      </trkpt>
      <trkpt lat="45.0537" lon="6.23626">
        <ele>2372</ele>
        <time>2012-08-15T12:19:28Z</time>
      </trkpt>
      <trkpt lat="45.0537" lon="6.23627">
        <ele>2372</ele>
        <time>2012-08-15T12:20:11Z</time>
      </trkpt>
      <trkpt lat="45.05389" lon="6.23643">
        <ele>2371</ele>
        <time>2012-08-15T12:20:18Z</time>
      </trkpt>
      <trkpt lat="45.05415" lon="6.23656">
        <ele>2369</ele>
        <time>2012-08-15T12:20:23Z</time>
      </trkpt>
      <trkpt lat="45.05443" lon="6.23679">
        <ele>2361</ele>
        <time>2012-08-15T12:20:29Z</time>
      </trkpt>
      <trkpt lat="45.0547" lon="6.2369">
        <ele>2360</ele>
        <time>2012-08-15T12:20:35Z</time>
      </trkpt>
      <trkpt lat="45.0548" lon="6.2369">
        <ele>2361</ele>
        <time>2012-08-15T12:20:37Z</time>
      </trkpt>
      <trkpt lat="45.05503" lon="6.23684">
        <ele>2362</ele>
        <time>2012-08-15T12:20:41Z</time>
      </trkpt>
      <trkpt lat="45.05517" lon="6.23683">
        <ele>2362</ele>
        <time>2012-08-15T12:20:43Z</time>
      </trkpt>
      <trkpt lat="45.05537" lon="6.23686">
        <ele>2361</ele>
        <time>2012-08-15T12:20:46Z</time>
      </trkpt>
      <trkpt lat="45.05552" lon="6.23695">
        <ele>2360</ele>
        <time>2012-08-15T12:20:49Z</time>
      </trkpt>
      <trkpt lat="45.05557" lon="6.23699">
        <ele>2360</ele>
        <time>2012-08-15T12:20:50Z</time>
      </trkpt>
      <trkpt lat="45.05601" lon="6.23741">
        <ele>2357</ele>
        <time>2012-08-15T12:21:02Z</time>
      </trkpt>
      <trkpt lat="45.05638" lon="6.23761">
        <ele>2348</ele>
        <time>2012-08-15T12:21:12Z</time>
      </trkpt>
      <trkpt lat="45.05648" lon="6.23763">
        <ele>2348</ele>
        <time>2012-08-15T12:21:14Z</time>
      </trkpt>
      <trkpt lat="45.05671" lon="6.23749">
        <ele>2357</ele>
        <time>2012-08-15T12:21:20Z</time>
      </trkpt>
      <trkpt lat="45.05685" lon="6.23744">
        <ele>2360</ele>
        <time>2012-08-15T12:21:23Z</time>
      </trkpt>
      <trkpt lat="45.0571" lon="6.23741">
        <ele>2362</ele>
        <time>2012-08-15T12:21:28Z</time>
      </trkpt>
      <trkpt lat="45.05716" lon="6.2374">
        <ele>2362</ele>
        <time>2012-08-15T12:21:29Z</time>
      </trkpt>
      <trkpt lat="45.05731" lon="6.23752">
        <ele>2351</ele>
        <time>2012-08-15T12:21:32Z</time>
      </trkpt>
      <trkpt lat="45.05744" lon="6.23762">
        <ele>2351</ele>
        <time>2012-08-15T12:21:37Z</time>
      </trkpt>
      <trkpt lat="45.05757" lon="6.23788">
        <ele>2348</ele>
        <time>2012-08-15T12:21:43Z</time>
      </trkpt>
      <trkpt lat="45.05767" lon="6.23791">
        <ele>2347</ele>
        <time>2012-08-15T12:21:47Z</time>
      </trkpt>
      <trkpt lat="45.05781" lon="6.23787">
        <ele>2348</ele>
        <time>2012-08-15T12:21:52Z</time>
      </trkpt>
      <trkpt lat="45.05799" lon="6.23792">
        <ele>2347</ele>
        <time>2012-08-15T12:21:58Z</time>
      </trkpt>
      <trkpt lat="45.05811" lon="6.23789">
        <ele>2348</ele>
        <time>2012-08-15T12:22:01Z</time>
      </trkpt>
      <trkpt lat="45.05821" lon="6.23791">
        <ele>2348</ele>
        <time>2012-08-15T12:22:03Z</time>
      </trkpt>
      <trkpt lat="45.05857" lon="6.23804">
        <ele>2352</ele>
        <time>2012-08-15T12:22:14Z</time>
      </trkpt>
      <trkpt lat="45.05892" lon="6.23823">
        <ele>2353</ele>
        <time>2012-08-15T12:22:32Z</time>
      </trkpt>
      <trkpt lat="45.05897" lon="6.23825">
        <ele>2354</ele>
        <time>2012-08-15T12:22:35Z</time>
      </trkpt>
      <trkpt lat="45.05903" lon="6.23826">
        <ele>2354</ele>
        <time>2012-08-15T12:22:52Z</time>
      </trkpt>
      <trkpt lat="45.05903" lon="6.23825">
        <ele>2354</ele>
        <time>2012-08-15T12:23:46Z</time>
      </trkpt>
      <trkpt lat="45.05903" lon="6.23827">
        <ele>2354</ele>
        <time>2012-08-15T12:25:44Z</time>
      </trkpt>
      <trkpt lat="45.05924" lon="6.23844">
        <ele>2356</ele>
        <time>2012-08-15T12:25:59Z</time>
      </trkpt>
      <trkpt lat="45.05936" lon="6.23855">
        <ele>2357</ele>
        <time>2012-08-15T12:26:08Z</time>
      </trkpt>
      <trkpt lat="45.05939" lon="6.23857">
        <ele>2358</ele>
        <time>2012-08-15T12:26:10Z</time>
      </trkpt>
      <trkpt lat="45.05968" lon="6.23861">
        <ele>2360</ele>
        <time>2012-08-15T12:26:28Z</time>
      </trkpt>
      <trkpt lat="45.05998" lon="6.23867">
        <ele>2361</ele>
        <time>2012-08-15T12:26:46Z</time>
      </trkpt>
      <trkpt lat="45.06023" lon="6.23861">
        <ele>2363</ele>
        <time>2012-08-15T12:27:04Z</time>
      </trkpt>
      <trkpt lat="45.06024" lon="6.2386">
        <ele>2363</ele>
        <time>2012-08-15T12:27:21Z</time>
      </trkpt>
      <trkpt lat="45.06025" lon="6.23859">
        <ele>2363</ele>
        <time>2012-08-15T12:30:11Z</time>
      </trkpt>
      <trkpt lat="45.06028" lon="6.23857">
        <ele>2363</ele>
        <time>2012-08-15T12:30:17Z</time>
      </trkpt>
      <trkpt lat="45.06056" lon="6.23841">
        <ele>2362</ele>
        <time>2012-08-15T12:30:33Z</time>
      </trkpt>
      <trkpt lat="45.06068" lon="6.23828">
        <ele>2361</ele>
        <time>2012-08-15T12:30:36Z</time>
      </trkpt>
      <trkpt lat="45.0608" lon="6.23829">
        <ele>2360</ele>
        <time>2012-08-15T12:30:39Z</time>
      </trkpt>
      <trkpt lat="45.06097" lon="6.23817">
        <ele>2357</ele>
        <time>2012-08-15T12:30:43Z</time>
      </trkpt>
      <trkpt lat="45.06124" lon="6.23796">
        <ele>2354</ele>
        <time>2012-08-15T12:30:48Z</time>
      </trkpt>
      <trkpt lat="45.06141" lon="6.23788">
        <ele>2353</ele>
        <time>2012-08-15T12:30:51Z</time>
      </trkpt>
      <trkpt lat="45.06161" lon="6.23767">
        <ele>2349</ele>
        <time>2012-08-15T12:30:55Z</time>
      </trkpt>
      <trkpt lat="45.06181" lon="6.23755">
        <ele>2341</ele>
        <time>2012-08-15T12:31:01Z</time>
      </trkpt>
      <trkpt lat="45.06185" lon="6.23754">
        <ele>2341</ele>
        <time>2012-08-15T12:31:02Z</time>
      </trkpt>
      <trkpt lat="45.06194" lon="6.23744">
        <ele>2339</ele>
        <time>2012-08-15T12:31:05Z</time>
      </trkpt>
      <trkpt lat="45.06196" lon="6.23741">
        <ele>2338</ele>
        <time>2012-08-15T12:31:06Z</time>
      </trkpt>
      <trkpt lat="45.06212" lon="6.23738">
        <ele>2336</ele>
        <time>2012-08-15T12:31:11Z</time>
      </trkpt>
      <trkpt lat="45.06231" lon="6.23718">
        <ele>2335</ele>
        <time>2012-08-15T12:31:17Z</time>
      </trkpt>
      <trkpt lat="45.06239" lon="6.23707">
        <ele>2334</ele>
        <time>2012-08-15T12:31:20Z</time>
      </trkpt>
      <trkpt lat="45.06256" lon="6.23679">
        <ele>2324</ele>
        <time>2012-08-15T12:31:28Z</time>
      </trkpt>
      <trkpt lat="45.06258" lon="6.23674">
        <ele>2324</ele>
        <time>2012-08-15T12:31:29Z</time>
      </trkpt>
      <trkpt lat="45.0626" lon="6.23669">
        <ele>2324</ele>
        <time>2012-08-15T12:31:30Z</time>
      </trkpt>
      <trkpt lat="45.06266" lon="6.23645">
        <ele>2321</ele>
        <time>2012-08-15T12:31:33Z</time>
      </trkpt>
      <trkpt lat="45.06273" lon="6.23628">
        <ele>2319</ele>
        <time>2012-08-15T12:31:35Z</time>
      </trkpt>
      <trkpt lat="45.06276" lon="6.23602">
        <ele>2319</ele>
        <time>2012-08-15T12:31:39Z</time>
      </trkpt>
      <trkpt lat="45.06276" lon="6.23598">
        <ele>2319</ele>
        <time>2012-08-15T12:31:41Z</time>
      </trkpt>
      <trkpt lat="45.06276" lon="6.23597">
        <ele>2319</ele>
        <time>2012-08-15T12:33:03Z</time>
      </trkpt>
      <trkpt lat="45.06286" lon="6.23598">
        <ele>2318</ele>
        <time>2012-08-15T12:33:07Z</time>
      </trkpt>
      <trkpt lat="45.06298" lon="6.23581">
        <ele>2314</ele>
        <time>2012-08-15T12:33:11Z</time>
      </trkpt>
      <trkpt lat="45.06299" lon="6.23549">
        <ele>2314</ele>
        <time>2012-08-15T12:33:15Z</time>
      </trkpt>
      <trkpt lat="45.06294" lon="6.23534">
        <ele>2314</ele>
        <time>2012-08-15T12:33:17Z</time>
      </trkpt>
      <trkpt lat="45.06289" lon="6.23503">
        <ele>2314</ele>
        <time>2012-08-15T12:33:22Z</time>
      </trkpt>
      <trkpt lat="45.06291" lon="6.23468">
        <ele>2311</ele>
        <time>2012-08-15T12:33:28Z</time>
      </trkpt>
      <trkpt lat="45.06283" lon="6.23433">
        <ele>2311</ele>
        <time>2012-08-15T12:33:38Z</time>
      </trkpt>
      <trkpt lat="45.06287" lon="6.23414">
        <ele>2310</ele>
        <time>2012-08-15T12:33:44Z</time>
      </trkpt>
      <trkpt lat="45.0629" lon="6.23402">
        <ele>2309</ele>
        <time>2012-08-15T12:33:47Z</time>
      </trkpt>
      <trkpt lat="45.06298" lon="6.23372">
        <ele>2308</ele>
        <time>2012-08-15T12:33:53Z</time>
      </trkpt>
      <trkpt lat="45.06297" lon="6.23366">
        <ele>2308</ele>
        <time>2012-08-15T12:33:56Z</time>
      </trkpt>
      <trkpt lat="45.06298" lon="6.23367">
        <ele>2308</ele>
        <time>2012-08-15T12:34:40Z</time>
      </trkpt>
      <trkpt lat="45.06299" lon="6.23329">
        <ele>2306</ele>
        <time>2012-08-15T12:34:49Z</time>
      </trkpt>
      <trkpt lat="45.0629" lon="6.23275">
        <ele>2307</ele>
        <time>2012-08-15T12:35:01Z</time>
      </trkpt>
      <trkpt lat="45.06289" lon="6.23247">
        <ele>2305</ele>
        <time>2012-08-15T12:35:08Z</time>
      </trkpt>
      <trkpt lat="45.06294" lon="6.23226">
        <ele>2304</ele>
        <time>2012-08-15T12:35:12Z</time>
      </trkpt>
      <trkpt lat="45.06291" lon="6.23202">
        <ele>2304</ele>
        <time>2012-08-15T12:35:16Z</time>
      </trkpt>
      <trkpt lat="45.06297" lon="6.23177">
        <ele>2303</ele>
        <time>2012-08-15T12:35:21Z</time>
      </trkpt>
      <trkpt lat="45.06305" lon="6.23151">
        <ele>2299</ele>
        <time>2012-08-15T12:35:26Z</time>
      </trkpt>
      <trkpt lat="45.06309" lon="6.23132">
        <ele>2299</ele>
        <time>2012-08-15T12:35:29Z</time>
      </trkpt>
      <trkpt lat="45.06316" lon="6.23098">
        <ele>2297</ele>
        <time>2012-08-15T12:35:38Z</time>
      </trkpt>
      <trkpt lat="45.06324" lon="6.23075">
        <ele>2292</ele>
        <time>2012-08-15T12:35:42Z</time>
      </trkpt>
      <trkpt lat="45.06326" lon="6.23063">
        <ele>2293</ele>
        <time>2012-08-15T12:35:44Z</time>
      </trkpt>
      <trkpt lat="45.06328" lon="6.23041">
        <ele>2293</ele>
        <time>2012-08-15T12:35:49Z</time>
      </trkpt>
      <trkpt lat="45.06332" lon="6.23021">
        <ele>2290</ele>
        <time>2012-08-15T12:35:52Z</time>
      </trkpt>
      <trkpt lat="45.06332" lon="6.23009">
        <ele>2286</ele>
        <time>2012-08-15T12:35:54Z</time>
      </trkpt>
      <trkpt lat="45.06331" lon="6.22992">
        <ele>2284</ele>
        <time>2012-08-15T12:35:58Z</time>
      </trkpt>
      <trkpt lat="45.06329" lon="6.22982">
        <ele>2286</ele>
        <time>2012-08-15T12:36:00Z</time>
      </trkpt>
      <trkpt lat="45.06325" lon="6.22948">
        <ele>2286</ele>
        <time>2012-08-15T12:36:06Z</time>
      </trkpt>
      <trkpt lat="45.06323" lon="6.2293">
        <ele>2283</ele>
        <time>2012-08-15T12:36:08Z</time>
      </trkpt>
      <trkpt lat="45.06323" lon="6.229">
        <ele>2281</ele>
        <time>2012-08-15T12:36:11Z</time>
      </trkpt>
      <trkpt lat="45.06321" lon="6.22874">
        <ele>2281</ele>
        <time>2012-08-15T12:36:14Z</time>
      </trkpt>
      <trkpt lat="45.06322" lon="6.22838">
        <ele>2275</ele>
        <time>2012-08-15T12:36:21Z</time>
      </trkpt>
      <trkpt lat="45.06321" lon="6.22828">
        <ele>2275</ele>
        <time>2012-08-15T12:36:23Z</time>
      </trkpt>
      <trkpt lat="45.06327" lon="6.22815">
        <ele>2276</ele>
        <time>2012-08-15T12:36:27Z</time>
      </trkpt>
      <trkpt lat="45.06333" lon="6.22807">
        <ele>2277</ele>
        <time>2012-08-15T12:36:30Z</time>
      </trkpt>
      <trkpt lat="45.06336" lon="6.22799">
        <ele>2267</ele>
        <time>2012-08-15T12:36:32Z</time>
      </trkpt>
      <trkpt lat="45.06344" lon="6.22774">
        <ele>2267</ele>
        <time>2012-08-15T12:36:36Z</time>
      </trkpt>
      <trkpt lat="45.06355" lon="6.22749">
        <ele>2268</ele>
        <time>2012-08-15T12:36:40Z</time>
      </trkpt>
      <trkpt lat="45.06389" lon="6.22706">
        <ele>2263</ele>
        <time>2012-08-15T12:36:49Z</time>
      </trkpt>
      <trkpt lat="45.06399" lon="6.22674">
        <ele>2260</ele>
        <time>2012-08-15T12:36:53Z</time>
      </trkpt>
      <trkpt lat="45.06404" lon="6.22654">
        <ele>2259</ele>
        <time>2012-08-15T12:36:55Z</time>
      </trkpt>
      <trkpt lat="45.06416" lon="6.22624">
        <ele>2261</ele>
        <time>2012-08-15T12:36:59Z</time>
      </trkpt>
      <trkpt lat="45.0642" lon="6.22608">
        <ele>2252</ele>
        <time>2012-08-15T12:37:01Z</time>
      </trkpt>
      <trkpt lat="45.06425" lon="6.22572">
        <ele>2253</ele>
        <time>2012-08-15T12:37:05Z</time>
      </trkpt>
      <trkpt lat="45.0643" lon="6.22546">
        <ele>2251</ele>
        <time>2012-08-15T12:37:08Z</time>
      </trkpt>
      <trkpt lat="45.06445" lon="6.22499">
        <ele>2248</ele>
        <time>2012-08-15T12:37:13Z</time>
      </trkpt>
      <trkpt lat="45.06455" lon="6.22469">
        <ele>2246</ele>
        <time>2012-08-15T12:37:16Z</time>
      </trkpt>
      <trkpt lat="45.06464" lon="6.22421">
        <ele>2243</ele>
        <time>2012-08-15T12:37:21Z</time>
      </trkpt>
      <trkpt lat="45.06465" lon="6.2241">
        <ele>2238</ele>
        <time>2012-08-15T12:37:22Z</time>
      </trkpt>
      <trkpt lat="45.06471" lon="6.2236">
        <ele>2236</ele>
        <time>2012-08-15T12:37:26Z</time>
      </trkpt>
      <trkpt lat="45.06474" lon="6.22348">
        <ele>2235</ele>
        <time>2012-08-15T12:37:27Z</time>
      </trkpt>
      <trkpt lat="45.06495" lon="6.22317">
        <ele>2228</ele>
        <time>2012-08-15T12:37:32Z</time>
      </trkpt>
      <trkpt lat="45.06501" lon="6.22304">
        <ele>2220</ele>
        <time>2012-08-15T12:37:34Z</time>
      </trkpt>
      <trkpt lat="45.06507" lon="6.22266">
        <ele>2219</ele>
        <time>2012-08-15T12:37:39Z</time>
      </trkpt>
      <trkpt lat="45.06511" lon="6.22242">
        <ele>2216</ele>
        <time>2012-08-15T12:37:42Z</time>
      </trkpt>
      <trkpt lat="45.06512" lon="6.22201">
        <ele>2211</ele>
        <time>2012-08-15T12:37:47Z</time>
      </trkpt>
      <trkpt lat="45.06514" lon="6.22168">
        <ele>2210</ele>
        <time>2012-08-15T12:37:50Z</time>
      </trkpt>
      <trkpt lat="45.06515" lon="6.22155">
        <ele>2206</ele>
        <time>2012-08-15T12:37:51Z</time>
      </trkpt>
      <trkpt lat="45.06519" lon="6.22123">
        <ele>2203</ele>
        <time>2012-08-15T12:37:54Z</time>
      </trkpt>
      <trkpt lat="45.06532" lon="6.22092">
        <ele>2201</ele>
        <time>2012-08-15T12:37:58Z</time>
      </trkpt>
      <trkpt lat="45.06537" lon="6.22084">
        <ele>2201</ele>
        <time>2012-08-15T12:37:59Z</time>
      </trkpt>
      <trkpt lat="45.06547" lon="6.22068">
        <ele>2196</ele>
        <time>2012-08-15T12:38:01Z</time>
      </trkpt>
      <trkpt lat="45.06555" lon="6.22055">
        <ele>2196</ele>
        <time>2012-08-15T12:38:03Z</time>
      </trkpt>
      <trkpt lat="45.06558" lon="6.22035">
        <ele>2196</ele>
        <time>2012-08-15T12:38:10Z</time>
      </trkpt>
      <trkpt lat="45.06557" lon="6.22035">
        <ele>2196</ele>
        <time>2012-08-15T12:38:40Z</time>
      </trkpt>
      <trkpt lat="45.06557" lon="6.22034">
        <ele>2196</ele>
        <time>2012-08-15T12:39:04Z</time>
      </trkpt>
      <trkpt lat="45.06557" lon="6.22034">
        <ele>2196</ele>
        <time>2012-08-15T12:41:51Z</time>
      </trkpt>
      <trkpt lat="45.06557" lon="6.22034">
        <ele>2196</ele>
        <time>2012-08-15T12:41:56Z</time>
      </trkpt>
      <trkpt lat="45.06573" lon="6.22025">
        <ele>2195</ele>
        <time>2012-08-15T12:42:05Z</time>
      </trkpt>
      <trkpt lat="45.06578" lon="6.22001">
        <ele>2194</ele>
        <time>2012-08-15T12:42:18Z</time>
      </trkpt>
      <trkpt lat="45.06582" lon="6.21999">
        <ele>2194</ele>
        <time>2012-08-15T12:42:21Z</time>
      </trkpt>
      <trkpt lat="45.06616" lon="6.21991">
        <ele>2196</ele>
        <time>2012-08-15T12:42:34Z</time>
      </trkpt>
      <trkpt lat="45.06619" lon="6.21985">
        <ele>2196</ele>
        <time>2012-08-15T12:42:38Z</time>
      </trkpt>
      <trkpt lat="45.06606" lon="6.21961">
        <ele>2196</ele>
        <time>2012-08-15T12:42:53Z</time>
      </trkpt>
      <trkpt lat="45.0659" lon="6.21935">
        <ele>2196</ele>
        <time>2012-08-15T12:43:08Z</time>
      </trkpt>
      <trkpt lat="45.06595" lon="6.21927">
        <ele>2196</ele>
        <time>2012-08-15T12:43:14Z</time>
      </trkpt>
      <trkpt lat="45.06617" lon="6.21911">
        <ele>2198</ele>
        <time>2012-08-15T12:43:30Z</time>
      </trkpt>
      <trkpt lat="45.06608" lon="6.21863">
        <ele>2200</ele>
        <time>2012-08-15T12:43:50Z</time>
      </trkpt>
      <trkpt lat="45.06594" lon="6.2182">
        <ele>2203</ele>
        <time>2012-08-15T12:44:10Z</time>
      </trkpt>
      <trkpt lat="45.06594" lon="6.21781">
        <ele>2204</ele>
        <time>2012-08-15T12:44:32Z</time>
      </trkpt>
      <trkpt lat="45.06596" lon="6.21772">
        <ele>2204</ele>
        <time>2012-08-15T12:44:37Z</time>
      </trkpt>
      <trkpt lat="45.06612" lon="6.21748">
        <ele>2205</ele>
        <time>2012-08-15T12:44:56Z</time>
      </trkpt>
      <trkpt lat="45.06612" lon="6.21749">
        <ele>2205</ele>
        <time>2012-08-15T12:45:18Z</time>
      </trkpt>
      <trkpt lat="45.06613" lon="6.21749">
        <ele>2205</ele>
        <time>2012-08-15T12:46:20Z</time>
      </trkpt>
      <trkpt lat="45.06618" lon="6.21736">
        <ele>2205</ele>
        <time>2012-08-15T12:46:25Z</time>
      </trkpt>
      <trkpt lat="45.06624" lon="6.21725">
        <ele>2205</ele>
        <time>2012-08-15T12:46:27Z</time>
      </trkpt>
      <trkpt lat="45.06636" lon="6.2171">
        <ele>2205</ele>
        <time>2012-08-15T12:46:30Z</time>
      </trkpt>
      <trkpt lat="45.06648" lon="6.21688">
        <ele>2205</ele>
        <time>2012-08-15T12:46:33Z</time>
      </trkpt>
      <trkpt lat="45.06656" lon="6.21673">
        <ele>2205</ele>
        <time>2012-08-15T12:46:35Z</time>
      </trkpt>
      <trkpt lat="45.0669" lon="6.21624">
        <ele>2206</ele>
        <time>2012-08-15T12:46:46Z</time>
      </trkpt>
      <trkpt lat="45.06709" lon="6.21585">
        <ele>2207</ele>
        <time>2012-08-15T12:46:56Z</time>
      </trkpt>
      <trkpt lat="45.06729" lon="6.21561">
        <ele>2209</ele>
        <time>2012-08-15T12:47:06Z</time>
      </trkpt>
      <trkpt lat="45.06752" lon="6.21529">
        <ele>2209</ele>
        <time>2012-08-15T12:47:23Z</time>
      </trkpt>
      <trkpt lat="45.06767" lon="6.21486">
        <ele>2210</ele>
        <time>2012-08-15T12:47:36Z</time>
      </trkpt>
      <trkpt lat="45.06797" lon="6.21438">
        <ele>2209</ele>
        <time>2012-08-15T12:47:55Z</time>
      </trkpt>
      <trkpt lat="45.06832" lon="6.2139">
        <ele>2212</ele>
        <time>2012-08-15T12:48:12Z</time>
      </trkpt>
      <trkpt lat="45.06854" lon="6.2135">
        <ele>2206</ele>
        <time>2012-08-15T12:48:28Z</time>
      </trkpt>
      <trkpt lat="45.06882" lon="6.21307">
        <ele>2207</ele>
        <time>2012-08-15T12:48:41Z</time>
      </trkpt>
      <trkpt lat="45.06894" lon="6.21261">
        <ele>2206</ele>
        <time>2012-08-15T12:48:51Z</time>
      </trkpt>
      <trkpt lat="45.06909" lon="6.21201">
        <ele>2210</ele>
        <time>2012-08-15T12:49:04Z</time>
      </trkpt>
      <trkpt lat="45.06937" lon="6.21132">
        <ele>2207</ele>
        <time>2012-08-15T12:49:20Z</time>
      </trkpt>
      <trkpt lat="45.06959" lon="6.21096">
        <ele>2208</ele>
        <time>2012-08-15T12:49:29Z</time>
      </trkpt>
      <trkpt lat="45.0697" lon="6.21066">
        <ele>2212</ele>
        <time>2012-08-15T12:49:35Z</time>
      </trkpt>
      <trkpt lat="45.06981" lon="6.21044">
        <ele>2212</ele>
        <time>2012-08-15T12:49:40Z</time>
      </trkpt>
      <trkpt lat="45.0701" lon="6.21004">
        <ele>2212</ele>
        <time>2012-08-15T12:49:54Z</time>
      </trkpt>
      <trkpt lat="45.07016" lon="6.20993">
        <ele>2213</ele>
        <time>2012-08-15T12:49:58Z</time>
      </trkpt>
      <trkpt lat="45.07028" lon="6.20969">
        <ele>2213</ele>
        <time>2012-08-15T12:50:04Z</time>
      </trkpt>
      <trkpt lat="45.07032" lon="6.20948">
        <ele>2213</ele>
        <time>2012-08-15T12:50:10Z</time>
      </trkpt>
      <trkpt lat="45.07043" lon="6.20912">
        <ele>2215</ele>
        <time>2012-08-15T12:50:20Z</time>
      </trkpt>
      <trkpt lat="45.07063" lon="6.20846">
        <ele>2216</ele>
        <time>2012-08-15T12:50:36Z</time>
      </trkpt>
      <trkpt lat="45.07076" lon="6.20794">
        <ele>2218</ele>
        <time>2012-08-15T12:50:49Z</time>
      </trkpt>
      <trkpt lat="45.07081" lon="6.20756">
        <ele>2216</ele>
        <time>2012-08-15T12:51:03Z</time>
      </trkpt>
      <trkpt lat="45.07081" lon="6.20756">
        <ele>2216</ele>
      </trkpt>
      <trkpt lat="45.07118" lon="6.20729">
        <ele>2216</ele>
      </trkpt>
      <trkpt lat="45.07151" lon="6.20711">
        <ele>2216</ele>
      </trkpt>
      <trkpt lat="45.07182" lon="6.20702">
        <ele>2214</ele>
      </trkpt>
      <trkpt lat="45.07212" lon="6.20718">
        <ele>2213</ele>
      </trkpt>
      <trkpt lat="45.07237" lon="6.20743">
        <ele>2210</ele>
      </trkpt>
      <trkpt lat="45.07304" lon="6.2085">
        <ele>2204</ele>
      </trkpt>
      <trkpt lat="45.0738" lon="6.20972">
        <ele>2206</ele>
      </trkpt>
      <trkpt lat="45.07441" lon="6.21053">
        <ele>2209</ele>
      </trkpt>
      <trkpt lat="45.07511" lon="6.21142">
        <ele>2216</ele>
      </trkpt>
      <trkpt lat="45.076" lon="6.213">
        <ele>2218</ele>
      </trkpt>
      <trkpt lat="45.07725" lon="6.21553">
        <ele>2217</ele>
      </trkpt>
      <trkpt lat="45.07814" lon="6.21871">
        <ele>2220</ele>
      </trkpt>
      <trkpt lat="45.07884" lon="6.22137">
        <ele>2216</ele>
      </trkpt>
      <trkpt lat="45.08019" lon="6.22416">
        <ele>2229</ele>
      </trkpt>
      <trkpt lat="45.08146" lon="6.2257">
        <ele>2232</ele>
      </trkpt>
      <trkpt lat="45.08267" lon="6.22667">
        <ele>2238</ele>
      </trkpt>
      <trkpt lat="45.08366" lon="6.22744">
        <ele>2248</ele>
      </trkpt>
      <trkpt lat="45.08491" lon="6.22987">
        <ele>2257</ele>
      </trkpt>
      <trkpt lat="45.08585" lon="6.23188">
        <ele>2264</ele>
      </trkpt>
      <trkpt lat="45.08732" lon="6.23248">
        <ele>2275</ele>
      </trkpt>
      <trkpt lat="45.08914" lon="6.2327">
        <ele>2276</ele>
      </trkpt>
      <trkpt lat="45.09078" lon="6.23308">
        <ele>2278</ele>
      </trkpt>
      <trkpt lat="45.09194" lon="6.23345">
        <ele>2275</ele>
      </trkpt>
      <trkpt lat="45.09297" lon="6.23268">
        <ele>2278</ele>
      </trkpt>
      <trkpt lat="45.09441" lon="6.23145">
        <ele>2284</ele>
      </trkpt>
      <trkpt lat="45.09544" lon="6.23077">
        <ele>2283</ele>
      </trkpt>
      <trkpt lat="45.09629" lon="6.23098">
        <ele>2283</ele>
      </trkpt>
      <trkpt lat="45.0975" lon="6.2309">
        <ele>2292</ele>
      </trkpt>
      <trkpt lat="45.09905" lon="6.23113">
        <ele>2303</ele>
      </trkpt>
      <trkpt lat="45.09997" lon="6.23167">
        <ele>2314</ele>
      </trkpt>
      <trkpt lat="45.10143" lon="6.23145">
        <ele>2333</ele>
      </trkpt>
      <trkpt lat="45.10244" lon="6.23148">
        <ele>2347</ele>
      </trkpt>
      <trkpt lat="45.10244" lon="6.23148">
        <ele>2347</ele>
      </trkpt>
      <trkpt lat="45.10147" lon="6.23165">
        <ele>2335</ele>
      </trkpt>
      <trkpt lat="45.10057" lon="6.23165">
        <ele>2321</ele>
      </trkpt>
      <trkpt lat="45.09872" lon="6.23103">
        <ele>2302</ele>
      </trkpt>
      <trkpt lat="45.0976" lon="6.23079">
        <ele>2289</ele>
      </trkpt>
      <trkpt lat="45.09657" lon="6.23105">
        <ele>2284</ele>
      </trkpt>
      <trkpt lat="45.09601" lon="6.23072">
        <ele>2280</ele>
      </trkpt>
      <trkpt lat="45.09537" lon="6.23079">
        <ele>2283</ele>
      </trkpt>
      <trkpt lat="45.09508" lon="6.23116">
        <ele>2279</ele>
      </trkpt>
      <trkpt lat="45.09435" lon="6.23132">
        <ele>2285</ele>
      </trkpt>
      <trkpt lat="45.09407" lon="6.23186">
        <ele>2282</ele>
      </trkpt>
      <trkpt lat="45.09378" lon="6.23205">
        <ele>2281</ele>
      </trkpt>
      <trkpt lat="45.09355" lon="6.23241">
        <ele>2279</ele>
      </trkpt>
      <trkpt lat="45.09308" lon="6.23246">
        <ele>2284</ele>
      </trkpt>
      <trkpt lat="45.0927" lon="6.23317">
        <ele>2276</ele>
      </trkpt>
      <trkpt lat="45.09216" lon="6.23343">
        <ele>2274</ele>
      </trkpt>
      <trkpt lat="45.09146" lon="6.23343">
        <ele>2278</ele>
      </trkpt>
      <trkpt lat="45.09042" lon="6.23296">
        <ele>2279</ele>
      </trkpt>
      <trkpt lat="45.08946" lon="6.2327">
        <ele>2277</ele>
      </trkpt>
      <trkpt lat="45.08825" lon="6.23262">
        <ele>2275</ele>
      </trkpt>
      <trkpt lat="45.08696" lon="6.23241">
        <ele>2273</ele>
      </trkpt>
      <trkpt lat="45.08581" lon="6.23179">
        <ele>2262</ele>
      </trkpt>
      <trkpt lat="45.08533" lon="6.23072">
        <ele>2267</ele>
      </trkpt>
      <trkpt lat="45.0847" lon="6.22915">
        <ele>2259</ele>
      </trkpt>
      <trkpt lat="45.08403" lon="6.22815">
        <ele>2247</ele>
      </trkpt>
      <trkpt lat="45.08376" lon="6.22737">
        <ele>2250</ele>
      </trkpt>
      <trkpt lat="45.08345" lon="6.22722">
        <ele>2248</ele>
      </trkpt>
      <trkpt lat="45.08306" lon="6.2268">
        <ele>2242</ele>
      </trkpt>
      <trkpt lat="45.08223" lon="6.22622">
        <ele>2237</ele>
      </trkpt>
      <trkpt lat="45.08164" lon="6.22588">
        <ele>2232</ele>
      </trkpt>
      <trkpt lat="45.08115" lon="6.22523">
        <ele>2233</ele>
      </trkpt>
      <trkpt lat="45.08025" lon="6.22436">
        <ele>2228</ele>
      </trkpt>
      <trkpt lat="45.07962" lon="6.2229">
        <ele>2224</ele>
      </trkpt>
      <trkpt lat="45.07886" lon="6.22154">
        <ele>2217</ele>
      </trkpt>
      <trkpt lat="45.07795" lon="6.21789">
        <ele>2223</ele>
      </trkpt>
      <trkpt lat="45.07737" lon="6.21577">
        <ele>2217</ele>
      </trkpt>
      <trkpt lat="45.0767" lon="6.21415">
        <ele>2214</ele>
      </trkpt>
      <trkpt lat="45.07582" lon="6.21282">
        <ele>2213</ele>
      </trkpt>
      <trkpt lat="45.07525" lon="6.21159">
        <ele>2217</ele>
      </trkpt>
      <trkpt lat="45.07557" lon="6.20971">
        <ele>2231</ele>
      </trkpt>
      <trkpt lat="45.07537" lon="6.20913">
        <ele>2239</ele>
      </trkpt>
      <trkpt lat="45.07458" lon="6.20824">
        <ele>2239</ele>
      </trkpt>
      <trkpt lat="45.074" lon="6.20589">
        <ele>2245</ele>
      </trkpt>
      <trkpt lat="45.07354" lon="6.20511">
        <ele>2251</ele>
      </trkpt>
      <trkpt lat="45.07354" lon="6.20511">
        <ele>2251</ele>
      </trkpt>
      <trkpt lat="45.07367" lon="6.20509">
        <ele>2252</ele>
      </trkpt>
      <trkpt lat="45.07366" lon="6.20507">
        <ele>2252</ele>
        <time>2012-08-15T13:00:10Z</time>
      </trkpt>
      <trkpt lat="45.07366" lon="6.20507">
        <ele>2252</ele>
        <time>2012-08-15T13:00:47Z</time>
      </trkpt>
      <trkpt lat="45.07363" lon="6.20502">
        <ele>2252</ele>
        <time>2012-08-15T13:00:50Z</time>
      </trkpt>
      <trkpt lat="45.07358" lon="6.20483">
        <ele>2251</ele>
        <time>2012-08-15T13:00:55Z</time>
      </trkpt>
      <trkpt lat="45.07356" lon="6.20477">
        <ele>2251</ele>
        <time>2012-08-15T13:00:56Z</time>
      </trkpt>
      <trkpt lat="45.07344" lon="6.20421">
        <ele>2244</ele>
        <time>2012-08-15T13:01:06Z</time>
      </trkpt>
      <trkpt lat="45.0734" lon="6.20406">
        <ele>2240</ele>
        <time>2012-08-15T13:01:08Z</time>
      </trkpt>
      <trkpt lat="45.07339" lon="6.20398">
        <ele>2239</ele>
        <time>2012-08-15T13:01:09Z</time>
      </trkpt>
      <trkpt lat="45.07338" lon="6.20389">
        <ele>2239</ele>
        <time>2012-08-15T13:01:10Z</time>
      </trkpt>
      <trkpt lat="45.0734" lon="6.20352">
        <ele>2236</ele>
        <time>2012-08-15T13:01:14Z</time>
      </trkpt>
      <trkpt lat="45.07356" lon="6.2031">
        <ele>2223</ele>
        <time>2012-08-15T13:01:23Z</time>
      </trkpt>
      <trkpt lat="45.07367" lon="6.20297">
        <ele>2221</ele>
        <time>2012-08-15T13:01:27Z</time>
      </trkpt>
      <trkpt lat="45.07383" lon="6.20276">
        <ele>2218</ele>
        <time>2012-08-15T13:01:30Z</time>
      </trkpt>
      <trkpt lat="45.07389" lon="6.20269">
        <ele>2217</ele>
        <time>2012-08-15T13:01:31Z</time>
      </trkpt>
      <trkpt lat="45.074" lon="6.20258">
        <ele>2214</ele>
        <time>2012-08-15T13:01:33Z</time>
      </trkpt>
      <trkpt lat="45.07418" lon="6.20246">
        <ele>2204</ele>
        <time>2012-08-15T13:01:40Z</time>
      </trkpt>
      <trkpt lat="45.07426" lon="6.20247">
        <ele>2199</ele>
        <time>2012-08-15T13:02:09Z</time>
      </trkpt>
      <trkpt lat="45.07435" lon="6.20242">
        <ele>2194</ele>
        <time>2012-08-15T13:02:13Z</time>
      </trkpt>
      <trkpt lat="45.07447" lon="6.20248">
        <ele>2190</ele>
        <time>2012-08-15T13:02:16Z</time>
      </trkpt>
      <trkpt lat="45.07462" lon="6.2025">
        <ele>2187</ele>
        <time>2012-08-15T13:02:19Z</time>
      </trkpt>
      <trkpt lat="45.07476" lon="6.20251">
        <ele>2202</ele>
        <time>2012-08-15T13:02:22Z</time>
      </trkpt>
      <trkpt lat="45.07475" lon="6.20244">
        <ele>2186</ele>
        <time>2012-08-15T13:02:25Z</time>
      </trkpt>
      <trkpt lat="45.07466" lon="6.20232">
        <ele>2185</ele>
        <time>2012-08-15T13:02:29Z</time>
      </trkpt>
      <trkpt lat="45.0747" lon="6.20229">
        <ele>2184</ele>
        <time>2012-08-15T13:02:33Z</time>
      </trkpt>
      <trkpt lat="45.07488" lon="6.20231">
        <ele>2184</ele>
        <time>2012-08-15T13:02:38Z</time>
      </trkpt>
      <trkpt lat="45.075" lon="6.20234">
        <ele>2175</ele>
        <time>2012-08-15T13:02:40Z</time>
      </trkpt>
      <trkpt lat="45.07514" lon="6.2024">
        <ele>2174</ele>
        <time>2012-08-15T13:02:42Z</time>
      </trkpt>
      <trkpt lat="45.0752" lon="6.20243">
        <ele>2172</ele>
        <time>2012-08-15T13:02:43Z</time>
      </trkpt>
      <trkpt lat="45.07533" lon="6.2025">
        <ele>2183</ele>
        <time>2012-08-15T13:02:46Z</time>
      </trkpt>
      <trkpt lat="45.07538" lon="6.20252">
        <ele>2182</ele>
        <time>2012-08-15T13:02:47Z</time>
      </trkpt>
      <trkpt lat="45.07557" lon="6.20264">
        <ele>2177</ele>
        <time>2012-08-15T13:02:51Z</time>
      </trkpt>
      <trkpt lat="45.07569" lon="6.20266">
        <ele>2174</ele>
        <time>2012-08-15T13:02:54Z</time>
      </trkpt>
      <trkpt lat="45.07568" lon="6.20259">
        <ele>2172</ele>
        <time>2012-08-15T13:03:00Z</time>
      </trkpt>
      <trkpt lat="45.07568" lon="6.20259">
        <ele>2172</ele>
        <time>2012-08-15T13:04:41Z</time>
      </trkpt>
      <trkpt lat="45.07562" lon="6.20253">
        <ele>2174</ele>
        <time>2012-08-15T13:05:07Z</time>
      </trkpt>
      <trkpt lat="45.07567" lon="6.20247">
        <ele>2159</ele>
        <time>2012-08-15T13:05:14Z</time>
      </trkpt>
      <trkpt lat="45.07567" lon="6.20245">
        <ele>2159</ele>
        <time>2012-08-15T13:05:15Z</time>
      </trkpt>
      <trkpt lat="45.07566" lon="6.20242">
        <ele>2159</ele>
        <time>2012-08-15T13:05:16Z</time>
      </trkpt>
      <trkpt lat="45.07558" lon="6.20223">
        <ele>2158</ele>
        <time>2012-08-15T13:05:19Z</time>
      </trkpt>
      <trkpt lat="45.07547" lon="6.20203">
        <ele>2157</ele>
        <time>2012-08-15T13:05:22Z</time>
      </trkpt>
      <trkpt lat="45.07543" lon="6.20196">
        <ele>2156</ele>
        <time>2012-08-15T13:05:23Z</time>
      </trkpt>
      <trkpt lat="45.07525" lon="6.20169">
        <ele>2156</ele>
        <time>2012-08-15T13:05:27Z</time>
      </trkpt>
      <trkpt lat="45.0752" lon="6.20161">
        <ele>2142</ele>
        <time>2012-08-15T13:05:28Z</time>
      </trkpt>
      <trkpt lat="45.07508" lon="6.2015">
        <ele>2143</ele>
        <time>2012-08-15T13:05:30Z</time>
      </trkpt>
      <trkpt lat="45.07488" lon="6.20123">
        <ele>2146</ele>
        <time>2012-08-15T13:05:34Z</time>
      </trkpt>
      <trkpt lat="45.07478" lon="6.20107">
        <ele>2143</ele>
        <time>2012-08-15T13:05:37Z</time>
      </trkpt>
      <trkpt lat="45.07489" lon="6.20094">
        <ele>2137</ele>
        <time>2012-08-15T13:05:41Z</time>
      </trkpt>
      <trkpt lat="45.07499" lon="6.20092">
        <ele>2134</ele>
        <time>2012-08-15T13:05:43Z</time>
      </trkpt>
      <trkpt lat="45.0751" lon="6.20095">
        <ele>2129</ele>
        <time>2012-08-15T13:05:45Z</time>
      </trkpt>
      <trkpt lat="45.07515" lon="6.20084">
        <ele>2129</ele>
        <time>2012-08-15T13:05:49Z</time>
      </trkpt>
      <trkpt lat="45.07519" lon="6.20081">
        <ele>2115</ele>
        <time>2012-08-15T13:05:51Z</time>
      </trkpt>
      <trkpt lat="45.07535" lon="6.20085">
        <ele>2127</ele>
        <time>2012-08-15T13:05:55Z</time>
      </trkpt>
      <trkpt lat="45.07546" lon="6.20089">
        <ele>2125</ele>
        <time>2012-08-15T13:05:57Z</time>
      </trkpt>
      <trkpt lat="45.07555" lon="6.20095">
        <ele>2124</ele>
        <time>2012-08-15T13:05:59Z</time>
      </trkpt>
      <trkpt lat="45.0756" lon="6.20094">
        <ele>2122</ele>
        <time>2012-08-15T13:06:01Z</time>
      </trkpt>
      <trkpt lat="45.07573" lon="6.20101">
        <ele>2120</ele>
        <time>2012-08-15T13:06:04Z</time>
      </trkpt>
      <trkpt lat="45.07576" lon="6.20089">
        <ele>2114</ele>
        <time>2012-08-15T13:06:07Z</time>
      </trkpt>
      <trkpt lat="45.07582" lon="6.2008">
        <ele>2106</ele>
        <time>2012-08-15T13:06:12Z</time>
      </trkpt>
      <trkpt lat="45.07585" lon="6.20084">
        <ele>2106</ele>
        <time>2012-08-15T13:06:14Z</time>
      </trkpt>
      <trkpt lat="45.07587" lon="6.20085">
        <ele>2106</ele>
        <time>2012-08-15T13:06:34Z</time>
      </trkpt>
      <trkpt lat="45.07596" lon="6.20098">
        <ele>2102</ele>
        <time>2012-08-15T13:07:45Z</time>
      </trkpt>
      <trkpt lat="45.07605" lon="6.20108">
        <ele>2101</ele>
        <time>2012-08-15T13:07:47Z</time>
      </trkpt>
      <trkpt lat="45.07607" lon="6.20102">
        <ele>2100</ele>
        <time>2012-08-15T13:07:50Z</time>
      </trkpt>
      <trkpt lat="45.07605" lon="6.20095">
        <ele>2100</ele>
        <time>2012-08-15T13:07:51Z</time>
      </trkpt>
      <trkpt lat="45.07613" lon="6.20095">
        <ele>2098</ele>
        <time>2012-08-15T13:07:55Z</time>
      </trkpt>
      <trkpt lat="45.07622" lon="6.20105">
        <ele>2096</ele>
        <time>2012-08-15T13:07:57Z</time>
      </trkpt>
      <trkpt lat="45.07626" lon="6.201">
        <ele>2094</ele>
        <time>2012-08-15T13:08:00Z</time>
      </trkpt>
      <trkpt lat="45.07624" lon="6.20095">
        <ele>2094</ele>
        <time>2012-08-15T13:08:01Z</time>
      </trkpt>
      <trkpt lat="45.07626" lon="6.20084">
        <ele>2093</ele>
        <time>2012-08-15T13:08:05Z</time>
      </trkpt>
      <trkpt lat="45.07629" lon="6.20091">
        <ele>2092</ele>
        <time>2012-08-15T13:08:07Z</time>
      </trkpt>
      <trkpt lat="45.07636" lon="6.20095">
        <ele>2090</ele>
        <time>2012-08-15T13:08:09Z</time>
      </trkpt>
      <trkpt lat="45.07639" lon="6.20088">
        <ele>2088</ele>
        <time>2012-08-15T13:08:12Z</time>
      </trkpt>
      <trkpt lat="45.07636" lon="6.20083">
        <ele>2089</ele>
        <time>2012-08-15T13:08:13Z</time>
      </trkpt>
      <trkpt lat="45.07624" lon="6.20056">
        <ele>2078</ele>
        <time>2012-08-15T13:08:17Z</time>
      </trkpt>
      <trkpt lat="45.07618" lon="6.20034">
        <ele>2076</ele>
        <time>2012-08-15T13:08:20Z</time>
      </trkpt>
      <trkpt lat="45.07616" lon="6.20026">
        <ele>2076</ele>
        <time>2012-08-15T13:08:21Z</time>
      </trkpt>
      <trkpt lat="45.07604" lon="6.20007">
        <ele>2077</ele>
        <time>2012-08-15T13:08:24Z</time>
      </trkpt>
      <trkpt lat="45.07598" lon="6.19983">
        <ele>2064</ele>
        <time>2012-08-15T13:08:27Z</time>
      </trkpt>
      <trkpt lat="45.07595" lon="6.19976">
        <ele>2062</ele>
        <time>2012-08-15T13:08:28Z</time>
      </trkpt>
      <trkpt lat="45.07586" lon="6.19967">
        <ele>2060</ele>
        <time>2012-08-15T13:08:30Z</time>
      </trkpt>
      <trkpt lat="45.07574" lon="6.1995">
        <ele>2067</ele>
        <time>2012-08-15T13:08:33Z</time>
      </trkpt>
      <trkpt lat="45.0757" lon="6.19939">
        <ele>2064</ele>
        <time>2012-08-15T13:08:35Z</time>
      </trkpt>
      <trkpt lat="45.0756" lon="6.19919">
        <ele>2062</ele>
        <time>2012-08-15T13:08:42Z</time>
      </trkpt>
      <trkpt lat="45.07558" lon="6.19917">
        <ele>2063</ele>
        <time>2012-08-15T13:08:43Z</time>
      </trkpt>
      <trkpt lat="45.0755" lon="6.19904">
        <ele>2044</ele>
        <time>2012-08-15T13:08:49Z</time>
      </trkpt>
      <trkpt lat="45.07544" lon="6.19898">
        <ele>2043</ele>
        <time>2012-08-15T13:08:51Z</time>
      </trkpt>
      <trkpt lat="45.07543" lon="6.19889">
        <ele>2042</ele>
        <time>2012-08-15T13:08:53Z</time>
      </trkpt>
      <trkpt lat="45.07545" lon="6.19887">
        <ele>2042</ele>
        <time>2012-08-15T13:08:54Z</time>
      </trkpt>
      <trkpt lat="45.07547" lon="6.19888">
        <ele>2042</ele>
        <time>2012-08-15T13:09:07Z</time>
      </trkpt>
      <trkpt lat="45.07547" lon="6.19887">
        <ele>2042</ele>
        <time>2012-08-15T13:10:31Z</time>
      </trkpt>
      <trkpt lat="45.07547" lon="6.19887">
        <ele>2042</ele>
        <time>2012-08-15T13:10:42Z</time>
      </trkpt>
      <trkpt lat="45.07555" lon="6.19876">
        <ele>2040</ele>
        <time>2012-08-15T13:10:46Z</time>
      </trkpt>
      <trkpt lat="45.07544" lon="6.19864">
        <ele>2038</ele>
        <time>2012-08-15T13:10:50Z</time>
      </trkpt>
      <trkpt lat="45.07539" lon="6.19859">
        <ele>2037</ele>
        <time>2012-08-15T13:10:51Z</time>
      </trkpt>
      <trkpt lat="45.07539" lon="6.19848">
        <ele>2035</ele>
        <time>2012-08-15T13:10:55Z</time>
      </trkpt>
      <trkpt lat="45.07534" lon="6.19832">
        <ele>2015</ele>
        <time>2012-08-15T13:10:59Z</time>
      </trkpt>
      <trkpt lat="45.0754" lon="6.19813">
        <ele>2012</ele>
        <time>2012-08-15T13:11:03Z</time>
      </trkpt>
      <trkpt lat="45.07542" lon="6.19803">
        <ele>2011</ele>
        <time>2012-08-15T13:11:05Z</time>
      </trkpt>
      <trkpt lat="45.07538" lon="6.19798">
        <ele>2010</ele>
        <time>2012-08-15T13:11:06Z</time>
      </trkpt>
      <trkpt lat="45.07534" lon="6.19793">
        <ele>2009</ele>
        <time>2012-08-15T13:11:07Z</time>
      </trkpt>
      <trkpt lat="45.07533" lon="6.19785">
        <ele>2007</ele>
        <time>2012-08-15T13:11:09Z</time>
      </trkpt>
      <trkpt lat="45.07533" lon="6.19776">
        <ele>2006</ele>
        <time>2012-08-15T13:11:13Z</time>
      </trkpt>
      <trkpt lat="45.07524" lon="6.19774">
        <ele>2005</ele>
        <time>2012-08-15T13:11:15Z</time>
      </trkpt>
      <trkpt lat="45.07532" lon="6.19761">
        <ele>2003</ele>
        <time>2012-08-15T13:11:19Z</time>
      </trkpt>
      <trkpt lat="45.07535" lon="6.19758">
        <ele>2003</ele>
        <time>2012-08-15T13:11:20Z</time>
      </trkpt>
      <trkpt lat="45.07531" lon="6.19753">
        <ele>2002</ele>
        <time>2012-08-15T13:11:23Z</time>
      </trkpt>
      <trkpt lat="45.07532" lon="6.19746">
        <ele>1982</ele>
        <time>2012-08-15T13:11:25Z</time>
      </trkpt>
      <trkpt lat="45.07541" lon="6.19742">
        <ele>1981</ele>
        <time>2012-08-15T13:11:27Z</time>
      </trkpt>
      <trkpt lat="45.07555" lon="6.19736">
        <ele>1981</ele>
        <time>2012-08-15T13:11:30Z</time>
      </trkpt>
      <trkpt lat="45.07561" lon="6.19733">
        <ele>1981</ele>
        <time>2012-08-15T13:11:32Z</time>
      </trkpt>
      <trkpt lat="45.0756" lon="6.19729">
        <ele>1981</ele>
        <time>2012-08-15T13:11:35Z</time>
      </trkpt>
      <trkpt lat="45.07557" lon="6.19728">
        <ele>1980</ele>
        <time>2012-08-15T13:11:36Z</time>
      </trkpt>
      <trkpt lat="45.07559" lon="6.19721">
        <ele>1979</ele>
        <time>2012-08-15T13:11:40Z</time>
      </trkpt>
      <trkpt lat="45.07568" lon="6.19723">
        <ele>1980</ele>
        <time>2012-08-15T13:11:42Z</time>
      </trkpt>
      <trkpt lat="45.07585" lon="6.19726">
        <ele>1976</ele>
        <time>2012-08-15T13:11:45Z</time>
      </trkpt>
      <trkpt lat="45.07596" lon="6.19728">
        <ele>1975</ele>
        <time>2012-08-15T13:11:47Z</time>
      </trkpt>
      <trkpt lat="45.07608" lon="6.19732">
        <ele>1974</ele>
        <time>2012-08-15T13:11:49Z</time>
      </trkpt>
      <trkpt lat="45.07618" lon="6.19731">
        <ele>1971</ele>
        <time>2012-08-15T13:11:51Z</time>
      </trkpt>
      <trkpt lat="45.07627" lon="6.19729">
        <ele>1970</ele>
        <time>2012-08-15T13:11:53Z</time>
      </trkpt>
      <trkpt lat="45.07644" lon="6.19735">
        <ele>1968</ele>
        <time>2012-08-15T13:11:57Z</time>
      </trkpt>
      <trkpt lat="45.07658" lon="6.19738">
        <ele>1968</ele>
        <time>2012-08-15T13:12:00Z</time>
      </trkpt>
      <trkpt lat="45.07658" lon="6.19728">
        <ele>1967</ele>
        <time>2012-08-15T13:12:04Z</time>
      </trkpt>
      <trkpt lat="45.0766" lon="6.19717">
        <ele>1965</ele>
        <time>2012-08-15T13:12:07Z</time>
      </trkpt>
      <trkpt lat="45.07656" lon="6.19707">
        <ele>1963</ele>
        <time>2012-08-15T13:12:09Z</time>
      </trkpt>
      <trkpt lat="45.07653" lon="6.19702">
        <ele>1962</ele>
        <time>2012-08-15T13:12:10Z</time>
      </trkpt>
      <trkpt lat="45.07647" lon="6.19688">
        <ele>1959</ele>
        <time>2012-08-15T13:12:12Z</time>
      </trkpt>
      <trkpt lat="45.0764" lon="6.19664">
        <ele>1942</ele>
        <time>2012-08-15T13:12:15Z</time>
      </trkpt>
      <trkpt lat="45.07634" lon="6.19641">
        <ele>1941</ele>
        <time>2012-08-15T13:12:21Z</time>
      </trkpt>
      <trkpt lat="45.07632" lon="6.19636">
        <ele>1940</ele>
        <time>2012-08-15T13:12:22Z</time>
      </trkpt>
      <trkpt lat="45.07629" lon="6.19631">
        <ele>1940</ele>
        <time>2012-08-15T13:12:23Z</time>
      </trkpt>
      <trkpt lat="45.07626" lon="6.19627">
        <ele>1939</ele>
        <time>2012-08-15T13:12:24Z</time>
      </trkpt>
      <trkpt lat="45.07623" lon="6.19603">
        <ele>1936</ele>
        <time>2012-08-15T13:12:29Z</time>
      </trkpt>
      <trkpt lat="45.07621" lon="6.196">
        <ele>1936</ele>
        <time>2012-08-15T13:12:30Z</time>
      </trkpt>
      <trkpt lat="45.07621" lon="6.19588">
        <ele>1935</ele>
        <time>2012-08-15T13:12:35Z</time>
      </trkpt>
      <trkpt lat="45.07623" lon="6.19583">
        <ele>1934</ele>
        <time>2012-08-15T13:12:36Z</time>
      </trkpt>
      <trkpt lat="45.07634" lon="6.19578">
        <ele>1917</ele>
        <time>2012-08-15T13:12:39Z</time>
      </trkpt>
      <trkpt lat="45.07643" lon="6.19557">
        <ele>1915</ele>
        <time>2012-08-15T13:12:44Z</time>
      </trkpt>
      <trkpt lat="45.07651" lon="6.19562">
        <ele>1916</ele>
        <time>2012-08-15T13:12:46Z</time>
      </trkpt>
      <trkpt lat="45.07659" lon="6.19562">
        <ele>1916</ele>
        <time>2012-08-15T13:12:54Z</time>
      </trkpt>
      <trkpt lat="45.07654" lon="6.19564">
        <ele>1916</ele>
        <time>2012-08-15T13:12:58Z</time>
      </trkpt>
      <trkpt lat="45.07649" lon="6.19567">
        <ele>1916</ele>
        <time>2012-08-15T13:13:02Z</time>
      </trkpt>
      <trkpt lat="45.07644" lon="6.19572">
        <ele>1917</ele>
        <time>2012-08-15T13:13:06Z</time>
      </trkpt>
      <trkpt lat="45.07638" lon="6.19577">
        <ele>1917</ele>
        <time>2012-08-15T13:13:10Z</time>
      </trkpt>
      <trkpt lat="45.07626" lon="6.19587">
        <ele>1934</ele>
        <time>2012-08-15T13:13:19Z</time>
      </trkpt>
      <trkpt lat="45.07624" lon="6.19587">
        <ele>1934</ele>
        <time>2012-08-15T13:13:20Z</time>
      </trkpt>
      <trkpt lat="45.07622" lon="6.1959">
        <ele>1935</ele>
        <time>2012-08-15T13:13:23Z</time>
      </trkpt>
      <trkpt lat="45.07619" lon="6.19589">
        <ele>1935</ele>
        <time>2012-08-15T13:13:25Z</time>
      </trkpt>
      <trkpt lat="45.07613" lon="6.19595">
        <ele>1936</ele>
        <time>2012-08-15T13:13:32Z</time>
      </trkpt>
      <trkpt lat="45.07622" lon="6.19605">
        <ele>1936</ele>
        <time>2012-08-15T13:13:43Z</time>
      </trkpt>
      <trkpt lat="45.07622" lon="6.19617">
        <ele>1938</ele>
        <time>2012-08-15T13:13:55Z</time>
      </trkpt>
      <trkpt lat="45.07623" lon="6.19618">
        <ele>1938</ele>
        <time>2012-08-15T13:13:56Z</time>
      </trkpt>
      <trkpt lat="45.07623" lon="6.1962">
        <ele>1938</ele>
        <time>2012-08-15T13:13:57Z</time>
      </trkpt>
      <trkpt lat="45.07631" lon="6.19627">
        <ele>1939</ele>
        <time>2012-08-15T13:14:08Z</time>
      </trkpt>
      <trkpt lat="45.07634" lon="6.19635">
        <ele>1940</ele>
        <time>2012-08-15T13:14:15Z</time>
      </trkpt>
      <trkpt lat="45.07635" lon="6.19634">
        <ele>1939</ele>
        <time>2012-08-15T13:14:27Z</time>
      </trkpt>
      <trkpt lat="45.07631" lon="6.19629">
        <ele>1939</ele>
        <time>2012-08-15T13:14:30Z</time>
      </trkpt>
      <trkpt lat="45.07624" lon="6.19621">
        <ele>1938</ele>
        <time>2012-08-15T13:14:32Z</time>
      </trkpt>
      <trkpt lat="45.07622" lon="6.19599">
        <ele>1936</ele>
        <time>2012-08-15T13:14:37Z</time>
      </trkpt>
      <trkpt lat="45.07618" lon="6.19597">
        <ele>1936</ele>
        <time>2012-08-15T13:14:38Z</time>
      </trkpt>
      <trkpt lat="45.07617" lon="6.1959">
        <ele>1935</ele>
        <time>2012-08-15T13:14:41Z</time>
      </trkpt>
      <trkpt lat="45.07636" lon="6.19577">
        <ele>1917</ele>
        <time>2012-08-15T13:14:46Z</time>
      </trkpt>
      <trkpt lat="45.07638" lon="6.19572">
        <ele>1917</ele>
        <time>2012-08-15T13:14:47Z</time>
      </trkpt>
      <trkpt lat="45.07651" lon="6.19558">
        <ele>1915</ele>
        <time>2012-08-15T13:14:52Z</time>
      </trkpt>
      <trkpt lat="45.07663" lon="6.19551">
        <ele>1914</ele>
        <time>2012-08-15T13:14:57Z</time>
      </trkpt>
      <trkpt lat="45.07664" lon="6.19551">
        <ele>1914</ele>
        <time>2012-08-15T13:15:15Z</time>
      </trkpt>
      <trkpt lat="45.07664" lon="6.1955">
        <ele>1914</ele>
        <time>2012-08-15T13:16:32Z</time>
      </trkpt>
      <trkpt lat="45.07677" lon="6.19538">
        <ele>1903</ele>
        <time>2012-08-15T13:16:39Z</time>
      </trkpt>
      <trkpt lat="45.07778" lon="6.19496">
        <ele>1861</ele>
        <time>2012-08-15T13:19:52Z</time>
      </trkpt>
      <trkpt lat="45.07779" lon="6.19498">
        <ele>1860</ele>
        <time>2012-08-15T13:19:56Z</time>
      </trkpt>
      <trkpt lat="45.07772" lon="6.19483">
        <ele>1862</ele>
        <time>2012-08-15T13:19:58Z</time>
      </trkpt>
      <trkpt lat="45.07774" lon="6.19487">
        <ele>1862</ele>
        <time>2012-08-15T13:20:00Z</time>
      </trkpt>
      <trkpt lat="45.07772" lon="6.19486">
        <ele>1863</ele>
        <time>2012-08-15T13:20:01Z</time>
      </trkpt>
      <trkpt lat="45.07775" lon="6.19488">
        <ele>1862</ele>
        <time>2012-08-15T13:20:11Z</time>
      </trkpt>
      <trkpt lat="45.07778" lon="6.19469">
        <ele>1858</ele>
        <time>2012-08-15T13:20:17Z</time>
      </trkpt>
      <trkpt lat="45.07783" lon="6.19483">
        <ele>1857</ele>
        <time>2012-08-15T13:20:22Z</time>
      </trkpt>
      <trkpt lat="45.07787" lon="6.19499">
        <ele>1856</ele>
        <time>2012-08-15T13:20:25Z</time>
      </trkpt>
      <trkpt lat="45.07787" lon="6.19504">
        <ele>1860</ele>
        <time>2012-08-15T13:20:26Z</time>
      </trkpt>
      <trkpt lat="45.07788" lon="6.1951">
        <ele>1860</ele>
        <time>2012-08-15T13:20:27Z</time>
      </trkpt>
      <trkpt lat="45.07785" lon="6.19523">
        <ele>1861</ele>
        <time>2012-08-15T13:20:30Z</time>
      </trkpt>
      <trkpt lat="45.07792" lon="6.19523">
        <ele>1858</ele>
        <time>2012-08-15T13:20:33Z</time>
      </trkpt>
      <trkpt lat="45.07796" lon="6.19512">
        <ele>1855</ele>
        <time>2012-08-15T13:20:35Z</time>
      </trkpt>
      <trkpt lat="45.07803" lon="6.19512">
        <ele>1852</ele>
        <time>2012-08-15T13:20:39Z</time>
      </trkpt>
      <trkpt lat="45.07805" lon="6.19534">
        <ele>1854</ele>
        <time>2012-08-15T13:20:42Z</time>
      </trkpt>
      <trkpt lat="45.07819" lon="6.19557">
        <ele>1850</ele>
        <time>2012-08-15T13:20:46Z</time>
      </trkpt>
      <trkpt lat="45.07832" lon="6.19585">
        <ele>1836</ele>
        <time>2012-08-15T13:20:52Z</time>
      </trkpt>
      <trkpt lat="45.0784" lon="6.19584">
        <ele>1829</ele>
        <time>2012-08-15T13:21:00Z</time>
      </trkpt>
      <trkpt lat="45.07841" lon="6.19584">
        <ele>1828</ele>
        <time>2012-08-15T13:21:05Z</time>
      </trkpt>
      <trkpt lat="45.07841" lon="6.19585">
        <ele>1828</ele>
        <time>2012-08-15T13:21:06Z</time>
      </trkpt>
      <trkpt lat="45.07855" lon="6.19615">
        <ele>1820</ele>
        <time>2012-08-15T13:21:13Z</time>
      </trkpt>
      <trkpt lat="45.07865" lon="6.19626">
        <ele>1819</ele>
        <time>2012-08-15T13:21:15Z</time>
      </trkpt>
      <trkpt lat="45.07882" lon="6.19648">
        <ele>1815</ele>
        <time>2012-08-15T13:21:22Z</time>
      </trkpt>
      <trkpt lat="45.07885" lon="6.19633">
        <ele>1813</ele>
        <time>2012-08-15T13:21:27Z</time>
      </trkpt>
      <trkpt lat="45.07885" lon="6.19628">
        <ele>1813</ele>
        <time>2012-08-15T13:21:28Z</time>
      </trkpt>
      <trkpt lat="45.07884" lon="6.19619">
        <ele>1812</ele>
        <time>2012-08-15T13:21:30Z</time>
      </trkpt>
      <trkpt lat="45.07879" lon="6.1959">
        <ele>1811</ele>
        <time>2012-08-15T13:21:35Z</time>
      </trkpt>
      <trkpt lat="45.07889" lon="6.19592">
        <ele>1805</ele>
        <time>2012-08-15T13:21:41Z</time>
      </trkpt>
      <trkpt lat="45.0789" lon="6.19589">
        <ele>1804</ele>
        <time>2012-08-15T13:21:42Z</time>
      </trkpt>
      <trkpt lat="45.07888" lon="6.19578">
        <ele>1796</ele>
        <time>2012-08-15T13:21:44Z</time>
      </trkpt>
      <trkpt lat="45.07884" lon="6.19575">
        <ele>1798</ele>
        <time>2012-08-15T13:21:51Z</time>
      </trkpt>
      <trkpt lat="45.07884" lon="6.19579">
        <ele>1798</ele>
        <time>2012-08-15T13:21:55Z</time>
      </trkpt>
      <trkpt lat="45.07881" lon="6.19584">
        <ele>1809</ele>
        <time>2012-08-15T13:22:03Z</time>
      </trkpt>
      <trkpt lat="45.07881" lon="6.19595">
        <ele>1810</ele>
        <time>2012-08-15T13:22:13Z</time>
      </trkpt>
      <trkpt lat="45.07882" lon="6.19597">
        <ele>1809</ele>
        <time>2012-08-15T13:22:15Z</time>
      </trkpt>
      <trkpt lat="45.07883" lon="6.19603">
        <ele>1810</ele>
        <time>2012-08-15T13:22:32Z</time>
      </trkpt>
      <trkpt lat="45.07883" lon="6.19603">
        <ele>1810</ele>
        <time>2012-08-15T13:22:37Z</time>
      </trkpt>
      <trkpt lat="45.07881" lon="6.19593">
        <ele>1810</ele>
        <time>2012-08-15T13:22:41Z</time>
      </trkpt>
      <trkpt lat="45.07883" lon="6.1958">
        <ele>1799</ele>
        <time>2012-08-15T13:22:46Z</time>
      </trkpt>
      <trkpt lat="45.07885" lon="6.19573">
        <ele>1798</ele>
        <time>2012-08-15T13:22:49Z</time>
      </trkpt>
      <trkpt lat="45.07885" lon="6.19573">
        <ele>1798</ele>
        <time>2012-08-15T13:23:10Z</time>
      </trkpt>
      <trkpt lat="45.07886" lon="6.19563">
        <ele>1798</ele>
        <time>2012-08-15T13:23:32Z</time>
      </trkpt>
      <trkpt lat="45.07879" lon="6.19541">
        <ele>1799</ele>
        <time>2012-08-15T13:23:36Z</time>
      </trkpt>
      <trkpt lat="45.0788" lon="6.19521">
        <ele>1797</ele>
        <time>2012-08-15T13:23:40Z</time>
      </trkpt>
      <trkpt lat="45.07888" lon="6.19497">
        <ele>1785</ele>
        <time>2012-08-15T13:23:45Z</time>
      </trkpt>
      <trkpt lat="45.07889" lon="6.19494">
        <ele>1785</ele>
        <time>2012-08-15T13:23:46Z</time>
      </trkpt>
      <trkpt lat="45.07889" lon="6.19491">
        <ele>1785</ele>
        <time>2012-08-15T13:23:57Z</time>
      </trkpt>
      <trkpt lat="45.07889" lon="6.19491">
        <ele>1785</ele>
        <time>2012-08-15T13:25:04Z</time>
      </trkpt>
      <trkpt lat="45.0789" lon="6.19477">
        <ele>1785</ele>
        <time>2012-08-15T13:25:08Z</time>
      </trkpt>
      <trkpt lat="45.07891" lon="6.19468">
        <ele>1785</ele>
        <time>2012-08-15T13:25:09Z</time>
      </trkpt>
      <trkpt lat="45.07892" lon="6.19451">
        <ele>1784</ele>
        <time>2012-08-15T13:25:11Z</time>
      </trkpt>
      <trkpt lat="45.07891" lon="6.19437">
        <ele>1783</ele>
        <time>2012-08-15T13:25:13Z</time>
      </trkpt>
      <trkpt lat="45.07892" lon="6.19434">
        <ele>1782</ele>
        <time>2012-08-15T13:25:15Z</time>
      </trkpt>
      <trkpt lat="45.07896" lon="6.19426">
        <ele>1778</ele>
        <time>2012-08-15T13:25:19Z</time>
      </trkpt>
      <trkpt lat="45.07896" lon="6.19418">
        <ele>1777</ele>
        <time>2012-08-15T13:25:20Z</time>
      </trkpt>
      <trkpt lat="45.07896" lon="6.194">
        <ele>1774</ele>
        <time>2012-08-15T13:25:22Z</time>
      </trkpt>
      <trkpt lat="45.07897" lon="6.19366">
        <ele>1775</ele>
        <time>2012-08-15T13:25:26Z</time>
      </trkpt>
      <trkpt lat="45.07897" lon="6.19357">
        <ele>1773</ele>
        <time>2012-08-15T13:25:27Z</time>
      </trkpt>
      <trkpt lat="45.07904" lon="6.19324">
        <ele>1761</ele>
        <time>2012-08-15T13:25:31Z</time>
      </trkpt>
      <trkpt lat="45.07905" lon="6.19313">
        <ele>1763</ele>
        <time>2012-08-15T13:25:32Z</time>
      </trkpt>
      <trkpt lat="45.07906" lon="6.19292">
        <ele>1764</ele>
        <time>2012-08-15T13:25:34Z</time>
      </trkpt>
      <trkpt lat="45.07906" lon="6.19257">
        <ele>1751</ele>
        <time>2012-08-15T13:25:37Z</time>
      </trkpt>
      <trkpt lat="45.07906" lon="6.19231">
        <ele>1753</ele>
        <time>2012-08-15T13:25:39Z</time>
      </trkpt>
      <trkpt lat="45.07911" lon="6.19189">
        <ele>1753</ele>
        <time>2012-08-15T13:25:44Z</time>
      </trkpt>
      <trkpt lat="45.07919" lon="6.1915">
        <ele>1720</ele>
        <time>2012-08-15T13:25:49Z</time>
      </trkpt>
      <trkpt lat="45.0792" lon="6.19144">
        <ele>1717</ele>
        <time>2012-08-15T13:25:50Z</time>
      </trkpt>
      <trkpt lat="45.07921" lon="6.19136">
        <ele>1714</ele>
        <time>2012-08-15T13:25:52Z</time>
      </trkpt>
      <trkpt lat="45.07923" lon="6.19138">
        <ele>1715</ele>
        <time>2012-08-15T13:25:54Z</time>
      </trkpt>
      <trkpt lat="45.07926" lon="6.19128">
        <ele>1712</ele>
        <time>2012-08-15T13:25:59Z</time>
      </trkpt>
      <trkpt lat="45.07926" lon="6.19122">
        <ele>1712</ele>
        <time>2012-08-15T13:26:08Z</time>
      </trkpt>
      <trkpt lat="45.07926" lon="6.19119">
        <ele>1712</ele>
        <time>2012-08-15T13:26:12Z</time>
      </trkpt>
      <trkpt lat="45.0793" lon="6.19101">
        <ele>1713</ele>
        <time>2012-08-15T13:26:16Z</time>
      </trkpt>
      <trkpt lat="45.07933" lon="6.19077">
        <ele>1712</ele>
        <time>2012-08-15T13:26:20Z</time>
      </trkpt>
      <trkpt lat="45.07936" lon="6.19068">
        <ele>1708</ele>
        <time>2012-08-15T13:26:22Z</time>
      </trkpt>
      <trkpt lat="45.07935" lon="6.19042">
        <ele>1703</ele>
        <time>2012-08-15T13:26:27Z</time>
      </trkpt>
      <trkpt lat="45.07939" lon="6.19013">
        <ele>1703</ele>
        <time>2012-08-15T13:26:32Z</time>
      </trkpt>
      <trkpt lat="45.0794" lon="6.1899">
        <ele>1698</ele>
        <time>2012-08-15T13:26:36Z</time>
      </trkpt>
      <trkpt lat="45.07941" lon="6.18983">
        <ele>1697</ele>
        <time>2012-08-15T13:26:37Z</time>
      </trkpt>
      <trkpt lat="45.07943" lon="6.18946">
        <ele>1692</ele>
        <time>2012-08-15T13:26:42Z</time>
      </trkpt>
      <trkpt lat="45.07945" lon="6.18906">
        <ele>1688</ele>
        <time>2012-08-15T13:26:47Z</time>
      </trkpt>
      <trkpt lat="45.07944" lon="6.18874">
        <ele>1686</ele>
        <time>2012-08-15T13:26:51Z</time>
      </trkpt>
      <trkpt lat="45.07944" lon="6.18803">
        <ele>1683</ele>
        <time>2012-08-15T13:26:58Z</time>
      </trkpt>
      <trkpt lat="45.07943" lon="6.18792">
        <ele>1683</ele>
        <time>2012-08-15T13:26:59Z</time>
      </trkpt>
      <trkpt lat="45.07943" lon="6.18748">
        <ele>1684</ele>
        <time>2012-08-15T13:27:03Z</time>
      </trkpt>
      <trkpt lat="45.07947" lon="6.1872">
        <ele>1680</ele>
        <time>2012-08-15T13:27:06Z</time>
      </trkpt>
      <trkpt lat="45.0795" lon="6.18697">
        <ele>1678</ele>
        <time>2012-08-15T13:27:08Z</time>
      </trkpt>
      <trkpt lat="45.07951" lon="6.18681">
        <ele>1678</ele>
        <time>2012-08-15T13:27:10Z</time>
      </trkpt>
      <trkpt lat="45.07951" lon="6.18675">
        <ele>1678</ele>
        <time>2012-08-15T13:27:11Z</time>
      </trkpt>
      <trkpt lat="45.07953" lon="6.18673">
        <ele>1677</ele>
        <time>2012-08-15T13:27:13Z</time>
      </trkpt>
      <trkpt lat="45.0796" lon="6.18692">
        <ele>1675</ele>
        <time>2012-08-15T13:27:18Z</time>
      </trkpt>
      <trkpt lat="45.07965" lon="6.18677">
        <ele>1672</ele>
        <time>2012-08-15T13:27:23Z</time>
      </trkpt>
      <trkpt lat="45.07967" lon="6.18654">
        <ele>1666</ele>
        <time>2012-08-15T13:27:27Z</time>
      </trkpt>
      <trkpt lat="45.07967" lon="6.18648">
        <ele>1666</ele>
        <time>2012-08-15T13:27:28Z</time>
      </trkpt>
      <trkpt lat="45.07967" lon="6.18642">
        <ele>1666</ele>
        <time>2012-08-15T13:27:29Z</time>
      </trkpt>
      <trkpt lat="45.07971" lon="6.18632">
        <ele>1664</ele>
        <time>2012-08-15T13:27:32Z</time>
      </trkpt>
      <trkpt lat="45.07972" lon="6.1862">
        <ele>1663</ele>
        <time>2012-08-15T13:27:34Z</time>
      </trkpt>
      <trkpt lat="45.07975" lon="6.18601">
        <ele>1659</ele>
        <time>2012-08-15T13:27:36Z</time>
      </trkpt>
      <trkpt lat="45.07976" lon="6.18578">
        <ele>1648</ele>
        <time>2012-08-15T13:27:38Z</time>
      </trkpt>
      <trkpt lat="45.07977" lon="6.18553">
        <ele>1648</ele>
        <time>2012-08-15T13:27:40Z</time>
      </trkpt>
      <trkpt lat="45.07977" lon="6.18544">
        <ele>1648</ele>
        <time>2012-08-15T13:27:41Z</time>
      </trkpt>
      <trkpt lat="45.07974" lon="6.185">
        <ele>1642</ele>
        <time>2012-08-15T13:27:45Z</time>
      </trkpt>
      <trkpt lat="45.07973" lon="6.18478">
        <ele>1631</ele>
        <time>2012-08-15T13:27:47Z</time>
      </trkpt>
      <trkpt lat="45.07969" lon="6.18459">
        <ele>1630</ele>
        <time>2012-08-15T13:27:50Z</time>
      </trkpt>
      <trkpt lat="45.07956" lon="6.18433">
        <ele>1630</ele>
        <time>2012-08-15T13:27:53Z</time>
      </trkpt>
      <trkpt lat="45.07965" lon="6.184">
        <ele>1611</ele>
        <time>2012-08-15T13:27:57Z</time>
      </trkpt>
      <trkpt lat="45.07959" lon="6.18402">
        <ele>1613</ele>
        <time>2012-08-15T13:27:58Z</time>
      </trkpt>
      <trkpt lat="45.07962" lon="6.18386">
        <ele>1610</ele>
        <time>2012-08-15T13:28:03Z</time>
      </trkpt>
      <trkpt lat="45.07962" lon="6.18379">
        <ele>1609</ele>
        <time>2012-08-15T13:28:05Z</time>
      </trkpt>
      <trkpt lat="45.07962" lon="6.18371">
        <ele>1608</ele>
        <time>2012-08-15T13:28:07Z</time>
      </trkpt>
      <trkpt lat="45.0796" lon="6.18364">
        <ele>1607</ele>
        <time>2012-08-15T13:28:09Z</time>
      </trkpt>
      <trkpt lat="45.07958" lon="6.18357">
        <ele>1607</ele>
        <time>2012-08-15T13:28:10Z</time>
      </trkpt>
      <trkpt lat="45.07958" lon="6.18341">
        <ele>1605</ele>
        <time>2012-08-15T13:28:14Z</time>
      </trkpt>
      <trkpt lat="45.0797" lon="6.18342">
        <ele>1602</ele>
        <time>2012-08-15T13:28:17Z</time>
      </trkpt>
      <trkpt lat="45.07973" lon="6.18341">
        <ele>1601</ele>
        <time>2012-08-15T13:28:18Z</time>
      </trkpt>
      <trkpt lat="45.07969" lon="6.18336">
        <ele>1602</ele>
        <time>2012-08-15T13:28:21Z</time>
      </trkpt>
      <trkpt lat="45.0796" lon="6.18327">
        <ele>1594</ele>
        <time>2012-08-15T13:28:32Z</time>
      </trkpt>
      <trkpt lat="45.07961" lon="6.18328">
        <ele>1593</ele>
        <time>2012-08-15T13:30:29Z</time>
      </trkpt>
      <trkpt lat="45.0796" lon="6.18327">
        <ele>1593</ele>
        <time>2012-08-15T13:30:49Z</time>
      </trkpt>
      <trkpt lat="45.07958" lon="6.18314">
        <ele>1593</ele>
        <time>2012-08-15T13:30:53Z</time>
      </trkpt>
      <trkpt lat="45.07959" lon="6.18293">
        <ele>1592</ele>
        <time>2012-08-15T13:30:56Z</time>
      </trkpt>
      <trkpt lat="45.07959" lon="6.18278">
        <ele>1591</ele>
        <time>2012-08-15T13:30:58Z</time>
      </trkpt>
      <trkpt lat="45.07951" lon="6.18247">
        <ele>1586</ele>
        <time>2012-08-15T13:31:02Z</time>
      </trkpt>
      <trkpt lat="45.07947" lon="6.18237">
        <ele>1586</ele>
        <time>2012-08-15T13:31:03Z</time>
      </trkpt>
      <trkpt lat="45.0794" lon="6.1822">
        <ele>1585</ele>
        <time>2012-08-15T13:31:05Z</time>
      </trkpt>
      <trkpt lat="45.07933" lon="6.18196">
        <ele>1583</ele>
        <time>2012-08-15T13:31:08Z</time>
      </trkpt>
      <trkpt lat="45.0793" lon="6.18187">
        <ele>1581</ele>
        <time>2012-08-15T13:31:09Z</time>
      </trkpt>
      <trkpt lat="45.07919" lon="6.18172">
        <ele>1576</ele>
        <time>2012-08-15T13:31:11Z</time>
      </trkpt>
      <trkpt lat="45.07904" lon="6.18155">
        <ele>1574</ele>
        <time>2012-08-15T13:31:14Z</time>
      </trkpt>
      <trkpt lat="45.07896" lon="6.18138">
        <ele>1574</ele>
        <time>2012-08-15T13:31:17Z</time>
      </trkpt>
      <trkpt lat="45.0788" lon="6.18117">
        <ele>1574</ele>
        <time>2012-08-15T13:31:22Z</time>
      </trkpt>
      <trkpt lat="45.07874" lon="6.18107">
        <ele>1573</ele>
        <time>2012-08-15T13:31:24Z</time>
      </trkpt>
      <trkpt lat="45.07867" lon="6.1809">
        <ele>1573</ele>
        <time>2012-08-15T13:31:27Z</time>
      </trkpt>
      <trkpt lat="45.07858" lon="6.18058">
        <ele>1568</ele>
        <time>2012-08-15T13:31:33Z</time>
      </trkpt>
      <trkpt lat="45.07851" lon="6.18038">
        <ele>1567</ele>
        <time>2012-08-15T13:31:37Z</time>
      </trkpt>
      <trkpt lat="45.07851" lon="6.18019">
        <ele>1566</ele>
        <time>2012-08-15T13:31:40Z</time>
      </trkpt>
      <trkpt lat="45.07851" lon="6.18012">
        <ele>1566</ele>
        <time>2012-08-15T13:31:41Z</time>
      </trkpt>
      <trkpt lat="45.07853" lon="6.18001">
        <ele>1565</ele>
        <time>2012-08-15T13:31:43Z</time>
      </trkpt>
      <trkpt lat="45.07842" lon="6.17983">
        <ele>1570</ele>
        <time>2012-08-15T13:31:48Z</time>
      </trkpt>
      <trkpt lat="45.07816" lon="6.17976">
        <ele>1567</ele>
        <time>2012-08-15T13:32:02Z</time>
      </trkpt>
      <trkpt lat="45.07767" lon="6.17973">
        <ele>1566</ele>
        <time>2012-08-15T13:32:23Z</time>
      </trkpt>
      <trkpt lat="45.07725" lon="6.17937">
        <ele>1565</ele>
        <time>2012-08-15T13:32:45Z</time>
      </trkpt>
      <trkpt lat="45.07686" lon="6.17905">
        <ele>1568</ele>
        <time>2012-08-15T13:33:03Z</time>
      </trkpt>
      <trkpt lat="45.07631" lon="6.17856">
        <ele>1563</ele>
        <time>2012-08-15T13:33:28Z</time>
      </trkpt>
      <trkpt lat="45.07568" lon="6.17796">
        <ele>1558</ele>
        <time>2012-08-15T13:33:55Z</time>
      </trkpt>
      <trkpt lat="45.07545" lon="6.17761">
        <ele>1560</ele>
        <time>2012-08-15T13:34:06Z</time>
      </trkpt>
      <trkpt lat="45.07505" lon="6.17704">
        <ele>1571</ele>
        <time>2012-08-15T13:34:25Z</time>
      </trkpt>
      <trkpt lat="45.07503" lon="6.17701">
        <ele>1571</ele>
        <time>2012-08-15T13:34:26Z</time>
      </trkpt>
      <trkpt lat="45.07447" lon="6.17638">
        <ele>1569</ele>
        <time>2012-08-15T13:34:48Z</time>
      </trkpt>
      <trkpt lat="45.07397" lon="6.17582">
        <ele>1568</ele>
        <time>2012-08-15T13:35:09Z</time>
      </trkpt>
      <trkpt lat="45.07357" lon="6.17526">
        <ele>1566</ele>
        <time>2012-08-15T13:35:26Z</time>
      </trkpt>
      <trkpt lat="45.07311" lon="6.17454">
        <ele>1559</ele>
        <time>2012-08-15T13:35:48Z</time>
      </trkpt>
      <trkpt lat="45.07299" lon="6.17423">
        <ele>1559</ele>
        <time>2012-08-15T13:35:55Z</time>
      </trkpt>
      <trkpt lat="45.07291" lon="6.17401">
        <ele>1564</ele>
        <time>2012-08-15T13:35:59Z</time>
      </trkpt>
      <trkpt lat="45.07286" lon="6.1739">
        <ele>1564</ele>
        <time>2012-08-15T13:36:01Z</time>
      </trkpt>
      <trkpt lat="45.0727" lon="6.17363">
        <ele>1563</ele>
        <time>2012-08-15T13:36:06Z</time>
      </trkpt>
      <trkpt lat="45.07252" lon="6.17329">
        <ele>1559</ele>
        <time>2012-08-15T13:36:12Z</time>
      </trkpt>
      <trkpt lat="45.07238" lon="6.17286">
        <ele>1552</ele>
        <time>2012-08-15T13:36:23Z</time>
      </trkpt>
      <trkpt lat="45.0723" lon="6.17274">
        <ele>1552</ele>
        <time>2012-08-15T13:36:38Z</time>
      </trkpt>
      <trkpt lat="45.07211" lon="6.17242">
        <ele>1555</ele>
        <time>2012-08-15T13:36:45Z</time>
      </trkpt>
      <trkpt lat="45.07197" lon="6.17189">
        <ele>1555</ele>
        <time>2012-08-15T13:36:56Z</time>
      </trkpt>
      <trkpt lat="45.07196" lon="6.1717">
        <ele>1554</ele>
        <time>2012-08-15T13:37:01Z</time>
      </trkpt>
      <trkpt lat="45.07187" lon="6.17134">
        <ele>1557</ele>
        <time>2012-08-15T13:37:12Z</time>
      </trkpt>
      <trkpt lat="45.07186" lon="6.17126">
        <ele>1557</ele>
        <time>2012-08-15T13:37:28Z</time>
      </trkpt>
      <trkpt lat="45.07187" lon="6.17125">
        <ele>1557</ele>
        <time>2012-08-15T13:37:36Z</time>
      </trkpt>
      <trkpt lat="45.07188" lon="6.17127">
        <ele>1557</ele>
        <time>2012-08-15T13:37:39Z</time>
      </trkpt>
      <trkpt lat="45.07189" lon="6.17128">
        <ele>1557</ele>
        <time>2012-08-15T13:37:44Z</time>
      </trkpt>
    </trkseg>
  </trk>
</gpx>